<?xml version="1.0" encoding="UTF-8" standalone="no" ?>
<gpx xmlns="http://www.topografix.com/GPX/1/1" xmlns:xsi="http://www.w3.org/2001/XMLSchema-instance" xsi:schemaLocation="http://www.topografix.com/GPX/1/1 http://www.topografix.com/GPX/1/1/gpx.xsd" version="1.1" creator="VisuGPX - https://www.visugpx.com">
  <metadata>
    <name>nord vercors</name>
  </metadata>
  <trk>
    <name><![CDATA[Belvédères en Vercors drômois - 23695 - UtagawaVTT.com]]></name>
    <trkseg>
      <trkpt lat="45.04994" lon="5.44886">
        <ele>913</ele>
        <time>2019-10-30T09:19:04Z</time>
      </trkpt>
      <trkpt lat="45.05015" lon="5.44895">
        <ele>913.7</ele>
        <time>2019-10-30T09:19:13Z</time>
      </trkpt>
      <trkpt lat="45.05036" lon="5.44914">
        <ele>914.8</ele>
        <time>2019-10-30T09:19:21Z</time>
      </trkpt>
      <trkpt lat="45.05075" lon="5.44939">
        <ele>914.9</ele>
        <time>2019-10-30T09:19:33Z</time>
      </trkpt>
      <trkpt lat="45.05106" lon="5.44951">
        <ele>914.7</ele>
        <time>2019-10-30T09:19:41Z</time>
      </trkpt>
      <trkpt lat="45.05139" lon="5.44954">
        <ele>914.8</ele>
        <time>2019-10-30T09:19:49Z</time>
      </trkpt>
      <trkpt lat="45.05168" lon="5.44939">
        <ele>914.6</ele>
        <time>2019-10-30T09:19:55Z</time>
      </trkpt>
      <trkpt lat="45.05223" lon="5.44929">
        <ele>916.8</ele>
        <time>2019-10-30T09:20:07Z</time>
      </trkpt>
      <trkpt lat="45.0528" lon="5.44912">
        <ele>915.7</ele>
        <time>2019-10-30T09:20:18Z</time>
      </trkpt>
      <trkpt lat="45.05308" lon="5.44913">
        <ele>913.7</ele>
        <time>2019-10-30T09:20:29Z</time>
      </trkpt>
      <trkpt lat="45.05417" lon="5.44943">
        <ele>908.2</ele>
        <time>2019-10-30T09:20:45Z</time>
      </trkpt>
      <trkpt lat="45.0543" lon="5.44943">
        <ele>908.4</ele>
        <time>2019-10-30T09:20:47Z</time>
      </trkpt>
      <trkpt lat="45.05448" lon="5.44935">
        <ele>907.9</ele>
        <time>2019-10-30T09:20:50Z</time>
      </trkpt>
      <trkpt lat="45.05497" lon="5.44927">
        <ele>907.9</ele>
        <time>2019-10-30T09:20:59Z</time>
      </trkpt>
      <trkpt lat="45.05553" lon="5.44933">
        <ele>908</ele>
        <time>2019-10-30T09:21:09Z</time>
      </trkpt>
      <trkpt lat="45.05607" lon="5.44957">
        <ele>906.5</ele>
        <time>2019-10-30T09:21:17Z</time>
      </trkpt>
      <trkpt lat="45.05664" lon="5.44987">
        <ele>902.7</ele>
        <time>2019-10-30T09:21:24Z</time>
      </trkpt>
      <trkpt lat="45.057" lon="5.45012">
        <ele>900.5</ele>
        <time>2019-10-30T09:21:28Z</time>
      </trkpt>
      <trkpt lat="45.05743" lon="5.45021">
        <ele>898.8</ele>
        <time>2019-10-30T09:21:33Z</time>
      </trkpt>
      <trkpt lat="45.05777" lon="5.45042">
        <ele>900.3</ele>
        <time>2019-10-30T09:21:39Z</time>
      </trkpt>
      <trkpt lat="45.05784" lon="5.45053">
        <ele>901.3</ele>
        <time>2019-10-30T09:21:41Z</time>
      </trkpt>
      <trkpt lat="45.05815" lon="5.45135">
        <ele>911.3</ele>
        <time>2019-10-30T09:21:53Z</time>
      </trkpt>
      <trkpt lat="45.05829" lon="5.4516">
        <ele>915.1</ele>
        <time>2019-10-30T09:21:58Z</time>
      </trkpt>
      <trkpt lat="45.05844" lon="5.45164">
        <ele>916.3</ele>
        <time>2019-10-30T09:22:02Z</time>
      </trkpt>
      <trkpt lat="45.05878" lon="5.45131">
        <ele>916.1</ele>
        <time>2019-10-30T09:22:14Z</time>
      </trkpt>
      <trkpt lat="45.05884" lon="5.45128">
        <ele>916.5</ele>
        <time>2019-10-30T09:22:16Z</time>
      </trkpt>
      <trkpt lat="45.0591" lon="5.45132">
        <ele>919</ele>
        <time>2019-10-30T09:22:26Z</time>
      </trkpt>
      <trkpt lat="45.05932" lon="5.4509">
        <ele>919.4</ele>
        <time>2019-10-30T09:22:37Z</time>
      </trkpt>
      <trkpt lat="45.05947" lon="5.45068">
        <ele>918.7</ele>
        <time>2019-10-30T09:26:14Z</time>
      </trkpt>
      <trkpt lat="45.05969" lon="5.45021">
        <ele>917.1</ele>
        <time>2019-10-30T09:26:25Z</time>
      </trkpt>
      <trkpt lat="45.05976" lon="5.44993">
        <ele>916.2</ele>
        <time>2019-10-30T09:26:29Z</time>
      </trkpt>
      <trkpt lat="45.05978" lon="5.44961">
        <ele>913.9</ele>
        <time>2019-10-30T09:26:34Z</time>
      </trkpt>
      <trkpt lat="45.05999" lon="5.44939">
        <ele>913.8</ele>
        <time>2019-10-30T09:26:43Z</time>
      </trkpt>
      <trkpt lat="45.06054" lon="5.44958">
        <ele>919</ele>
        <time>2019-10-30T09:27:35Z</time>
      </trkpt>
      <trkpt lat="45.06075" lon="5.44961">
        <ele>920.6</ele>
        <time>2019-10-30T09:27:40Z</time>
      </trkpt>
      <trkpt lat="45.06089" lon="5.44984">
        <ele>922.4</ele>
        <time>2019-10-30T09:27:52Z</time>
      </trkpt>
      <trkpt lat="45.06078" lon="5.44962">
        <ele>921</ele>
        <time>2019-10-30T09:28:05Z</time>
      </trkpt>
      <trkpt lat="45.0608" lon="5.44926">
        <ele>918.4</ele>
        <time>2019-10-30T09:28:11Z</time>
      </trkpt>
      <trkpt lat="45.06087" lon="5.44905">
        <ele>917.4</ele>
        <time>2019-10-30T09:28:15Z</time>
      </trkpt>
      <trkpt lat="45.06093" lon="5.44898">
        <ele>917</ele>
        <time>2019-10-30T09:28:17Z</time>
      </trkpt>
      <trkpt lat="45.06124" lon="5.44882">
        <ele>916.7</ele>
        <time>2019-10-30T09:28:24Z</time>
      </trkpt>
      <trkpt lat="45.06152" lon="5.44844">
        <ele>916.5</ele>
        <time>2019-10-30T09:28:34Z</time>
      </trkpt>
      <trkpt lat="45.06159" lon="5.44823">
        <ele>916.9</ele>
        <time>2019-10-30T09:28:38Z</time>
      </trkpt>
      <trkpt lat="45.06164" lon="5.44782">
        <ele>918.1</ele>
        <time>2019-10-30T09:28:45Z</time>
      </trkpt>
      <trkpt lat="45.06155" lon="5.44748">
        <ele>918.8</ele>
        <time>2019-10-30T09:28:55Z</time>
      </trkpt>
      <trkpt lat="45.06154" lon="5.44725">
        <ele>921.1</ele>
        <time>2019-10-30T09:29:00Z</time>
      </trkpt>
      <trkpt lat="45.06158" lon="5.447">
        <ele>923.6</ele>
        <time>2019-10-30T09:29:05Z</time>
      </trkpt>
      <trkpt lat="45.06158" lon="5.44669">
        <ele>926.7</ele>
        <time>2019-10-30T09:29:12Z</time>
      </trkpt>
      <trkpt lat="45.06165" lon="5.44645">
        <ele>927</ele>
        <time>2019-10-30T09:29:17Z</time>
      </trkpt>
      <trkpt lat="45.06168" lon="5.44592">
        <ele>926.9</ele>
        <time>2019-10-30T09:29:24Z</time>
      </trkpt>
      <trkpt lat="45.06184" lon="5.44549">
        <ele>925.6</ele>
        <time>2019-10-30T09:29:30Z</time>
      </trkpt>
      <trkpt lat="45.06186" lon="5.4453">
        <ele>925.6</ele>
        <time>2019-10-30T09:29:33Z</time>
      </trkpt>
      <trkpt lat="45.06203" lon="5.44467">
        <ele>926.3</ele>
        <time>2019-10-30T09:29:42Z</time>
      </trkpt>
      <trkpt lat="45.06206" lon="5.44437">
        <ele>927.2</ele>
        <time>2019-10-30T09:29:47Z</time>
      </trkpt>
      <trkpt lat="45.06202" lon="5.444">
        <ele>928.4</ele>
        <time>2019-10-30T09:29:54Z</time>
      </trkpt>
      <trkpt lat="45.06192" lon="5.44382">
        <ele>928.7</ele>
        <time>2019-10-30T09:29:58Z</time>
      </trkpt>
      <trkpt lat="45.0618" lon="5.44373">
        <ele>928.5</ele>
        <time>2019-10-30T09:30:01Z</time>
      </trkpt>
      <trkpt lat="45.06173" lon="5.44365">
        <ele>928.7</ele>
        <time>2019-10-30T09:30:03Z</time>
      </trkpt>
      <trkpt lat="45.06165" lon="5.44338">
        <ele>930.4</ele>
        <time>2019-10-30T09:30:08Z</time>
      </trkpt>
      <trkpt lat="45.06165" lon="5.44307">
        <ele>930.1</ele>
        <time>2019-10-30T09:30:13Z</time>
      </trkpt>
      <trkpt lat="45.06173" lon="5.44295">
        <ele>930.2</ele>
        <time>2019-10-30T09:30:16Z</time>
      </trkpt>
      <trkpt lat="45.06203" lon="5.44274">
        <ele>930.3</ele>
        <time>2019-10-30T09:30:23Z</time>
      </trkpt>
      <trkpt lat="45.06212" lon="5.4426">
        <ele>929.9</ele>
        <time>2019-10-30T09:30:26Z</time>
      </trkpt>
      <trkpt lat="45.06223" lon="5.44203">
        <ele>929.1</ele>
        <time>2019-10-30T09:30:34Z</time>
      </trkpt>
      <trkpt lat="45.06235" lon="5.44173">
        <ele>929.3</ele>
        <time>2019-10-30T09:30:39Z</time>
      </trkpt>
      <trkpt lat="45.06238" lon="5.44126">
        <ele>930</ele>
        <time>2019-10-30T09:30:46Z</time>
      </trkpt>
      <trkpt lat="45.06235" lon="5.44104">
        <ele>930.2</ele>
        <time>2019-10-30T09:30:50Z</time>
      </trkpt>
      <trkpt lat="45.06222" lon="5.4406">
        <ele>929.6</ele>
        <time>2019-10-30T09:30:58Z</time>
      </trkpt>
      <trkpt lat="45.06207" lon="5.44031">
        <ele>928.8</ele>
        <time>2019-10-30T09:31:03Z</time>
      </trkpt>
      <trkpt lat="45.06205" lon="5.44018">
        <ele>928.7</ele>
        <time>2019-10-30T09:31:05Z</time>
      </trkpt>
      <trkpt lat="45.06205" lon="5.43982">
        <ele>927.2</ele>
        <time>2019-10-30T09:31:11Z</time>
      </trkpt>
      <trkpt lat="45.06214" lon="5.43957">
        <ele>924.5</ele>
        <time>2019-10-30T09:31:19Z</time>
      </trkpt>
      <trkpt lat="45.06217" lon="5.43941">
        <ele>922.5</ele>
        <time>2019-10-30T09:31:25Z</time>
      </trkpt>
      <trkpt lat="45.06211" lon="5.43941">
        <ele>923.5</ele>
        <time>2019-10-30T09:31:47Z</time>
      </trkpt>
      <trkpt lat="45.06198" lon="5.43925">
        <ele>924.6</ele>
        <time>2019-10-30T09:31:53Z</time>
      </trkpt>
      <trkpt lat="45.06182" lon="5.43917">
        <ele>927.8</ele>
        <time>2019-10-30T09:31:59Z</time>
      </trkpt>
      <trkpt lat="45.06169" lon="5.43906">
        <ele>929.6</ele>
        <time>2019-10-30T09:32:02Z</time>
      </trkpt>
      <trkpt lat="45.0616" lon="5.43903">
        <ele>928.3</ele>
        <time>2019-10-30T09:32:04Z</time>
      </trkpt>
      <trkpt lat="45.06145" lon="5.43904">
        <ele>924.9</ele>
        <time>2019-10-30T09:32:08Z</time>
      </trkpt>
      <trkpt lat="45.0614" lon="5.43925">
        <ele>925</ele>
        <time>2019-10-30T09:32:12Z</time>
      </trkpt>
      <trkpt lat="45.06126" lon="5.43952">
        <ele>922.3</ele>
        <time>2019-10-30T09:32:18Z</time>
      </trkpt>
      <trkpt lat="45.0612" lon="5.43983">
        <ele>922</ele>
        <time>2019-10-30T09:32:23Z</time>
      </trkpt>
      <trkpt lat="45.06124" lon="5.44009">
        <ele>922.9</ele>
        <time>2019-10-30T09:32:29Z</time>
      </trkpt>
      <trkpt lat="45.06121" lon="5.44018">
        <ele>922.5</ele>
        <time>2019-10-30T09:32:31Z</time>
      </trkpt>
      <trkpt lat="45.06112" lon="5.44026">
        <ele>921.4</ele>
        <time>2019-10-30T09:32:34Z</time>
      </trkpt>
      <trkpt lat="45.06083" lon="5.4404">
        <ele>917.7</ele>
        <time>2019-10-30T09:32:40Z</time>
      </trkpt>
      <trkpt lat="45.06065" lon="5.44063">
        <ele>912.7</ele>
        <time>2019-10-30T09:32:45Z</time>
      </trkpt>
      <trkpt lat="45.06036" lon="5.44086">
        <ele>908.5</ele>
        <time>2019-10-30T09:32:53Z</time>
      </trkpt>
      <trkpt lat="45.06019" lon="5.44108">
        <ele>906</ele>
        <time>2019-10-30T09:33:00Z</time>
      </trkpt>
      <trkpt lat="45.06008" lon="5.44149">
        <ele>906.1</ele>
        <time>2019-10-30T09:33:09Z</time>
      </trkpt>
      <trkpt lat="45.06002" lon="5.44159">
        <ele>905.9</ele>
        <time>2019-10-30T09:33:11Z</time>
      </trkpt>
      <trkpt lat="45.05992" lon="5.44191">
        <ele>905.2</ele>
        <time>2019-10-30T09:33:16Z</time>
      </trkpt>
      <trkpt lat="45.05982" lon="5.44211">
        <ele>904.2</ele>
        <time>2019-10-30T09:33:19Z</time>
      </trkpt>
      <trkpt lat="45.05969" lon="5.44227">
        <ele>903</ele>
        <time>2019-10-30T09:33:22Z</time>
      </trkpt>
      <trkpt lat="45.05959" lon="5.44234">
        <ele>902</ele>
        <time>2019-10-30T09:33:24Z</time>
      </trkpt>
      <trkpt lat="45.05942" lon="5.44255">
        <ele>901</ele>
        <time>2019-10-30T09:33:28Z</time>
      </trkpt>
      <trkpt lat="45.05904" lon="5.44285">
        <ele>899.2</ele>
        <time>2019-10-30T09:33:35Z</time>
      </trkpt>
      <trkpt lat="45.05879" lon="5.44316">
        <ele>899.6</ele>
        <time>2019-10-30T09:33:39Z</time>
      </trkpt>
      <trkpt lat="45.0584" lon="5.44395">
        <ele>899.1</ele>
        <time>2019-10-30T09:33:53Z</time>
      </trkpt>
      <trkpt lat="45.05809" lon="5.44434">
        <ele>900.6</ele>
        <time>2019-10-30T09:34:00Z</time>
      </trkpt>
      <trkpt lat="45.05785" lon="5.44451">
        <ele>902.2</ele>
        <time>2019-10-30T09:34:06Z</time>
      </trkpt>
      <trkpt lat="45.0576" lon="5.44461">
        <ele>903.6</ele>
        <time>2019-10-30T09:34:12Z</time>
      </trkpt>
      <trkpt lat="45.05712" lon="5.4447">
        <ele>904.3</ele>
        <time>2019-10-30T09:34:23Z</time>
      </trkpt>
      <trkpt lat="45.05688" lon="5.44494">
        <ele>904.8</ele>
        <time>2019-10-30T09:34:30Z</time>
      </trkpt>
      <trkpt lat="45.05668" lon="5.44523">
        <ele>905.8</ele>
        <time>2019-10-30T09:34:38Z</time>
      </trkpt>
      <trkpt lat="45.05659" lon="5.44526">
        <ele>906.5</ele>
        <time>2019-10-30T09:34:41Z</time>
      </trkpt>
      <trkpt lat="45.05642" lon="5.44544">
        <ele>908.1</ele>
        <time>2019-10-30T09:34:45Z</time>
      </trkpt>
      <trkpt lat="45.05592" lon="5.44577">
        <ele>910.7</ele>
        <time>2019-10-30T09:34:55Z</time>
      </trkpt>
      <trkpt lat="45.0557" lon="5.44597">
        <ele>910.1</ele>
        <time>2019-10-30T09:35:01Z</time>
      </trkpt>
      <trkpt lat="45.05554" lon="5.44606">
        <ele>909.6</ele>
        <time>2019-10-30T09:35:05Z</time>
      </trkpt>
      <trkpt lat="45.0555" lon="5.44611">
        <ele>909.3</ele>
        <time>2019-10-30T09:35:06Z</time>
      </trkpt>
      <trkpt lat="45.05529" lon="5.44623">
        <ele>908.9</ele>
        <time>2019-10-30T09:35:11Z</time>
      </trkpt>
      <trkpt lat="45.05499" lon="5.44634">
        <ele>908.8</ele>
        <time>2019-10-30T09:35:19Z</time>
      </trkpt>
      <trkpt lat="45.0548" lon="5.44626">
        <ele>908.2</ele>
        <time>2019-10-30T09:35:25Z</time>
      </trkpt>
      <trkpt lat="45.05463" lon="5.44602">
        <ele>908.2</ele>
        <time>2019-10-30T09:35:29Z</time>
      </trkpt>
      <trkpt lat="45.05423" lon="5.44588">
        <ele>907.1</ele>
        <time>2019-10-30T09:35:36Z</time>
      </trkpt>
      <trkpt lat="45.05407" lon="5.44577">
        <ele>906.9</ele>
        <time>2019-10-30T09:35:39Z</time>
      </trkpt>
      <trkpt lat="45.0539" lon="5.44554">
        <ele>906.8</ele>
        <time>2019-10-30T09:35:44Z</time>
      </trkpt>
      <trkpt lat="45.0537" lon="5.44547">
        <ele>906.4</ele>
        <time>2019-10-30T09:35:48Z</time>
      </trkpt>
      <trkpt lat="45.05345" lon="5.44526">
        <ele>905.6</ele>
        <time>2019-10-30T09:35:53Z</time>
      </trkpt>
      <trkpt lat="45.05322" lon="5.44513">
        <ele>904.8</ele>
        <time>2019-10-30T09:35:57Z</time>
      </trkpt>
      <trkpt lat="45.05294" lon="5.44502">
        <ele>903.6</ele>
        <time>2019-10-30T09:36:02Z</time>
      </trkpt>
      <trkpt lat="45.05259" lon="5.44474">
        <ele>902.2</ele>
        <time>2019-10-30T09:36:10Z</time>
      </trkpt>
      <trkpt lat="45.05238" lon="5.44468">
        <ele>901.7</ele>
        <time>2019-10-30T09:36:15Z</time>
      </trkpt>
      <trkpt lat="45.05228" lon="5.44472">
        <ele>901.4</ele>
        <time>2019-10-30T09:36:18Z</time>
      </trkpt>
      <trkpt lat="45.05218" lon="5.44484">
        <ele>901.2</ele>
        <time>2019-10-30T09:36:22Z</time>
      </trkpt>
      <trkpt lat="45.05208" lon="5.44503">
        <ele>901</ele>
        <time>2019-10-30T09:36:26Z</time>
      </trkpt>
      <trkpt lat="45.05195" lon="5.44517">
        <ele>901</ele>
        <time>2019-10-30T09:36:30Z</time>
      </trkpt>
      <trkpt lat="45.05175" lon="5.44523">
        <ele>900.5</ele>
        <time>2019-10-30T09:36:34Z</time>
      </trkpt>
      <trkpt lat="45.05115" lon="5.44557">
        <ele>899.3</ele>
        <time>2019-10-30T09:36:47Z</time>
      </trkpt>
      <trkpt lat="45.05095" lon="5.44576">
        <ele>899.1</ele>
        <time>2019-10-30T09:36:52Z</time>
      </trkpt>
      <trkpt lat="45.05086" lon="5.44594">
        <ele>899.3</ele>
        <time>2019-10-30T09:36:56Z</time>
      </trkpt>
      <trkpt lat="45.05074" lon="5.44635">
        <ele>900.3</ele>
        <time>2019-10-30T09:37:03Z</time>
      </trkpt>
      <trkpt lat="45.05068" lon="5.44638">
        <ele>900.3</ele>
        <time>2019-10-30T09:37:05Z</time>
      </trkpt>
      <trkpt lat="45.05017" lon="5.446">
        <ele>900.5</ele>
        <time>2019-10-30T09:37:19Z</time>
      </trkpt>
      <trkpt lat="45.05013" lon="5.44588">
        <ele>900.7</ele>
        <time>2019-10-30T09:37:21Z</time>
      </trkpt>
      <trkpt lat="45.05011" lon="5.44558">
        <ele>899.9</ele>
        <time>2019-10-30T09:37:25Z</time>
      </trkpt>
      <trkpt lat="45.05013" lon="5.44523">
        <ele>898.6</ele>
        <time>2019-10-30T09:37:31Z</time>
      </trkpt>
      <trkpt lat="45.05018" lon="5.44501">
        <ele>897.8</ele>
        <time>2019-10-30T09:37:34Z</time>
      </trkpt>
      <trkpt lat="45.05021" lon="5.44455">
        <ele>897.6</ele>
        <time>2019-10-30T09:37:38Z</time>
      </trkpt>
      <trkpt lat="45.05036" lon="5.44401">
        <ele>898</ele>
        <time>2019-10-30T09:37:43Z</time>
      </trkpt>
      <trkpt lat="45.05058" lon="5.44333">
        <ele>900.9</ele>
        <time>2019-10-30T09:37:51Z</time>
      </trkpt>
      <trkpt lat="45.05066" lon="5.44303">
        <ele>900.1</ele>
        <time>2019-10-30T09:37:55Z</time>
      </trkpt>
      <trkpt lat="45.0508" lon="5.44277">
        <ele>899.4</ele>
        <time>2019-10-30T09:38:00Z</time>
      </trkpt>
      <trkpt lat="45.0509" lon="5.44267">
        <ele>898.7</ele>
        <time>2019-10-30T09:38:03Z</time>
      </trkpt>
      <trkpt lat="45.05115" lon="5.44259">
        <ele>896.6</ele>
        <time>2019-10-30T09:38:08Z</time>
      </trkpt>
      <trkpt lat="45.05133" lon="5.4425">
        <ele>894.8</ele>
        <time>2019-10-30T09:38:11Z</time>
      </trkpt>
      <trkpt lat="45.05147" lon="5.44236">
        <ele>892.9</ele>
        <time>2019-10-30T09:38:13Z</time>
      </trkpt>
      <trkpt lat="45.05186" lon="5.44175">
        <ele>890.5</ele>
        <time>2019-10-30T09:38:20Z</time>
      </trkpt>
      <trkpt lat="45.05191" lon="5.44161">
        <ele>890.2</ele>
        <time>2019-10-30T09:38:22Z</time>
      </trkpt>
      <trkpt lat="45.05191" lon="5.44156">
        <ele>890</ele>
        <time>2019-10-30T09:38:23Z</time>
      </trkpt>
      <trkpt lat="45.05171" lon="5.44123">
        <ele>889</ele>
        <time>2019-10-30T09:38:29Z</time>
      </trkpt>
      <trkpt lat="45.05168" lon="5.44104">
        <ele>888.5</ele>
        <time>2019-10-30T09:38:31Z</time>
      </trkpt>
      <trkpt lat="45.05167" lon="5.44069">
        <ele>887.5</ele>
        <time>2019-10-30T09:38:34Z</time>
      </trkpt>
      <trkpt lat="45.05174" lon="5.44025">
        <ele>885.8</ele>
        <time>2019-10-30T09:38:38Z</time>
      </trkpt>
      <trkpt lat="45.05172" lon="5.43995">
        <ele>885</ele>
        <time>2019-10-30T09:38:41Z</time>
      </trkpt>
      <trkpt lat="45.05163" lon="5.43966">
        <ele>885.7</ele>
        <time>2019-10-30T09:38:44Z</time>
      </trkpt>
      <trkpt lat="45.05154" lon="5.43954">
        <ele>885.8</ele>
        <time>2019-10-30T09:38:46Z</time>
      </trkpt>
      <trkpt lat="45.05121" lon="5.43947">
        <ele>885.3</ele>
        <time>2019-10-30T09:38:51Z</time>
      </trkpt>
      <trkpt lat="45.05053" lon="5.4392">
        <ele>886.2</ele>
        <time>2019-10-30T09:39:02Z</time>
      </trkpt>
      <trkpt lat="45.05026" lon="5.43899">
        <ele>886.9</ele>
        <time>2019-10-30T09:39:07Z</time>
      </trkpt>
      <trkpt lat="45.05015" lon="5.43882">
        <ele>887</ele>
        <time>2019-10-30T09:39:10Z</time>
      </trkpt>
      <trkpt lat="45.05003" lon="5.43843">
        <ele>887.1</ele>
        <time>2019-10-30T09:39:15Z</time>
      </trkpt>
      <trkpt lat="45.04999" lon="5.4381">
        <ele>887.2</ele>
        <time>2019-10-30T09:39:19Z</time>
      </trkpt>
      <trkpt lat="45.04986" lon="5.43765">
        <ele>887.1</ele>
        <time>2019-10-30T09:39:25Z</time>
      </trkpt>
      <trkpt lat="45.04979" lon="5.43754">
        <ele>886.9</ele>
        <time>2019-10-30T09:39:27Z</time>
      </trkpt>
      <trkpt lat="45.04954" lon="5.43746">
        <ele>886</ele>
        <time>2019-10-30T09:39:32Z</time>
      </trkpt>
      <trkpt lat="45.04936" lon="5.43735">
        <ele>885.9</ele>
        <time>2019-10-30T09:39:36Z</time>
      </trkpt>
      <trkpt lat="45.04914" lon="5.43732">
        <ele>885.4</ele>
        <time>2019-10-30T09:39:40Z</time>
      </trkpt>
      <trkpt lat="45.04896" lon="5.43734">
        <ele>885.9</ele>
        <time>2019-10-30T09:39:44Z</time>
      </trkpt>
      <trkpt lat="45.0486" lon="5.43712">
        <ele>888.5</ele>
        <time>2019-10-30T09:39:52Z</time>
      </trkpt>
      <trkpt lat="45.04819" lon="5.43715">
        <ele>889.7</ele>
        <time>2019-10-30T09:40:01Z</time>
      </trkpt>
      <trkpt lat="45.0481" lon="5.43712">
        <ele>890.3</ele>
        <time>2019-10-30T09:40:03Z</time>
      </trkpt>
      <trkpt lat="45.04797" lon="5.43697">
        <ele>891.6</ele>
        <time>2019-10-30T09:40:06Z</time>
      </trkpt>
      <trkpt lat="45.04792" lon="5.43686">
        <ele>892.4</ele>
        <time>2019-10-30T09:40:08Z</time>
      </trkpt>
      <trkpt lat="45.0479" lon="5.43668">
        <ele>893.5</ele>
        <time>2019-10-30T09:40:11Z</time>
      </trkpt>
      <trkpt lat="45.04791" lon="5.43648">
        <ele>894.8</ele>
        <time>2019-10-30T09:40:14Z</time>
      </trkpt>
      <trkpt lat="45.04799" lon="5.43621">
        <ele>896.7</ele>
        <time>2019-10-30T09:40:19Z</time>
      </trkpt>
      <trkpt lat="45.04805" lon="5.43608">
        <ele>897.7</ele>
        <time>2019-10-30T09:40:22Z</time>
      </trkpt>
      <trkpt lat="45.04808" lon="5.43594">
        <ele>898.9</ele>
        <time>2019-10-30T09:40:24Z</time>
      </trkpt>
      <trkpt lat="45.04831" lon="5.43558">
        <ele>902.4</ele>
        <time>2019-10-30T09:40:35Z</time>
      </trkpt>
      <trkpt lat="45.04833" lon="5.43549">
        <ele>903.3</ele>
        <time>2019-10-30T09:40:37Z</time>
      </trkpt>
      <trkpt lat="45.04854" lon="5.43515">
        <ele>906.4</ele>
        <time>2019-10-30T09:40:47Z</time>
      </trkpt>
      <trkpt lat="45.04869" lon="5.43497">
        <ele>908.2</ele>
        <time>2019-10-30T09:40:52Z</time>
      </trkpt>
      <trkpt lat="45.04883" lon="5.43468">
        <ele>910.4</ele>
        <time>2019-10-30T09:40:58Z</time>
      </trkpt>
      <trkpt lat="45.04888" lon="5.43441">
        <ele>912.7</ele>
        <time>2019-10-30T09:41:03Z</time>
      </trkpt>
      <trkpt lat="45.04881" lon="5.4342">
        <ele>914</ele>
        <time>2019-10-30T09:41:08Z</time>
      </trkpt>
      <trkpt lat="45.04877" lon="5.43391">
        <ele>917.5</ele>
        <time>2019-10-30T09:41:17Z</time>
      </trkpt>
      <trkpt lat="45.04877" lon="5.43359">
        <ele>921.8</ele>
        <time>2019-10-30T09:41:40Z</time>
      </trkpt>
      <trkpt lat="45.04871" lon="5.43341">
        <ele>923.6</ele>
        <time>2019-10-30T09:41:47Z</time>
      </trkpt>
      <trkpt lat="45.04867" lon="5.43309">
        <ele>929.9</ele>
        <time>2019-10-30T09:41:59Z</time>
      </trkpt>
      <trkpt lat="45.04877" lon="5.43277">
        <ele>938</ele>
        <time>2019-10-30T09:42:15Z</time>
      </trkpt>
      <trkpt lat="45.04909" lon="5.43266">
        <ele>942.2</ele>
        <time>2019-10-30T09:42:35Z</time>
      </trkpt>
      <trkpt lat="45.04931" lon="5.43252">
        <ele>946.2</ele>
        <time>2019-10-30T09:42:54Z</time>
      </trkpt>
      <trkpt lat="45.04946" lon="5.43248">
        <ele>947.5</ele>
        <time>2019-10-30T09:45:22Z</time>
      </trkpt>
      <trkpt lat="45.04958" lon="5.43238">
        <ele>949.5</ele>
        <time>2019-10-30T09:45:30Z</time>
      </trkpt>
      <trkpt lat="45.04966" lon="5.43225">
        <ele>952</ele>
        <time>2019-10-30T09:45:37Z</time>
      </trkpt>
      <trkpt lat="45.04971" lon="5.4321">
        <ele>954.6</ele>
        <time>2019-10-30T09:45:43Z</time>
      </trkpt>
      <trkpt lat="45.04971" lon="5.43186">
        <ele>958.6</ele>
        <time>2019-10-30T09:45:53Z</time>
      </trkpt>
      <trkpt lat="45.04977" lon="5.43175">
        <ele>960.2</ele>
        <time>2019-10-30T09:45:57Z</time>
      </trkpt>
      <trkpt lat="45.05001" lon="5.43153">
        <ele>962.5</ele>
        <time>2019-10-30T09:46:10Z</time>
      </trkpt>
      <trkpt lat="45.05004" lon="5.43143">
        <ele>963.4</ele>
        <time>2019-10-30T09:46:14Z</time>
      </trkpt>
      <trkpt lat="45.05004" lon="5.43131">
        <ele>964.7</ele>
        <time>2019-10-30T09:46:19Z</time>
      </trkpt>
      <trkpt lat="45.05009" lon="5.43116">
        <ele>966.1</ele>
        <time>2019-10-30T09:46:25Z</time>
      </trkpt>
      <trkpt lat="45.04986" lon="5.43005">
        <ele>983.7</ele>
        <time>2019-10-30T09:47:23Z</time>
      </trkpt>
      <trkpt lat="45.04986" lon="5.42954">
        <ele>989.7</ele>
        <time>2019-10-30T09:48:20Z</time>
      </trkpt>
      <trkpt lat="45.04994" lon="5.42943">
        <ele>990.5</ele>
        <time>2019-10-30T09:48:26Z</time>
      </trkpt>
      <trkpt lat="45.05006" lon="5.42934">
        <ele>990.8</ele>
        <time>2019-10-30T09:48:35Z</time>
      </trkpt>
      <trkpt lat="45.05017" lon="5.42913">
        <ele>992.2</ele>
        <time>2019-10-30T09:48:44Z</time>
      </trkpt>
      <trkpt lat="45.04994" lon="5.42856">
        <ele>998.7</ele>
        <time>2019-10-30T09:49:14Z</time>
      </trkpt>
      <trkpt lat="45.0494" lon="5.42779">
        <ele>1012.5</ele>
        <time>2019-10-30T09:49:49Z</time>
      </trkpt>
      <trkpt lat="45.04931" lon="5.42762">
        <ele>1015.4</ele>
        <time>2019-10-30T09:49:53Z</time>
      </trkpt>
      <trkpt lat="45.04915" lon="5.4272">
        <ele>1019.3</ele>
        <time>2019-10-30T09:50:03Z</time>
      </trkpt>
      <trkpt lat="45.04909" lon="5.42698">
        <ele>1020.1</ele>
        <time>2019-10-30T09:50:08Z</time>
      </trkpt>
      <trkpt lat="45.04907" lon="5.42669">
        <ele>1020.3</ele>
        <time>2019-10-30T09:50:15Z</time>
      </trkpt>
      <trkpt lat="45.04867" lon="5.426">
        <ele>1021.4</ele>
        <time>2019-10-30T09:50:39Z</time>
      </trkpt>
      <trkpt lat="45.04857" lon="5.42589">
        <ele>1021.3</ele>
        <time>2019-10-30T09:50:44Z</time>
      </trkpt>
      <trkpt lat="45.04832" lon="5.42577">
        <ele>1022.6</ele>
        <time>2019-10-30T09:50:54Z</time>
      </trkpt>
      <trkpt lat="45.04745" lon="5.42571">
        <ele>1028.1</ele>
        <time>2019-10-30T09:51:19Z</time>
      </trkpt>
      <trkpt lat="45.04719" lon="5.42563">
        <ele>1028.6</ele>
        <time>2019-10-30T09:51:26Z</time>
      </trkpt>
      <trkpt lat="45.04714" lon="5.42555">
        <ele>1029.3</ele>
        <time>2019-10-30T09:51:29Z</time>
      </trkpt>
      <trkpt lat="45.04716" lon="5.42536">
        <ele>1031.1</ele>
        <time>2019-10-30T09:51:36Z</time>
      </trkpt>
      <trkpt lat="45.04715" lon="5.42521">
        <ele>1032.6</ele>
        <time>2019-10-30T09:51:41Z</time>
      </trkpt>
      <trkpt lat="45.04723" lon="5.42477">
        <ele>1036.4</ele>
        <time>2019-10-30T09:51:54Z</time>
      </trkpt>
      <trkpt lat="45.04735" lon="5.42456">
        <ele>1037.7</ele>
        <time>2019-10-30T09:52:02Z</time>
      </trkpt>
      <trkpt lat="45.04739" lon="5.42438">
        <ele>1038.9</ele>
        <time>2019-10-30T09:52:07Z</time>
      </trkpt>
      <trkpt lat="45.04737" lon="5.42426">
        <ele>1039.7</ele>
        <time>2019-10-30T09:52:11Z</time>
      </trkpt>
      <trkpt lat="45.04716" lon="5.4241">
        <ele>1041.3</ele>
        <time>2019-10-30T09:52:20Z</time>
      </trkpt>
      <trkpt lat="45.0471" lon="5.42401">
        <ele>1042.2</ele>
        <time>2019-10-30T09:52:24Z</time>
      </trkpt>
      <trkpt lat="45.04684" lon="5.42343">
        <ele>1048.2</ele>
        <time>2019-10-30T09:52:45Z</time>
      </trkpt>
      <trkpt lat="45.04676" lon="5.42303">
        <ele>1052.1</ele>
        <time>2019-10-30T09:52:57Z</time>
      </trkpt>
      <trkpt lat="45.0467" lon="5.42289">
        <ele>1053.6</ele>
        <time>2019-10-30T09:53:02Z</time>
      </trkpt>
      <trkpt lat="45.04656" lon="5.42274">
        <ele>1054.6</ele>
        <time>2019-10-30T09:53:09Z</time>
      </trkpt>
      <trkpt lat="45.04631" lon="5.42238">
        <ele>1058.2</ele>
        <time>2019-10-30T09:53:21Z</time>
      </trkpt>
      <trkpt lat="45.04594" lon="5.42201">
        <ele>1063.6</ele>
        <time>2019-10-30T09:53:37Z</time>
      </trkpt>
      <trkpt lat="45.04569" lon="5.4219">
        <ele>1065.2</ele>
        <time>2019-10-30T09:53:46Z</time>
      </trkpt>
      <trkpt lat="45.04547" lon="5.42189">
        <ele>1064.9</ele>
        <time>2019-10-30T09:53:54Z</time>
      </trkpt>
      <trkpt lat="45.04533" lon="5.42193">
        <ele>1064.3</ele>
        <time>2019-10-30T09:54:00Z</time>
      </trkpt>
      <trkpt lat="45.0453" lon="5.42191">
        <ele>1064.5</ele>
        <time>2019-10-30T09:54:02Z</time>
      </trkpt>
      <trkpt lat="45.04528" lon="5.42182">
        <ele>1065.3</ele>
        <time>2019-10-30T09:54:05Z</time>
      </trkpt>
      <trkpt lat="45.04533" lon="5.42156">
        <ele>1068.7</ele>
        <time>2019-10-30T09:54:13Z</time>
      </trkpt>
      <trkpt lat="45.0456" lon="5.421">
        <ele>1078.2</ele>
        <time>2019-10-30T09:54:34Z</time>
      </trkpt>
      <trkpt lat="45.0457" lon="5.42093">
        <ele>1079.7</ele>
        <time>2019-10-30T09:54:40Z</time>
      </trkpt>
      <trkpt lat="45.04591" lon="5.4209">
        <ele>1081</ele>
        <time>2019-10-30T09:54:49Z</time>
      </trkpt>
      <trkpt lat="45.04596" lon="5.42085">
        <ele>1081.9</ele>
        <time>2019-10-30T09:54:51Z</time>
      </trkpt>
      <trkpt lat="45.04594" lon="5.42078">
        <ele>1083.2</ele>
        <time>2019-10-30T09:54:54Z</time>
      </trkpt>
      <trkpt lat="45.0458" lon="5.4207">
        <ele>1084.3</ele>
        <time>2019-10-30T09:55:02Z</time>
      </trkpt>
      <trkpt lat="45.04561" lon="5.42046">
        <ele>1087</ele>
        <time>2019-10-30T09:55:16Z</time>
      </trkpt>
      <trkpt lat="45.04554" lon="5.42025">
        <ele>1089.9</ele>
        <time>2019-10-30T09:55:23Z</time>
      </trkpt>
      <trkpt lat="45.04542" lon="5.41976">
        <ele>1095.8</ele>
        <time>2019-10-30T09:55:37Z</time>
      </trkpt>
      <trkpt lat="45.04529" lon="5.41941">
        <ele>1098.4</ele>
        <time>2019-10-30T09:55:51Z</time>
      </trkpt>
      <trkpt lat="45.04509" lon="5.41759">
        <ele>1115.8</ele>
        <time>2019-10-30T09:56:43Z</time>
      </trkpt>
      <trkpt lat="45.04499" lon="5.41709">
        <ele>1117.8</ele>
        <time>2019-10-30T09:56:57Z</time>
      </trkpt>
      <trkpt lat="45.04503" lon="5.41679">
        <ele>1120.8</ele>
        <time>2019-10-30T09:57:06Z</time>
      </trkpt>
      <trkpt lat="45.04499" lon="5.41615">
        <ele>1127.7</ele>
        <time>2019-10-30T09:57:24Z</time>
      </trkpt>
      <trkpt lat="45.04489" lon="5.41586">
        <ele>1131</ele>
        <time>2019-10-30T09:57:33Z</time>
      </trkpt>
      <trkpt lat="45.04469" lon="5.41571">
        <ele>1130.3</ele>
        <time>2019-10-30T09:57:42Z</time>
      </trkpt>
      <trkpt lat="45.04466" lon="5.41564">
        <ele>1130.2</ele>
        <time>2019-10-30T09:57:44Z</time>
      </trkpt>
      <trkpt lat="45.04466" lon="5.41534">
        <ele>1130.4</ele>
        <time>2019-10-30T09:57:50Z</time>
      </trkpt>
      <trkpt lat="45.04474" lon="5.41505">
        <ele>1131</ele>
        <time>2019-10-30T09:57:55Z</time>
      </trkpt>
      <trkpt lat="45.04486" lon="5.41444">
        <ele>1126.5</ele>
        <time>2019-10-30T09:58:02Z</time>
      </trkpt>
      <trkpt lat="45.04489" lon="5.414">
        <ele>1124</ele>
        <time>2019-10-30T09:58:07Z</time>
      </trkpt>
      <trkpt lat="45.04486" lon="5.41372">
        <ele>1124.7</ele>
        <time>2019-10-30T09:58:10Z</time>
      </trkpt>
      <trkpt lat="45.04478" lon="5.41336">
        <ele>1126.6</ele>
        <time>2019-10-30T09:58:14Z</time>
      </trkpt>
      <trkpt lat="45.0448" lon="5.41301">
        <ele>1126.1</ele>
        <time>2019-10-30T09:58:20Z</time>
      </trkpt>
      <trkpt lat="45.04463" lon="5.41264">
        <ele>1128.7</ele>
        <time>2019-10-30T09:58:34Z</time>
      </trkpt>
      <trkpt lat="45.0446" lon="5.41244">
        <ele>1129.2</ele>
        <time>2019-10-30T09:58:40Z</time>
      </trkpt>
      <trkpt lat="45.04468" lon="5.41199">
        <ele>1128.2</ele>
        <time>2019-10-30T10:01:18Z</time>
      </trkpt>
      <trkpt lat="45.04499" lon="5.41136">
        <ele>1131.1</ele>
        <time>2019-10-30T10:01:37Z</time>
      </trkpt>
      <trkpt lat="45.04504" lon="5.41116">
        <ele>1133.4</ele>
        <time>2019-10-30T10:01:43Z</time>
      </trkpt>
      <trkpt lat="45.045" lon="5.41076">
        <ele>1137.8</ele>
        <time>2019-10-30T10:01:56Z</time>
      </trkpt>
      <trkpt lat="45.04504" lon="5.41061">
        <ele>1137.1</ele>
        <time>2019-10-30T10:02:00Z</time>
      </trkpt>
      <trkpt lat="45.04519" lon="5.41032">
        <ele>1135.3</ele>
        <time>2019-10-30T10:02:06Z</time>
      </trkpt>
      <trkpt lat="45.04524" lon="5.41018">
        <ele>1134.9</ele>
        <time>2019-10-30T10:02:09Z</time>
      </trkpt>
      <trkpt lat="45.04526" lon="5.40999">
        <ele>1134.8</ele>
        <time>2019-10-30T10:02:14Z</time>
      </trkpt>
      <trkpt lat="45.04521" lon="5.40984">
        <ele>1134.6</ele>
        <time>2019-10-30T10:05:20Z</time>
      </trkpt>
      <trkpt lat="45.04483" lon="5.40937">
        <ele>1133.7</ele>
        <time>2019-10-30T10:05:39Z</time>
      </trkpt>
      <trkpt lat="45.04472" lon="5.40915">
        <ele>1133.7</ele>
        <time>2019-10-30T10:05:46Z</time>
      </trkpt>
      <trkpt lat="45.04473" lon="5.40907">
        <ele>1133.6</ele>
        <time>2019-10-30T10:05:49Z</time>
      </trkpt>
      <trkpt lat="45.04481" lon="5.40887">
        <ele>1133.3</ele>
        <time>2019-10-30T10:06:03Z</time>
      </trkpt>
      <trkpt lat="45.0448" lon="5.40882">
        <ele>1133.4</ele>
        <time>2019-10-30T10:06:04Z</time>
      </trkpt>
      <trkpt lat="45.04482" lon="5.40873">
        <ele>1133.2</ele>
        <time>2019-10-30T10:06:09Z</time>
      </trkpt>
      <trkpt lat="45.04481" lon="5.40816">
        <ele>1133.7</ele>
        <time>2019-10-30T10:09:59Z</time>
      </trkpt>
      <trkpt lat="45.0441" lon="5.40532">
        <ele>1166.7</ele>
        <time>2019-10-30T10:13:24Z</time>
      </trkpt>
      <trkpt lat="45.04394" lon="5.40432">
        <ele>1178.9</ele>
        <time>2019-10-30T10:14:00Z</time>
      </trkpt>
      <trkpt lat="45.04394" lon="5.40414">
        <ele>1181.4</ele>
        <time>2019-10-30T10:14:08Z</time>
      </trkpt>
      <trkpt lat="45.04403" lon="5.40353">
        <ele>1190.7</ele>
        <time>2019-10-30T10:14:32Z</time>
      </trkpt>
      <trkpt lat="45.04409" lon="5.40339">
        <ele>1193</ele>
        <time>2019-10-30T10:14:40Z</time>
      </trkpt>
      <trkpt lat="45.04406" lon="5.40287">
        <ele>1199.5</ele>
        <time>2019-10-30T10:15:08Z</time>
      </trkpt>
      <trkpt lat="45.04383" lon="5.40259">
        <ele>1203.1</ele>
        <time>2019-10-30T10:15:31Z</time>
      </trkpt>
      <trkpt lat="45.0436" lon="5.40217">
        <ele>1209.5</ele>
        <time>2019-10-30T10:15:55Z</time>
      </trkpt>
      <trkpt lat="45.04356" lon="5.40204">
        <ele>1211.7</ele>
        <time>2019-10-30T10:16:02Z</time>
      </trkpt>
      <trkpt lat="45.04362" lon="5.40114">
        <ele>1227.2</ele>
        <time>2019-10-30T10:17:10Z</time>
      </trkpt>
      <trkpt lat="45.04339" lon="5.40099">
        <ele>1235.7</ele>
        <time>2019-10-30T10:17:24Z</time>
      </trkpt>
      <trkpt lat="45.04321" lon="5.40092">
        <ele>1237.7</ele>
        <time>2019-10-30T10:17:38Z</time>
      </trkpt>
      <trkpt lat="45.04314" lon="5.40085">
        <ele>1238.9</ele>
        <time>2019-10-30T10:17:44Z</time>
      </trkpt>
      <trkpt lat="45.04303" lon="5.40052">
        <ele>1242.7</ele>
        <time>2019-10-30T10:17:59Z</time>
      </trkpt>
      <trkpt lat="45.04304" lon="5.40026">
        <ele>1246.4</ele>
        <time>2019-10-30T10:18:09Z</time>
      </trkpt>
      <trkpt lat="45.04317" lon="5.39994">
        <ele>1250.9</ele>
        <time>2019-10-30T10:18:23Z</time>
      </trkpt>
      <trkpt lat="45.04321" lon="5.39971">
        <ele>1251.6</ele>
        <time>2019-10-30T10:18:31Z</time>
      </trkpt>
      <trkpt lat="45.04328" lon="5.39964">
        <ele>1251.9</ele>
        <time>2019-10-30T10:18:35Z</time>
      </trkpt>
      <trkpt lat="45.04338" lon="5.39959">
        <ele>1251.2</ele>
        <time>2019-10-30T10:18:40Z</time>
      </trkpt>
      <trkpt lat="45.0435" lon="5.39959">
        <ele>1249.3</ele>
        <time>2019-10-30T10:18:48Z</time>
      </trkpt>
      <trkpt lat="45.04325" lon="5.39949">
        <ele>1251.9</ele>
        <time>2019-10-30T10:21:41Z</time>
      </trkpt>
      <trkpt lat="45.04292" lon="5.3995">
        <ele>1251.7</ele>
        <time>2019-10-30T10:21:54Z</time>
      </trkpt>
      <trkpt lat="45.04245" lon="5.39981">
        <ele>1247.6</ele>
        <time>2019-10-30T10:22:12Z</time>
      </trkpt>
      <trkpt lat="45.04229" lon="5.39997">
        <ele>1244</ele>
        <time>2019-10-30T10:22:18Z</time>
      </trkpt>
      <trkpt lat="45.0421" lon="5.40026">
        <ele>1237.8</ele>
        <time>2019-10-30T10:22:26Z</time>
      </trkpt>
      <trkpt lat="45.04189" lon="5.40071">
        <ele>1227.9</ele>
        <time>2019-10-30T10:22:37Z</time>
      </trkpt>
      <trkpt lat="45.04184" lon="5.40091">
        <ele>1224</ele>
        <time>2019-10-30T10:22:41Z</time>
      </trkpt>
      <trkpt lat="45.04147" lon="5.40189">
        <ele>1202.5</ele>
        <time>2019-10-30T10:23:00Z</time>
      </trkpt>
      <trkpt lat="45.04121" lon="5.40285">
        <ele>1184.9</ele>
        <time>2019-10-30T10:23:16Z</time>
      </trkpt>
      <trkpt lat="45.04101" lon="5.40333">
        <ele>1175.3</ele>
        <time>2019-10-30T10:23:23Z</time>
      </trkpt>
      <trkpt lat="45.0409" lon="5.40335">
        <ele>1173.8</ele>
        <time>2019-10-30T10:23:29Z</time>
      </trkpt>
      <trkpt lat="45.04072" lon="5.40345">
        <ele>1171.7</ele>
        <time>2019-10-30T10:23:35Z</time>
      </trkpt>
      <trkpt lat="45.04057" lon="5.40348">
        <ele>1171.1</ele>
        <time>2019-10-30T10:23:40Z</time>
      </trkpt>
      <trkpt lat="45.04037" lon="5.40346">
        <ele>1170.5</ele>
        <time>2019-10-30T10:23:46Z</time>
      </trkpt>
      <trkpt lat="45.0402" lon="5.4035">
        <ele>1169.6</ele>
        <time>2019-10-30T10:23:50Z</time>
      </trkpt>
      <trkpt lat="45.03964" lon="5.4039">
        <ele>1169.9</ele>
        <time>2019-10-30T10:24:11Z</time>
      </trkpt>
      <trkpt lat="45.0393" lon="5.40437">
        <ele>1168.3</ele>
        <time>2019-10-30T10:24:24Z</time>
      </trkpt>
      <trkpt lat="45.03898" lon="5.40463">
        <ele>1166.8</ele>
        <time>2019-10-30T10:24:34Z</time>
      </trkpt>
      <trkpt lat="45.03876" lon="5.40485">
        <ele>1164.4</ele>
        <time>2019-10-30T10:24:39Z</time>
      </trkpt>
      <trkpt lat="45.0385" lon="5.40505">
        <ele>1162.1</ele>
        <time>2019-10-30T10:24:48Z</time>
      </trkpt>
      <trkpt lat="45.0384" lon="5.40515">
        <ele>1161.2</ele>
        <time>2019-10-30T10:24:51Z</time>
      </trkpt>
      <trkpt lat="45.03832" lon="5.40536">
        <ele>1159.8</ele>
        <time>2019-10-30T10:24:55Z</time>
      </trkpt>
      <trkpt lat="45.03696" lon="5.40606">
        <ele>1159.2</ele>
        <time>2019-10-30T10:26:24Z</time>
      </trkpt>
      <trkpt lat="45.0367" lon="5.40611">
        <ele>1161.1</ele>
        <time>2019-10-30T10:26:37Z</time>
      </trkpt>
      <trkpt lat="45.03662" lon="5.40618">
        <ele>1161.6</ele>
        <time>2019-10-30T10:26:42Z</time>
      </trkpt>
      <trkpt lat="45.03656" lon="5.40612">
        <ele>1161.3</ele>
        <time>2019-10-30T10:26:48Z</time>
      </trkpt>
      <trkpt lat="45.03637" lon="5.4057">
        <ele>1160.1</ele>
        <time>2019-10-30T10:27:00Z</time>
      </trkpt>
      <trkpt lat="45.03624" lon="5.40558">
        <ele>1160</ele>
        <time>2019-10-30T10:27:04Z</time>
      </trkpt>
      <trkpt lat="45.0361" lon="5.40533">
        <ele>1159.6</ele>
        <time>2019-10-30T10:27:09Z</time>
      </trkpt>
      <trkpt lat="45.03598" lon="5.40492">
        <ele>1159.2</ele>
        <time>2019-10-30T10:27:16Z</time>
      </trkpt>
      <trkpt lat="45.03583" lon="5.4042">
        <ele>1162.8</ele>
        <time>2019-10-30T10:27:30Z</time>
      </trkpt>
      <trkpt lat="45.03571" lon="5.40378">
        <ele>1163.9</ele>
        <time>2019-10-30T10:27:37Z</time>
      </trkpt>
      <trkpt lat="45.0355" lon="5.4034">
        <ele>1164.5</ele>
        <time>2019-10-30T10:27:45Z</time>
      </trkpt>
      <trkpt lat="45.03495" lon="5.40302">
        <ele>1165.7</ele>
        <time>2019-10-30T10:27:59Z</time>
      </trkpt>
      <trkpt lat="45.03473" lon="5.40292">
        <ele>1165.5</ele>
        <time>2019-10-30T10:28:04Z</time>
      </trkpt>
      <trkpt lat="45.03444" lon="5.40269">
        <ele>1165.6</ele>
        <time>2019-10-30T10:28:30Z</time>
      </trkpt>
      <trkpt lat="45.03412" lon="5.40225">
        <ele>1168.2</ele>
        <time>2019-10-30T10:28:43Z</time>
      </trkpt>
      <trkpt lat="45.03402" lon="5.40193">
        <ele>1172</ele>
        <time>2019-10-30T10:28:53Z</time>
      </trkpt>
      <trkpt lat="45.03375" lon="5.40136">
        <ele>1178.3</ele>
        <time>2019-10-30T10:29:13Z</time>
      </trkpt>
      <trkpt lat="45.03365" lon="5.40095">
        <ele>1182.9</ele>
        <time>2019-10-30T10:29:26Z</time>
      </trkpt>
      <trkpt lat="45.0335" lon="5.40078">
        <ele>1182.8</ele>
        <time>2019-10-30T10:29:33Z</time>
      </trkpt>
      <trkpt lat="45.0334" lon="5.40046">
        <ele>1179.2</ele>
        <time>2019-10-30T10:29:47Z</time>
      </trkpt>
      <trkpt lat="45.03327" lon="5.40033">
        <ele>1176.3</ele>
        <time>2019-10-30T10:29:54Z</time>
      </trkpt>
      <trkpt lat="45.03323" lon="5.40022">
        <ele>1174.6</ele>
        <time>2019-10-30T10:30:00Z</time>
      </trkpt>
      <trkpt lat="45.03329" lon="5.40027">
        <ele>1176</ele>
        <time>2019-10-30T10:38:08Z</time>
      </trkpt>
      <trkpt lat="45.0334" lon="5.40051">
        <ele>1179.7</ele>
        <time>2019-10-30T10:38:19Z</time>
      </trkpt>
      <trkpt lat="45.03352" lon="5.40066">
        <ele>1182.1</ele>
        <time>2019-10-30T10:38:30Z</time>
      </trkpt>
      <trkpt lat="45.03368" lon="5.40122">
        <ele>1179.7</ele>
        <time>2019-10-30T10:38:48Z</time>
      </trkpt>
      <trkpt lat="45.03381" lon="5.4015">
        <ele>1176.8</ele>
        <time>2019-10-30T10:38:55Z</time>
      </trkpt>
      <trkpt lat="45.0339" lon="5.40178">
        <ele>1173.5</ele>
        <time>2019-10-30T10:39:01Z</time>
      </trkpt>
      <trkpt lat="45.03416" lon="5.40225">
        <ele>1168.2</ele>
        <time>2019-10-30T10:39:12Z</time>
      </trkpt>
      <trkpt lat="45.03432" lon="5.40247">
        <ele>1166.5</ele>
        <time>2019-10-30T10:39:18Z</time>
      </trkpt>
      <trkpt lat="45.03463" lon="5.40267">
        <ele>1167</ele>
        <time>2019-10-30T10:39:32Z</time>
      </trkpt>
      <trkpt lat="45.03485" lon="5.40276">
        <ele>1167.6</ele>
        <time>2019-10-30T10:39:39Z</time>
      </trkpt>
      <trkpt lat="45.0352" lon="5.40307">
        <ele>1166.3</ele>
        <time>2019-10-30T10:39:49Z</time>
      </trkpt>
      <trkpt lat="45.03532" lon="5.40327">
        <ele>1164.8</ele>
        <time>2019-10-30T10:39:53Z</time>
      </trkpt>
      <trkpt lat="45.03537" lon="5.40343">
        <ele>1163.9</ele>
        <time>2019-10-30T10:39:56Z</time>
      </trkpt>
      <trkpt lat="45.03555" lon="5.40367">
        <ele>1163.6</ele>
        <time>2019-10-30T10:40:16Z</time>
      </trkpt>
      <trkpt lat="45.03567" lon="5.4042">
        <ele>1162</ele>
        <time>2019-10-30T10:40:25Z</time>
      </trkpt>
      <trkpt lat="45.03579" lon="5.40455">
        <ele>1160.6</ele>
        <time>2019-10-30T10:40:30Z</time>
      </trkpt>
      <trkpt lat="45.03604" lon="5.405">
        <ele>1159</ele>
        <time>2019-10-30T10:40:40Z</time>
      </trkpt>
      <trkpt lat="45.03616" lon="5.40526">
        <ele>1159.7</ele>
        <time>2019-10-30T10:40:45Z</time>
      </trkpt>
      <trkpt lat="45.03622" lon="5.40549">
        <ele>1159.9</ele>
        <time>2019-10-30T10:40:48Z</time>
      </trkpt>
      <trkpt lat="45.03638" lon="5.40628">
        <ele>1162</ele>
        <time>2019-10-30T10:41:00Z</time>
      </trkpt>
      <trkpt lat="45.03662" lon="5.40688">
        <ele>1163</ele>
        <time>2019-10-30T10:41:10Z</time>
      </trkpt>
      <trkpt lat="45.03706" lon="5.40775">
        <ele>1158.2</ele>
        <time>2019-10-30T10:41:26Z</time>
      </trkpt>
      <trkpt lat="45.0371" lon="5.40788">
        <ele>1158</ele>
        <time>2019-10-30T10:41:29Z</time>
      </trkpt>
      <trkpt lat="45.03725" lon="5.40818">
        <ele>1158.1</ele>
        <time>2019-10-30T10:41:37Z</time>
      </trkpt>
      <trkpt lat="45.03732" lon="5.40842">
        <ele>1158.5</ele>
        <time>2019-10-30T10:41:43Z</time>
      </trkpt>
      <trkpt lat="45.03735" lon="5.40878">
        <ele>1159.3</ele>
        <time>2019-10-30T10:41:49Z</time>
      </trkpt>
      <trkpt lat="45.03732" lon="5.40898">
        <ele>1159.6</ele>
        <time>2019-10-30T10:41:53Z</time>
      </trkpt>
      <trkpt lat="45.03728" lon="5.409">
        <ele>1159.6</ele>
        <time>2019-10-30T10:41:55Z</time>
      </trkpt>
      <trkpt lat="45.03721" lon="5.40894">
        <ele>1159.5</ele>
        <time>2019-10-30T10:41:58Z</time>
      </trkpt>
      <trkpt lat="45.03703" lon="5.40869">
        <ele>1158.5</ele>
        <time>2019-10-30T10:42:04Z</time>
      </trkpt>
      <trkpt lat="45.03688" lon="5.40856">
        <ele>1157.7</ele>
        <time>2019-10-30T10:42:07Z</time>
      </trkpt>
      <trkpt lat="45.03644" lon="5.40833">
        <ele>1158.1</ele>
        <time>2019-10-30T10:42:14Z</time>
      </trkpt>
      <trkpt lat="45.0359" lon="5.40829">
        <ele>1163.4</ele>
        <time>2019-10-30T10:42:34Z</time>
      </trkpt>
      <trkpt lat="45.03568" lon="5.40823">
        <ele>1164.8</ele>
        <time>2019-10-30T10:42:45Z</time>
      </trkpt>
      <trkpt lat="45.03527" lon="5.4083">
        <ele>1166.7</ele>
        <time>2019-10-30T10:43:07Z</time>
      </trkpt>
      <trkpt lat="45.03485" lon="5.40822">
        <ele>1168.9</ele>
        <time>2019-10-30T10:43:20Z</time>
      </trkpt>
      <trkpt lat="45.03464" lon="5.4081">
        <ele>1169.9</ele>
        <time>2019-10-30T10:43:28Z</time>
      </trkpt>
      <trkpt lat="45.03451" lon="5.40798">
        <ele>1170.4</ele>
        <time>2019-10-30T10:43:34Z</time>
      </trkpt>
      <trkpt lat="45.03437" lon="5.408">
        <ele>1171</ele>
        <time>2019-10-30T10:43:40Z</time>
      </trkpt>
      <trkpt lat="45.03388" lon="5.40795">
        <ele>1171.9</ele>
        <time>2019-10-30T10:43:50Z</time>
      </trkpt>
      <trkpt lat="45.03361" lon="5.40805">
        <ele>1172.2</ele>
        <time>2019-10-30T10:43:57Z</time>
      </trkpt>
      <trkpt lat="45.03325" lon="5.40811">
        <ele>1172.5</ele>
        <time>2019-10-30T10:44:03Z</time>
      </trkpt>
      <trkpt lat="45.03309" lon="5.4081">
        <ele>1172.9</ele>
        <time>2019-10-30T10:44:06Z</time>
      </trkpt>
      <trkpt lat="45.03287" lon="5.40814">
        <ele>1173.5</ele>
        <time>2019-10-30T10:44:10Z</time>
      </trkpt>
      <trkpt lat="45.03277" lon="5.40811">
        <ele>1173.8</ele>
        <time>2019-10-30T10:44:12Z</time>
      </trkpt>
      <trkpt lat="45.03228" lon="5.40764">
        <ele>1171.3</ele>
        <time>2019-10-30T10:44:30Z</time>
      </trkpt>
      <trkpt lat="45.03208" lon="5.40732">
        <ele>1168.9</ele>
        <time>2019-10-30T10:44:36Z</time>
      </trkpt>
      <trkpt lat="45.03186" lon="5.40716">
        <ele>1167.3</ele>
        <time>2019-10-30T10:44:41Z</time>
      </trkpt>
      <trkpt lat="45.03168" lon="5.40712">
        <ele>1166</ele>
        <time>2019-10-30T10:44:45Z</time>
      </trkpt>
      <trkpt lat="45.03151" lon="5.40717">
        <ele>1164.5</ele>
        <time>2019-10-30T10:44:48Z</time>
      </trkpt>
      <trkpt lat="45.03114" lon="5.40761">
        <ele>1161.3</ele>
        <time>2019-10-30T10:45:02Z</time>
      </trkpt>
      <trkpt lat="45.03072" lon="5.40785">
        <ele>1160.3</ele>
        <time>2019-10-30T10:45:11Z</time>
      </trkpt>
      <trkpt lat="45.03059" lon="5.40788">
        <ele>1160.1</ele>
        <time>2019-10-30T10:45:15Z</time>
      </trkpt>
      <trkpt lat="45.03051" lon="5.40795">
        <ele>1160.2</ele>
        <time>2019-10-30T10:45:19Z</time>
      </trkpt>
      <trkpt lat="45.03011" lon="5.40809">
        <ele>1159.2</ele>
        <time>2019-10-30T10:45:44Z</time>
      </trkpt>
      <trkpt lat="45.02955" lon="5.40818">
        <ele>1159.2</ele>
        <time>2019-10-30T10:45:56Z</time>
      </trkpt>
      <trkpt lat="45.02927" lon="5.40813">
        <ele>1159.2</ele>
        <time>2019-10-30T10:46:04Z</time>
      </trkpt>
      <trkpt lat="45.02908" lon="5.40805">
        <ele>1159.1</ele>
        <time>2019-10-30T10:46:08Z</time>
      </trkpt>
      <trkpt lat="45.02858" lon="5.40794">
        <ele>1159.4</ele>
        <time>2019-10-30T10:46:18Z</time>
      </trkpt>
      <trkpt lat="45.02815" lon="5.4077">
        <ele>1157.9</ele>
        <time>2019-10-30T10:46:27Z</time>
      </trkpt>
      <trkpt lat="45.02784" lon="5.40757">
        <ele>1156.8</ele>
        <time>2019-10-30T10:46:35Z</time>
      </trkpt>
      <trkpt lat="45.02774" lon="5.40749">
        <ele>1156</ele>
        <time>2019-10-30T10:47:45Z</time>
      </trkpt>
      <trkpt lat="45.02727" lon="5.40744">
        <ele>1156</ele>
        <time>2019-10-30T10:47:54Z</time>
      </trkpt>
      <trkpt lat="45.02712" lon="5.40749">
        <ele>1156.4</ele>
        <time>2019-10-30T10:47:57Z</time>
      </trkpt>
      <trkpt lat="45.02684" lon="5.4075">
        <ele>1156.8</ele>
        <time>2019-10-30T10:48:02Z</time>
      </trkpt>
      <trkpt lat="45.0263" lon="5.40774">
        <ele>1161.3</ele>
        <time>2019-10-30T10:48:18Z</time>
      </trkpt>
      <trkpt lat="45.02581" lon="5.40842">
        <ele>1170.4</ele>
        <time>2019-10-30T10:49:40Z</time>
      </trkpt>
      <trkpt lat="45.0256" lon="5.40882">
        <ele>1174.1</ele>
        <time>2019-10-30T10:49:53Z</time>
      </trkpt>
      <trkpt lat="45.02538" lon="5.4091">
        <ele>1176.6</ele>
        <time>2019-10-30T10:50:01Z</time>
      </trkpt>
      <trkpt lat="45.02531" lon="5.40928">
        <ele>1176.3</ele>
        <time>2019-10-30T10:50:07Z</time>
      </trkpt>
      <trkpt lat="45.0252" lon="5.41016">
        <ele>1171</ele>
        <time>2019-10-30T10:50:21Z</time>
      </trkpt>
      <trkpt lat="45.02526" lon="5.41125">
        <ele>1159.1</ele>
        <time>2019-10-30T10:50:36Z</time>
      </trkpt>
      <trkpt lat="45.0253" lon="5.4113">
        <ele>1158.1</ele>
        <time>2019-10-30T10:51:01Z</time>
      </trkpt>
      <trkpt lat="45.02552" lon="5.41134">
        <ele>1155.1</ele>
        <time>2019-10-30T10:51:06Z</time>
      </trkpt>
      <trkpt lat="45.02566" lon="5.41145">
        <ele>1152.4</ele>
        <time>2019-10-30T10:51:09Z</time>
      </trkpt>
      <trkpt lat="45.0258" lon="5.41171">
        <ele>1148.4</ele>
        <time>2019-10-30T10:51:13Z</time>
      </trkpt>
      <trkpt lat="45.02614" lon="5.41194">
        <ele>1142.4</ele>
        <time>2019-10-30T10:51:20Z</time>
      </trkpt>
      <trkpt lat="45.02623" lon="5.41207">
        <ele>1139.7</ele>
        <time>2019-10-30T10:51:22Z</time>
      </trkpt>
      <trkpt lat="45.02638" lon="5.41214">
        <ele>1138.2</ele>
        <time>2019-10-30T10:51:25Z</time>
      </trkpt>
      <trkpt lat="45.02665" lon="5.41236">
        <ele>1134.2</ele>
        <time>2019-10-30T10:51:34Z</time>
      </trkpt>
      <trkpt lat="45.02676" lon="5.41241">
        <ele>1133.5</ele>
        <time>2019-10-30T10:51:37Z</time>
      </trkpt>
      <trkpt lat="45.02677" lon="5.41244">
        <ele>1133.1</ele>
        <time>2019-10-30T10:51:38Z</time>
      </trkpt>
      <trkpt lat="45.02675" lon="5.41253">
        <ele>1131.8</ele>
        <time>2019-10-30T10:51:41Z</time>
      </trkpt>
      <trkpt lat="45.02673" lon="5.41289">
        <ele>1127.3</ele>
        <time>2019-10-30T10:51:47Z</time>
      </trkpt>
      <trkpt lat="45.02662" lon="5.41322">
        <ele>1122.2</ele>
        <time>2019-10-30T10:51:51Z</time>
      </trkpt>
      <trkpt lat="45.02639" lon="5.41346">
        <ele>1116.1</ele>
        <time>2019-10-30T10:51:55Z</time>
      </trkpt>
      <trkpt lat="45.02568" lon="5.41385">
        <ele>1103.2</ele>
        <time>2019-10-30T10:52:17Z</time>
      </trkpt>
      <trkpt lat="45.02563" lon="5.41398">
        <ele>1100.6</ele>
        <time>2019-10-30T10:52:22Z</time>
      </trkpt>
      <trkpt lat="45.0256" lon="5.4142">
        <ele>1096.2</ele>
        <time>2019-10-30T10:52:27Z</time>
      </trkpt>
      <trkpt lat="45.02533" lon="5.41443">
        <ele>1094.5</ele>
        <time>2019-10-30T10:52:35Z</time>
      </trkpt>
      <trkpt lat="45.02504" lon="5.41458">
        <ele>1093</ele>
        <time>2019-10-30T10:52:43Z</time>
      </trkpt>
      <trkpt lat="45.02482" lon="5.41463">
        <ele>1093.2</ele>
        <time>2019-10-30T10:52:50Z</time>
      </trkpt>
      <trkpt lat="45.02452" lon="5.41479">
        <ele>1092.7</ele>
        <time>2019-10-30T10:52:58Z</time>
      </trkpt>
      <trkpt lat="45.02437" lon="5.41484">
        <ele>1092.9</ele>
        <time>2019-10-30T10:53:03Z</time>
      </trkpt>
      <trkpt lat="45.02417" lon="5.41507">
        <ele>1091.2</ele>
        <time>2019-10-30T10:53:13Z</time>
      </trkpt>
      <trkpt lat="45.02405" lon="5.41513">
        <ele>1090</ele>
        <time>2019-10-30T10:53:16Z</time>
      </trkpt>
      <trkpt lat="45.02391" lon="5.41536">
        <ele>1087.1</ele>
        <time>2019-10-30T10:53:24Z</time>
      </trkpt>
      <trkpt lat="45.0239" lon="5.41552">
        <ele>1085.6</ele>
        <time>2019-10-30T10:53:29Z</time>
      </trkpt>
      <trkpt lat="45.02398" lon="5.41606">
        <ele>1081.2</ele>
        <time>2019-10-30T10:53:38Z</time>
      </trkpt>
      <trkpt lat="45.02398" lon="5.41671">
        <ele>1076.4</ele>
        <time>2019-10-30T10:53:46Z</time>
      </trkpt>
      <trkpt lat="45.0241" lon="5.4174">
        <ele>1070.2</ele>
        <time>2019-10-30T10:53:54Z</time>
      </trkpt>
      <trkpt lat="45.02408" lon="5.41769">
        <ele>1067.2</ele>
        <time>2019-10-30T10:53:58Z</time>
      </trkpt>
      <trkpt lat="45.02376" lon="5.41863">
        <ele>1058</ele>
        <time>2019-10-30T10:54:10Z</time>
      </trkpt>
      <trkpt lat="45.02367" lon="5.41883">
        <ele>1056</ele>
        <time>2019-10-30T10:54:12Z</time>
      </trkpt>
      <trkpt lat="45.02329" lon="5.41932">
        <ele>1050.2</ele>
        <time>2019-10-30T10:54:24Z</time>
      </trkpt>
      <trkpt lat="45.02316" lon="5.41943">
        <ele>1048.5</ele>
        <time>2019-10-30T10:54:27Z</time>
      </trkpt>
      <trkpt lat="45.02239" lon="5.41974">
        <ele>1040.7</ele>
        <time>2019-10-30T10:54:41Z</time>
      </trkpt>
      <trkpt lat="45.02219" lon="5.41993">
        <ele>1036.1</ele>
        <time>2019-10-30T10:54:45Z</time>
      </trkpt>
      <trkpt lat="45.02214" lon="5.42002">
        <ele>1034.3</ele>
        <time>2019-10-30T10:54:46Z</time>
      </trkpt>
      <trkpt lat="45.02182" lon="5.42085">
        <ele>1020.8</ele>
        <time>2019-10-30T10:54:55Z</time>
      </trkpt>
      <trkpt lat="45.02171" lon="5.42103">
        <ele>1020.4</ele>
        <time>2019-10-30T10:54:58Z</time>
      </trkpt>
      <trkpt lat="45.02156" lon="5.42119">
        <ele>1019.4</ele>
        <time>2019-10-30T10:55:02Z</time>
      </trkpt>
      <trkpt lat="45.02139" lon="5.42116">
        <ele>1017.7</ele>
        <time>2019-10-30T10:55:05Z</time>
      </trkpt>
      <trkpt lat="45.01982" lon="5.42111">
        <ele>1004.7</ele>
        <time>2019-10-30T10:55:22Z</time>
      </trkpt>
      <trkpt lat="45.01951" lon="5.42088">
        <ele>1002.4</ele>
        <time>2019-10-30T10:55:26Z</time>
      </trkpt>
      <trkpt lat="45.01943" lon="5.42079">
        <ele>1001.7</ele>
        <time>2019-10-30T10:55:27Z</time>
      </trkpt>
      <trkpt lat="45.01925" lon="5.42045">
        <ele>1000.7</ele>
        <time>2019-10-30T10:55:30Z</time>
      </trkpt>
      <trkpt lat="45.01905" lon="5.42016">
        <ele>999.3</ele>
        <time>2019-10-30T10:55:33Z</time>
      </trkpt>
      <trkpt lat="45.01889" lon="5.42003">
        <ele>998.5</ele>
        <time>2019-10-30T10:55:35Z</time>
      </trkpt>
      <trkpt lat="45.01855" lon="5.41988">
        <ele>998.4</ele>
        <time>2019-10-30T10:55:39Z</time>
      </trkpt>
      <trkpt lat="45.01826" lon="5.41984">
        <ele>998.1</ele>
        <time>2019-10-30T10:55:42Z</time>
      </trkpt>
      <trkpt lat="45.01796" lon="5.41986">
        <ele>999.7</ele>
        <time>2019-10-30T10:55:45Z</time>
      </trkpt>
      <trkpt lat="45.01769" lon="5.41981">
        <ele>1000.7</ele>
        <time>2019-10-30T10:55:48Z</time>
      </trkpt>
      <trkpt lat="45.01729" lon="5.41953">
        <ele>999.4</ele>
        <time>2019-10-30T10:55:53Z</time>
      </trkpt>
      <trkpt lat="45.01689" lon="5.41906">
        <ele>995.5</ele>
        <time>2019-10-30T10:55:59Z</time>
      </trkpt>
      <trkpt lat="45.01656" lon="5.4188">
        <ele>994.7</ele>
        <time>2019-10-30T10:56:04Z</time>
      </trkpt>
      <trkpt lat="45.01614" lon="5.41862">
        <ele>993.6</ele>
        <time>2019-10-30T10:56:09Z</time>
      </trkpt>
      <trkpt lat="45.01592" lon="5.4184">
        <ele>990.3</ele>
        <time>2019-10-30T10:56:12Z</time>
      </trkpt>
      <trkpt lat="45.01522" lon="5.41793">
        <ele>986.3</ele>
        <time>2019-10-30T10:56:21Z</time>
      </trkpt>
      <trkpt lat="45.01484" lon="5.41753">
        <ele>977.2</ele>
        <time>2019-10-30T10:56:27Z</time>
      </trkpt>
      <trkpt lat="45.01458" lon="5.41734">
        <ele>974</ele>
        <time>2019-10-30T10:56:31Z</time>
      </trkpt>
      <trkpt lat="45.01359" lon="5.41696">
        <ele>959.4</ele>
        <time>2019-10-30T10:56:46Z</time>
      </trkpt>
      <trkpt lat="45.01354" lon="5.41698">
        <ele>958.8</ele>
        <time>2019-10-30T10:56:48Z</time>
      </trkpt>
      <trkpt lat="45.01342" lon="5.4172">
        <ele>958.5</ele>
        <time>2019-10-30T10:56:56Z</time>
      </trkpt>
      <trkpt lat="45.01324" lon="5.41743">
        <ele>957.2</ele>
        <time>2019-10-30T10:57:04Z</time>
      </trkpt>
      <trkpt lat="45.01319" lon="5.41746">
        <ele>956.6</ele>
        <time>2019-10-30T10:57:06Z</time>
      </trkpt>
      <trkpt lat="45.01309" lon="5.41761">
        <ele>958.4</ele>
        <time>2019-10-30T10:57:12Z</time>
      </trkpt>
      <trkpt lat="45.01296" lon="5.418">
        <ele>967.2</ele>
        <time>2019-10-30T10:57:26Z</time>
      </trkpt>
      <trkpt lat="45.01273" lon="5.41838">
        <ele>973.8</ele>
        <time>2019-10-30T10:57:43Z</time>
      </trkpt>
      <trkpt lat="45.01263" lon="5.41862">
        <ele>977.2</ele>
        <time>2019-10-30T10:57:52Z</time>
      </trkpt>
      <trkpt lat="45.0124" lon="5.41904">
        <ele>980.4</ele>
        <time>2019-10-30T11:04:40Z</time>
      </trkpt>
      <trkpt lat="45.01235" lon="5.4192">
        <ele>982</ele>
        <time>2019-10-30T11:04:44Z</time>
      </trkpt>
      <trkpt lat="45.0123" lon="5.41975">
        <ele>982.2</ele>
        <time>2019-10-30T11:04:53Z</time>
      </trkpt>
      <trkpt lat="45.01231" lon="5.42052">
        <ele>977.6</ele>
        <time>2019-10-30T11:05:03Z</time>
      </trkpt>
      <trkpt lat="45.01239" lon="5.42079">
        <ele>976.8</ele>
        <time>2019-10-30T11:05:07Z</time>
      </trkpt>
      <trkpt lat="45.01249" lon="5.42094">
        <ele>976.2</ele>
        <time>2019-10-30T11:05:10Z</time>
      </trkpt>
      <trkpt lat="45.01252" lon="5.4211">
        <ele>973.6</ele>
        <time>2019-10-30T11:05:12Z</time>
      </trkpt>
      <trkpt lat="45.01252" lon="5.42136">
        <ele>968.2</ele>
        <time>2019-10-30T11:05:15Z</time>
      </trkpt>
      <trkpt lat="45.01234" lon="5.42173">
        <ele>956.8</ele>
        <time>2019-10-30T11:05:21Z</time>
      </trkpt>
      <trkpt lat="45.01206" lon="5.42256">
        <ele>941.3</ele>
        <time>2019-10-30T11:05:33Z</time>
      </trkpt>
      <trkpt lat="45.01188" lon="5.42283">
        <ele>935.3</ele>
        <time>2019-10-30T11:05:38Z</time>
      </trkpt>
      <trkpt lat="45.01171" lon="5.42318">
        <ele>929</ele>
        <time>2019-10-30T11:05:42Z</time>
      </trkpt>
      <trkpt lat="45.01139" lon="5.42407">
        <ele>916.8</ele>
        <time>2019-10-30T11:05:50Z</time>
      </trkpt>
      <trkpt lat="45.0113" lon="5.42453">
        <ele>915</ele>
        <time>2019-10-30T11:05:54Z</time>
      </trkpt>
      <trkpt lat="45.01109" lon="5.42507">
        <ele>912.7</ele>
        <time>2019-10-30T11:05:59Z</time>
      </trkpt>
      <trkpt lat="45.01097" lon="5.4256">
        <ele>907.7</ele>
        <time>2019-10-30T11:06:04Z</time>
      </trkpt>
      <trkpt lat="45.01082" lon="5.42598">
        <ele>902.9</ele>
        <time>2019-10-30T11:06:09Z</time>
      </trkpt>
      <trkpt lat="45.01081" lon="5.42606">
        <ele>902.3</ele>
        <time>2019-10-30T11:06:10Z</time>
      </trkpt>
      <trkpt lat="45.01087" lon="5.42637">
        <ele>900.6</ele>
        <time>2019-10-30T11:06:16Z</time>
      </trkpt>
      <trkpt lat="45.0108" lon="5.42657">
        <ele>898.7</ele>
        <time>2019-10-30T11:06:20Z</time>
      </trkpt>
      <trkpt lat="45.01067" lon="5.42674">
        <ele>897.4</ele>
        <time>2019-10-30T11:06:23Z</time>
      </trkpt>
      <trkpt lat="45.01038" lon="5.42694">
        <ele>895.6</ele>
        <time>2019-10-30T11:06:27Z</time>
      </trkpt>
      <trkpt lat="45.01026" lon="5.42709">
        <ele>894.2</ele>
        <time>2019-10-30T11:06:29Z</time>
      </trkpt>
      <trkpt lat="45.01015" lon="5.42756">
        <ele>890.4</ele>
        <time>2019-10-30T11:06:33Z</time>
      </trkpt>
      <trkpt lat="45.01" lon="5.42775">
        <ele>889.2</ele>
        <time>2019-10-30T11:06:35Z</time>
      </trkpt>
      <trkpt lat="45.0096" lon="5.42802">
        <ele>885.1</ele>
        <time>2019-10-30T11:06:39Z</time>
      </trkpt>
      <trkpt lat="45.00953" lon="5.42817">
        <ele>883.3</ele>
        <time>2019-10-30T11:06:40Z</time>
      </trkpt>
      <trkpt lat="45.00948" lon="5.42851">
        <ele>880.2</ele>
        <time>2019-10-30T11:06:42Z</time>
      </trkpt>
      <trkpt lat="45.00953" lon="5.42902">
        <ele>877</ele>
        <time>2019-10-30T11:06:45Z</time>
      </trkpt>
      <trkpt lat="45.0095" lon="5.42929">
        <ele>874.8</ele>
        <time>2019-10-30T11:06:47Z</time>
      </trkpt>
      <trkpt lat="45.00933" lon="5.42941">
        <ele>873.4</ele>
        <time>2019-10-30T11:06:49Z</time>
      </trkpt>
      <trkpt lat="45.00859" lon="5.42949">
        <ele>869.3</ele>
        <time>2019-10-30T11:06:57Z</time>
      </trkpt>
      <trkpt lat="45.00833" lon="5.42961">
        <ele>866.6</ele>
        <time>2019-10-30T11:07:00Z</time>
      </trkpt>
      <trkpt lat="45.00759" lon="5.42973">
        <ele>861.5</ele>
        <time>2019-10-30T11:07:12Z</time>
      </trkpt>
      <trkpt lat="45.00759" lon="5.42977">
        <ele>861.1</ele>
        <time>2019-10-30T11:07:14Z</time>
      </trkpt>
      <trkpt lat="45.00775" lon="5.42998">
        <ele>860.1</ele>
        <time>2019-10-30T11:07:20Z</time>
      </trkpt>
      <trkpt lat="45.00769" lon="5.43001">
        <ele>859.5</ele>
        <time>2019-10-30T11:07:23Z</time>
      </trkpt>
      <trkpt lat="45.00707" lon="5.42988">
        <ele>858.9</ele>
        <time>2019-10-30T11:07:34Z</time>
      </trkpt>
      <trkpt lat="45.00699" lon="5.42994">
        <ele>858.2</ele>
        <time>2019-10-30T11:07:36Z</time>
      </trkpt>
      <trkpt lat="45.00692" lon="5.4301">
        <ele>855.6</ele>
        <time>2019-10-30T11:07:39Z</time>
      </trkpt>
      <trkpt lat="45.00655" lon="5.43055">
        <ele>845.8</ele>
        <time>2019-10-30T11:07:48Z</time>
      </trkpt>
      <trkpt lat="45.00653" lon="5.4307">
        <ele>842.7</ele>
        <time>2019-10-30T11:07:50Z</time>
      </trkpt>
      <trkpt lat="45.00657" lon="5.43078">
        <ele>841</ele>
        <time>2019-10-30T11:07:52Z</time>
      </trkpt>
      <trkpt lat="45.00688" lon="5.43101">
        <ele>837</ele>
        <time>2019-10-30T11:07:58Z</time>
      </trkpt>
      <trkpt lat="45.007" lon="5.43105">
        <ele>836.3</ele>
        <time>2019-10-30T11:08:00Z</time>
      </trkpt>
      <trkpt lat="45.0071" lon="5.43112">
        <ele>834.8</ele>
        <time>2019-10-30T11:08:02Z</time>
      </trkpt>
      <trkpt lat="45.00714" lon="5.43122">
        <ele>832.5</ele>
        <time>2019-10-30T11:08:04Z</time>
      </trkpt>
      <trkpt lat="45.00714" lon="5.43128">
        <ele>831.4</ele>
        <time>2019-10-30T11:08:05Z</time>
      </trkpt>
      <trkpt lat="45.00698" lon="5.43156">
        <ele>825.7</ele>
        <time>2019-10-30T11:08:11Z</time>
      </trkpt>
      <trkpt lat="45.0067" lon="5.43171">
        <ele>824.4</ele>
        <time>2019-10-30T11:08:19Z</time>
      </trkpt>
      <trkpt lat="45.00627" lon="5.4322">
        <ele>817.9</ele>
        <time>2019-10-30T11:08:32Z</time>
      </trkpt>
      <trkpt lat="45.00605" lon="5.4324">
        <ele>814</ele>
        <time>2019-10-30T11:08:38Z</time>
      </trkpt>
      <trkpt lat="45.00577" lon="5.43276">
        <ele>806.1</ele>
        <time>2019-10-30T11:08:46Z</time>
      </trkpt>
      <trkpt lat="45.0053" lon="5.43304">
        <ele>797</ele>
        <time>2019-10-30T11:08:56Z</time>
      </trkpt>
      <trkpt lat="45.005" lon="5.43309">
        <ele>793.3</ele>
        <time>2019-10-30T11:09:02Z</time>
      </trkpt>
      <trkpt lat="45.00476" lon="5.43323">
        <ele>789.1</ele>
        <time>2019-10-30T11:09:08Z</time>
      </trkpt>
      <trkpt lat="45.00442" lon="5.43339">
        <ele>783.9</ele>
        <time>2019-10-30T11:09:16Z</time>
      </trkpt>
      <trkpt lat="45.0042" lon="5.43345">
        <ele>781</ele>
        <time>2019-10-30T11:09:20Z</time>
      </trkpt>
      <trkpt lat="45.00392" lon="5.43347">
        <ele>776.5</ele>
        <time>2019-10-30T11:09:27Z</time>
      </trkpt>
      <trkpt lat="45.00386" lon="5.43351">
        <ele>774.4</ele>
        <time>2019-10-30T11:09:29Z</time>
      </trkpt>
      <trkpt lat="45.00352" lon="5.434">
        <ele>755.4</ele>
        <time>2019-10-30T11:09:39Z</time>
      </trkpt>
      <trkpt lat="45.00316" lon="5.43432">
        <ele>743.7</ele>
        <time>2019-10-30T11:09:47Z</time>
      </trkpt>
      <trkpt lat="45.003" lon="5.4347">
        <ele>737.1</ele>
        <time>2019-10-30T11:09:52Z</time>
      </trkpt>
      <trkpt lat="45.0029" lon="5.43526">
        <ele>729.2</ele>
        <time>2019-10-30T11:09:59Z</time>
      </trkpt>
      <trkpt lat="45.00284" lon="5.43541">
        <ele>726.9</ele>
        <time>2019-10-30T11:10:01Z</time>
      </trkpt>
      <trkpt lat="45.00268" lon="5.4356">
        <ele>723.6</ele>
        <time>2019-10-30T11:10:04Z</time>
      </trkpt>
      <trkpt lat="45.00232" lon="5.43576">
        <ele>715.6</ele>
        <time>2019-10-30T11:10:11Z</time>
      </trkpt>
      <trkpt lat="45.00233" lon="5.43588">
        <ele>714.1</ele>
        <time>2019-10-30T11:10:14Z</time>
      </trkpt>
      <trkpt lat="45.00238" lon="5.43596">
        <ele>713.1</ele>
        <time>2019-10-30T11:10:16Z</time>
      </trkpt>
      <trkpt lat="45.00265" lon="5.43618">
        <ele>710.8</ele>
        <time>2019-10-30T11:10:22Z</time>
      </trkpt>
      <trkpt lat="45.00263" lon="5.43626">
        <ele>708.3</ele>
        <time>2019-10-30T11:10:25Z</time>
      </trkpt>
      <trkpt lat="45.00247" lon="5.43631">
        <ele>705.3</ele>
        <time>2019-10-30T11:10:32Z</time>
      </trkpt>
      <trkpt lat="45.00208" lon="5.43622">
        <ele>701.4</ele>
        <time>2019-10-30T11:10:45Z</time>
      </trkpt>
      <trkpt lat="45.00166" lon="5.43606">
        <ele>695.7</ele>
        <time>2019-10-30T11:10:56Z</time>
      </trkpt>
      <trkpt lat="45.00158" lon="5.43606">
        <ele>695.4</ele>
        <time>2019-10-30T11:10:58Z</time>
      </trkpt>
      <trkpt lat="45.00116" lon="5.4359">
        <ele>694.5</ele>
        <time>2019-10-30T11:11:06Z</time>
      </trkpt>
      <trkpt lat="45.00087" lon="5.43575">
        <ele>692.7</ele>
        <time>2019-10-30T11:11:12Z</time>
      </trkpt>
      <trkpt lat="45.00082" lon="5.43565">
        <ele>692.2</ele>
        <time>2019-10-30T11:11:16Z</time>
      </trkpt>
      <trkpt lat="45.00077" lon="5.43559">
        <ele>693.9</ele>
        <time>2019-10-30T11:11:21Z</time>
      </trkpt>
      <trkpt lat="45.00058" lon="5.43522">
        <ele>698.4</ele>
        <time>2019-10-30T11:13:55Z</time>
      </trkpt>
      <trkpt lat="45.00049" lon="5.4351">
        <ele>701.1</ele>
        <time>2019-10-30T11:14:00Z</time>
      </trkpt>
      <trkpt lat="45.00014" lon="5.43437">
        <ele>706.5</ele>
        <time>2019-10-30T11:14:16Z</time>
      </trkpt>
      <trkpt lat="44.99989" lon="5.43393">
        <ele>707.9</ele>
        <time>2019-10-30T11:14:24Z</time>
      </trkpt>
      <trkpt lat="44.99968" lon="5.43339">
        <ele>709.5</ele>
        <time>2019-10-30T11:14:34Z</time>
      </trkpt>
      <trkpt lat="44.99926" lon="5.43269">
        <ele>712.3</ele>
        <time>2019-10-30T11:14:47Z</time>
      </trkpt>
      <trkpt lat="44.99909" lon="5.43223">
        <ele>709.8</ele>
        <time>2019-10-30T11:14:54Z</time>
      </trkpt>
      <trkpt lat="44.99901" lon="5.43153">
        <ele>702.2</ele>
        <time>2019-10-30T11:15:03Z</time>
      </trkpt>
      <trkpt lat="44.99901" lon="5.43109">
        <ele>700.1</ele>
        <time>2019-10-30T11:15:10Z</time>
      </trkpt>
      <trkpt lat="44.99893" lon="5.43034">
        <ele>704</ele>
        <time>2019-10-30T11:15:23Z</time>
      </trkpt>
      <trkpt lat="44.99889" lon="5.4302">
        <ele>706</ele>
        <time>2019-10-30T11:15:28Z</time>
      </trkpt>
      <trkpt lat="44.9988" lon="5.43004">
        <ele>709.1</ele>
        <time>2019-10-30T11:15:33Z</time>
      </trkpt>
      <trkpt lat="44.9986" lon="5.42984">
        <ele>716</ele>
        <time>2019-10-30T11:15:45Z</time>
      </trkpt>
      <trkpt lat="44.99858" lon="5.42974">
        <ele>717</ele>
        <time>2019-10-30T11:15:51Z</time>
      </trkpt>
      <trkpt lat="44.99891" lon="5.42925">
        <ele>717.2</ele>
        <time>2019-10-30T11:16:21Z</time>
      </trkpt>
      <trkpt lat="44.99916" lon="5.42901">
        <ele>717.5</ele>
        <time>2019-10-30T11:16:35Z</time>
      </trkpt>
      <trkpt lat="44.99924" lon="5.42885">
        <ele>716</ele>
        <time>2019-10-30T11:16:40Z</time>
      </trkpt>
      <trkpt lat="44.99927" lon="5.42872">
        <ele>715.8</ele>
        <time>2019-10-30T11:16:46Z</time>
      </trkpt>
      <trkpt lat="44.99924" lon="5.42867">
        <ele>716.7</ele>
        <time>2019-10-30T11:16:50Z</time>
      </trkpt>
      <trkpt lat="44.99915" lon="5.42867">
        <ele>718.4</ele>
        <time>2019-10-30T11:16:57Z</time>
      </trkpt>
      <trkpt lat="44.999" lon="5.42841">
        <ele>721.8</ele>
        <time>2019-10-30T11:17:55Z</time>
      </trkpt>
      <trkpt lat="44.99908" lon="5.42797">
        <ele>718.5</ele>
        <time>2019-10-30T11:18:10Z</time>
      </trkpt>
      <trkpt lat="44.99908" lon="5.42755">
        <ele>716.2</ele>
        <time>2019-10-30T11:18:19Z</time>
      </trkpt>
      <trkpt lat="44.999" lon="5.42734">
        <ele>714.1</ele>
        <time>2019-10-30T11:18:22Z</time>
      </trkpt>
      <trkpt lat="44.99878" lon="5.42704">
        <ele>714.4</ele>
        <time>2019-10-30T11:18:26Z</time>
      </trkpt>
      <trkpt lat="44.99847" lon="5.4268">
        <ele>720</ele>
        <time>2019-10-30T11:18:31Z</time>
      </trkpt>
      <trkpt lat="44.99826" lon="5.42659">
        <ele>722.6</ele>
        <time>2019-10-30T11:18:34Z</time>
      </trkpt>
      <trkpt lat="44.9982" lon="5.42649">
        <ele>722.3</ele>
        <time>2019-10-30T11:18:35Z</time>
      </trkpt>
      <trkpt lat="44.99811" lon="5.42624">
        <ele>719.4</ele>
        <time>2019-10-30T11:18:37Z</time>
      </trkpt>
      <trkpt lat="44.99806" lon="5.42558">
        <ele>709.7</ele>
        <time>2019-10-30T11:18:41Z</time>
      </trkpt>
      <trkpt lat="44.99781" lon="5.42373">
        <ele>700.8</ele>
        <time>2019-10-30T11:18:54Z</time>
      </trkpt>
      <trkpt lat="44.99764" lon="5.42333">
        <ele>701.3</ele>
        <time>2019-10-30T11:19:00Z</time>
      </trkpt>
      <trkpt lat="44.99754" lon="5.42323">
        <ele>702</ele>
        <time>2019-10-30T11:19:04Z</time>
      </trkpt>
      <trkpt lat="44.99736" lon="5.42274">
        <ele>704.3</ele>
        <time>2019-10-30T11:19:22Z</time>
      </trkpt>
      <trkpt lat="44.99706" lon="5.42238">
        <ele>707.2</ele>
        <time>2019-10-30T11:19:40Z</time>
      </trkpt>
      <trkpt lat="44.99683" lon="5.42221">
        <ele>709.1</ele>
        <time>2019-10-30T11:19:52Z</time>
      </trkpt>
      <trkpt lat="44.99637" lon="5.42166">
        <ele>709.3</ele>
        <time>2019-10-30T11:20:12Z</time>
      </trkpt>
      <trkpt lat="44.99595" lon="5.42159">
        <ele>708.8</ele>
        <time>2019-10-30T11:20:26Z</time>
      </trkpt>
      <trkpt lat="44.99564" lon="5.42161">
        <ele>709.8</ele>
        <time>2019-10-30T11:20:37Z</time>
      </trkpt>
      <trkpt lat="44.99543" lon="5.42155">
        <ele>711.8</ele>
        <time>2019-10-30T11:20:44Z</time>
      </trkpt>
      <trkpt lat="44.99523" lon="5.4216">
        <ele>712.8</ele>
        <time>2019-10-30T11:20:57Z</time>
      </trkpt>
      <trkpt lat="44.99522" lon="5.42143">
        <ele>714.3</ele>
        <time>2019-10-30T11:23:33Z</time>
      </trkpt>
      <trkpt lat="44.99533" lon="5.42133">
        <ele>714.3</ele>
        <time>2019-10-30T11:23:43Z</time>
      </trkpt>
      <trkpt lat="44.99533" lon="5.4213">
        <ele>714.6</ele>
        <time>2019-10-30T11:23:47Z</time>
      </trkpt>
      <trkpt lat="44.99498" lon="5.4209">
        <ele>720.7</ele>
        <time>2019-10-30T11:24:16Z</time>
      </trkpt>
      <trkpt lat="44.99443" lon="5.42069">
        <ele>727</ele>
        <time>2019-10-30T11:24:46Z</time>
      </trkpt>
      <trkpt lat="44.9943" lon="5.42061">
        <ele>728.3</ele>
        <time>2019-10-30T11:24:55Z</time>
      </trkpt>
      <trkpt lat="44.99368" lon="5.42003">
        <ele>734</ele>
        <time>2019-10-30T11:25:31Z</time>
      </trkpt>
      <trkpt lat="44.99349" lon="5.41964">
        <ele>735.4</ele>
        <time>2019-10-30T11:25:42Z</time>
      </trkpt>
      <trkpt lat="44.99324" lon="5.41928">
        <ele>736.9</ele>
        <time>2019-10-30T11:25:56Z</time>
      </trkpt>
      <trkpt lat="44.99295" lon="5.41908">
        <ele>739.3</ele>
        <time>2019-10-30T11:26:06Z</time>
      </trkpt>
      <trkpt lat="44.99288" lon="5.41906">
        <ele>740</ele>
        <time>2019-10-30T11:26:08Z</time>
      </trkpt>
      <trkpt lat="44.99248" lon="5.41912">
        <ele>743.2</ele>
        <time>2019-10-30T11:26:21Z</time>
      </trkpt>
      <trkpt lat="44.99224" lon="5.41907">
        <ele>744.7</ele>
        <time>2019-10-30T11:26:29Z</time>
      </trkpt>
      <trkpt lat="44.99206" lon="5.41886">
        <ele>746.2</ele>
        <time>2019-10-30T11:26:37Z</time>
      </trkpt>
      <trkpt lat="44.99188" lon="5.41855">
        <ele>748</ele>
        <time>2019-10-30T11:26:47Z</time>
      </trkpt>
      <trkpt lat="44.99138" lon="5.41811">
        <ele>754.5</ele>
        <time>2019-10-30T11:27:09Z</time>
      </trkpt>
      <trkpt lat="44.99112" lon="5.41782">
        <ele>758.1</ele>
        <time>2019-10-30T11:27:24Z</time>
      </trkpt>
      <trkpt lat="44.99086" lon="5.41762">
        <ele>760.8</ele>
        <time>2019-10-30T11:27:38Z</time>
      </trkpt>
      <trkpt lat="44.99077" lon="5.41761">
        <ele>762.1</ele>
        <time>2019-10-30T11:27:43Z</time>
      </trkpt>
      <trkpt lat="44.99004" lon="5.41732">
        <ele>774.6</ele>
        <time>2019-10-30T11:28:20Z</time>
      </trkpt>
      <trkpt lat="44.98958" lon="5.41721">
        <ele>781.3</ele>
        <time>2019-10-30T11:28:42Z</time>
      </trkpt>
      <trkpt lat="44.98937" lon="5.41723">
        <ele>783.8</ele>
        <time>2019-10-30T11:28:52Z</time>
      </trkpt>
      <trkpt lat="44.98909" lon="5.41719">
        <ele>787.3</ele>
        <time>2019-10-30T11:29:05Z</time>
      </trkpt>
      <trkpt lat="44.98903" lon="5.41705">
        <ele>788.6</ele>
        <time>2019-10-30T11:29:11Z</time>
      </trkpt>
      <trkpt lat="44.98894" lon="5.41697">
        <ele>789.9</ele>
        <time>2019-10-30T11:29:16Z</time>
      </trkpt>
      <trkpt lat="44.9889" lon="5.41661">
        <ele>792.3</ele>
        <time>2019-10-30T11:29:27Z</time>
      </trkpt>
      <trkpt lat="44.98896" lon="5.4162">
        <ele>794.9</ele>
        <time>2019-10-30T11:29:40Z</time>
      </trkpt>
      <trkpt lat="44.98884" lon="5.41575">
        <ele>800.6</ele>
        <time>2019-10-30T11:30:00Z</time>
      </trkpt>
      <trkpt lat="44.98899" lon="5.41481">
        <ele>811.6</ele>
        <time>2019-10-30T11:30:33Z</time>
      </trkpt>
      <trkpt lat="44.98913" lon="5.41456">
        <ele>811.8</ele>
        <time>2019-10-30T11:30:43Z</time>
      </trkpt>
      <trkpt lat="44.98915" lon="5.41447">
        <ele>812.4</ele>
        <time>2019-10-30T11:30:47Z</time>
      </trkpt>
      <trkpt lat="44.98913" lon="5.41432">
        <ele>814.1</ele>
        <time>2019-10-30T11:30:53Z</time>
      </trkpt>
      <trkpt lat="44.98915" lon="5.41423">
        <ele>814.6</ele>
        <time>2019-10-30T11:30:56Z</time>
      </trkpt>
      <trkpt lat="44.98914" lon="5.4141">
        <ele>815.8</ele>
        <time>2019-10-30T11:31:01Z</time>
      </trkpt>
      <trkpt lat="44.989" lon="5.41375">
        <ele>819.6</ele>
        <time>2019-10-30T11:31:16Z</time>
      </trkpt>
      <trkpt lat="44.98885" lon="5.41362">
        <ele>822.9</ele>
        <time>2019-10-30T11:31:23Z</time>
      </trkpt>
      <trkpt lat="44.9887" lon="5.41345">
        <ele>826.2</ele>
        <time>2019-10-30T11:31:30Z</time>
      </trkpt>
      <trkpt lat="44.98853" lon="5.41316">
        <ele>829.8</ele>
        <time>2019-10-30T11:31:41Z</time>
      </trkpt>
      <trkpt lat="44.9884" lon="5.413">
        <ele>831.9</ele>
        <time>2019-10-30T11:31:49Z</time>
      </trkpt>
      <trkpt lat="44.98811" lon="5.41282">
        <ele>837.5</ele>
        <time>2019-10-30T11:32:03Z</time>
      </trkpt>
      <trkpt lat="44.98761" lon="5.41284">
        <ele>847.8</ele>
        <time>2019-10-30T11:32:25Z</time>
      </trkpt>
      <trkpt lat="44.98749" lon="5.41279">
        <ele>849.9</ele>
        <time>2019-10-30T11:32:33Z</time>
      </trkpt>
      <trkpt lat="44.98708" lon="5.41253">
        <ele>858.1</ele>
        <time>2019-10-30T11:32:52Z</time>
      </trkpt>
      <trkpt lat="44.98696" lon="5.41241">
        <ele>860.4</ele>
        <time>2019-10-30T11:32:58Z</time>
      </trkpt>
      <trkpt lat="44.98685" lon="5.41222">
        <ele>861.7</ele>
        <time>2019-10-30T11:33:05Z</time>
      </trkpt>
      <trkpt lat="44.98675" lon="5.41191">
        <ele>861.5</ele>
        <time>2019-10-30T11:33:14Z</time>
      </trkpt>
      <trkpt lat="44.98666" lon="5.41175">
        <ele>861.8</ele>
        <time>2019-10-30T11:33:19Z</time>
      </trkpt>
      <trkpt lat="44.98655" lon="5.41164">
        <ele>862.9</ele>
        <time>2019-10-30T11:33:24Z</time>
      </trkpt>
      <trkpt lat="44.98636" lon="5.41154">
        <ele>865.7</ele>
        <time>2019-10-30T11:33:32Z</time>
      </trkpt>
      <trkpt lat="44.98613" lon="5.41135">
        <ele>868.6</ele>
        <time>2019-10-30T11:33:43Z</time>
      </trkpt>
      <trkpt lat="44.98579" lon="5.41097">
        <ele>872.5</ele>
        <time>2019-10-30T11:33:59Z</time>
      </trkpt>
      <trkpt lat="44.98539" lon="5.41046">
        <ele>875.7</ele>
        <time>2019-10-30T11:34:16Z</time>
      </trkpt>
      <trkpt lat="44.98523" lon="5.41018">
        <ele>876.1</ele>
        <time>2019-10-30T11:34:24Z</time>
      </trkpt>
      <trkpt lat="44.98479" lon="5.40987">
        <ele>877.6</ele>
        <time>2019-10-30T11:34:35Z</time>
      </trkpt>
      <trkpt lat="44.98473" lon="5.4098">
        <ele>877.2</ele>
        <time>2019-10-30T11:34:37Z</time>
      </trkpt>
      <trkpt lat="44.98445" lon="5.40956">
        <ele>876.7</ele>
        <time>2019-10-30T11:34:45Z</time>
      </trkpt>
      <trkpt lat="44.9837" lon="5.40902">
        <ele>877.3</ele>
        <time>2019-10-30T11:35:00Z</time>
      </trkpt>
      <trkpt lat="44.98356" lon="5.40897">
        <ele>877.8</ele>
        <time>2019-10-30T11:35:03Z</time>
      </trkpt>
      <trkpt lat="44.98315" lon="5.40891">
        <ele>878.4</ele>
        <time>2019-10-30T11:35:10Z</time>
      </trkpt>
      <trkpt lat="44.98231" lon="5.40857">
        <ele>874.6</ele>
        <time>2019-10-30T11:35:27Z</time>
      </trkpt>
      <trkpt lat="44.9822" lon="5.40848">
        <ele>873.7</ele>
        <time>2019-10-30T11:35:29Z</time>
      </trkpt>
      <trkpt lat="44.98213" lon="5.40837">
        <ele>872.9</ele>
        <time>2019-10-30T11:35:31Z</time>
      </trkpt>
      <trkpt lat="44.98194" lon="5.40787">
        <ele>873.3</ele>
        <time>2019-10-30T11:35:41Z</time>
      </trkpt>
      <trkpt lat="44.98193" lon="5.40778">
        <ele>873.6</ele>
        <time>2019-10-30T11:35:43Z</time>
      </trkpt>
      <trkpt lat="44.98184" lon="5.40757">
        <ele>874.1</ele>
        <time>2019-10-30T11:35:48Z</time>
      </trkpt>
      <trkpt lat="44.98172" lon="5.40747">
        <ele>874.1</ele>
        <time>2019-10-30T11:35:52Z</time>
      </trkpt>
      <trkpt lat="44.9814" lon="5.40729">
        <ele>877.5</ele>
        <time>2019-10-30T11:36:02Z</time>
      </trkpt>
      <trkpt lat="44.9812" lon="5.40695">
        <ele>879.8</ele>
        <time>2019-10-30T11:36:15Z</time>
      </trkpt>
      <trkpt lat="44.98061" lon="5.40642">
        <ele>883.8</ele>
        <time>2019-10-30T11:36:52Z</time>
      </trkpt>
      <trkpt lat="44.98021" lon="5.40614">
        <ele>885</ele>
        <time>2019-10-30T11:37:04Z</time>
      </trkpt>
      <trkpt lat="44.98" lon="5.40595">
        <ele>885.2</ele>
        <time>2019-10-30T11:37:16Z</time>
      </trkpt>
      <trkpt lat="44.97984" lon="5.40588">
        <ele>884.9</ele>
        <time>2019-10-30T11:37:22Z</time>
      </trkpt>
      <trkpt lat="44.9797" lon="5.40576">
        <ele>883.8</ele>
        <time>2019-10-30T11:37:31Z</time>
      </trkpt>
      <trkpt lat="44.97917" lon="5.40555">
        <ele>882.6</ele>
        <time>2019-10-30T11:37:54Z</time>
      </trkpt>
      <trkpt lat="44.97884" lon="5.40552">
        <ele>881.4</ele>
        <time>2019-10-30T11:38:05Z</time>
      </trkpt>
      <trkpt lat="44.97864" lon="5.40558">
        <ele>881.5</ele>
        <time>2019-10-30T11:38:12Z</time>
      </trkpt>
      <trkpt lat="44.97852" lon="5.40567">
        <ele>882</ele>
        <time>2019-10-30T11:38:16Z</time>
      </trkpt>
      <trkpt lat="44.97843" lon="5.40581">
        <ele>883.1</ele>
        <time>2019-10-30T11:38:22Z</time>
      </trkpt>
      <trkpt lat="44.97842" lon="5.4061">
        <ele>885.3</ele>
        <time>2019-10-30T11:38:35Z</time>
      </trkpt>
      <trkpt lat="44.97856" lon="5.40632">
        <ele>887.6</ele>
        <time>2019-10-30T11:38:47Z</time>
      </trkpt>
      <trkpt lat="44.97866" lon="5.4066">
        <ele>890.4</ele>
        <time>2019-10-30T11:38:56Z</time>
      </trkpt>
      <trkpt lat="44.97877" lon="5.40714">
        <ele>892.5</ele>
        <time>2019-10-30T11:39:10Z</time>
      </trkpt>
      <trkpt lat="44.97879" lon="5.40743">
        <ele>893.2</ele>
        <time>2019-10-30T11:39:17Z</time>
      </trkpt>
      <trkpt lat="44.97888" lon="5.40776">
        <ele>895.3</ele>
        <time>2019-10-30T11:39:28Z</time>
      </trkpt>
      <trkpt lat="44.97887" lon="5.40792">
        <ele>896.1</ele>
        <time>2019-10-30T11:39:31Z</time>
      </trkpt>
      <trkpt lat="44.97912" lon="5.40865">
        <ele>899.7</ele>
        <time>2019-10-30T11:39:48Z</time>
      </trkpt>
      <trkpt lat="44.97911" lon="5.40873">
        <ele>899.8</ele>
        <time>2019-10-30T11:39:50Z</time>
      </trkpt>
      <trkpt lat="44.97916" lon="5.40889">
        <ele>900.3</ele>
        <time>2019-10-30T11:39:55Z</time>
      </trkpt>
      <trkpt lat="44.97924" lon="5.40943">
        <ele>901.6</ele>
        <time>2019-10-30T11:40:06Z</time>
      </trkpt>
      <trkpt lat="44.97929" lon="5.41033">
        <ele>906.4</ele>
        <time>2019-10-30T11:40:23Z</time>
      </trkpt>
      <trkpt lat="44.97926" lon="5.41069">
        <ele>909.2</ele>
        <time>2019-10-30T11:40:29Z</time>
      </trkpt>
      <trkpt lat="44.97926" lon="5.41102">
        <ele>910.9</ele>
        <time>2019-10-30T11:40:35Z</time>
      </trkpt>
      <trkpt lat="44.97924" lon="5.41128">
        <ele>912</ele>
        <time>2019-10-30T11:40:39Z</time>
      </trkpt>
      <trkpt lat="44.97924" lon="5.41152">
        <ele>912.8</ele>
        <time>2019-10-30T11:40:43Z</time>
      </trkpt>
      <trkpt lat="44.9792" lon="5.41177">
        <ele>914.2</ele>
        <time>2019-10-30T11:40:48Z</time>
      </trkpt>
      <trkpt lat="44.97908" lon="5.4119">
        <ele>914.9</ele>
        <time>2019-10-30T11:40:52Z</time>
      </trkpt>
      <trkpt lat="44.97878" lon="5.41204">
        <ele>914.9</ele>
        <time>2019-10-30T11:40:58Z</time>
      </trkpt>
      <trkpt lat="44.97854" lon="5.41209">
        <ele>914.4</ele>
        <time>2019-10-30T11:41:02Z</time>
      </trkpt>
      <trkpt lat="44.97786" lon="5.41232">
        <ele>914.1</ele>
        <time>2019-10-30T11:41:13Z</time>
      </trkpt>
      <trkpt lat="44.97729" lon="5.41242">
        <ele>912.8</ele>
        <time>2019-10-30T11:41:23Z</time>
      </trkpt>
      <trkpt lat="44.97668" lon="5.41237">
        <ele>909.1</ele>
        <time>2019-10-30T11:41:33Z</time>
      </trkpt>
      <trkpt lat="44.97574" lon="5.41247">
        <ele>900.4</ele>
        <time>2019-10-30T11:41:45Z</time>
      </trkpt>
      <trkpt lat="44.97562" lon="5.41254">
        <ele>899.1</ele>
        <time>2019-10-30T11:41:47Z</time>
      </trkpt>
      <trkpt lat="44.97556" lon="5.41267">
        <ele>898.5</ele>
        <time>2019-10-30T11:41:49Z</time>
      </trkpt>
      <trkpt lat="44.9755" lon="5.41304">
        <ele>899</ele>
        <time>2019-10-30T11:41:53Z</time>
      </trkpt>
      <trkpt lat="44.97539" lon="5.41317">
        <ele>898.6</ele>
        <time>2019-10-30T11:41:55Z</time>
      </trkpt>
      <trkpt lat="44.97492" lon="5.41346">
        <ele>898.1</ele>
        <time>2019-10-30T11:42:03Z</time>
      </trkpt>
      <trkpt lat="44.97478" lon="5.41351">
        <ele>898.2</ele>
        <time>2019-10-30T11:42:05Z</time>
      </trkpt>
      <trkpt lat="44.9739" lon="5.41361">
        <ele>895.8</ele>
        <time>2019-10-30T11:42:21Z</time>
      </trkpt>
      <trkpt lat="44.97361" lon="5.4136">
        <ele>894.9</ele>
        <time>2019-10-30T11:42:25Z</time>
      </trkpt>
      <trkpt lat="44.97318" lon="5.41372">
        <ele>895.4</ele>
        <time>2019-10-30T11:42:35Z</time>
      </trkpt>
      <trkpt lat="44.97263" lon="5.41369">
        <ele>898.9</ele>
        <time>2019-10-30T11:42:48Z</time>
      </trkpt>
      <trkpt lat="44.97257" lon="5.41372">
        <ele>899.4</ele>
        <time>2019-10-30T11:42:51Z</time>
      </trkpt>
      <trkpt lat="44.9722" lon="5.41422">
        <ele>901.8</ele>
        <time>2019-10-30T11:43:08Z</time>
      </trkpt>
      <trkpt lat="44.97151" lon="5.41499">
        <ele>904.8</ele>
        <time>2019-10-30T11:43:29Z</time>
      </trkpt>
      <trkpt lat="44.97142" lon="5.41498">
        <ele>904.6</ele>
        <time>2019-10-30T11:43:31Z</time>
      </trkpt>
      <trkpt lat="44.97084" lon="5.41455">
        <ele>902.4</ele>
        <time>2019-10-30T11:43:42Z</time>
      </trkpt>
      <trkpt lat="44.9706" lon="5.41446">
        <ele>902.3</ele>
        <time>2019-10-30T11:43:46Z</time>
      </trkpt>
      <trkpt lat="44.97026" lon="5.41443">
        <ele>902.4</ele>
        <time>2019-10-30T11:43:52Z</time>
      </trkpt>
      <trkpt lat="44.97015" lon="5.41445">
        <ele>902.6</ele>
        <time>2019-10-30T11:43:54Z</time>
      </trkpt>
      <trkpt lat="44.97009" lon="5.41454">
        <ele>902.8</ele>
        <time>2019-10-30T11:43:56Z</time>
      </trkpt>
      <trkpt lat="44.97002" lon="5.41592">
        <ele>904.3</ele>
        <time>2019-10-30T11:44:18Z</time>
      </trkpt>
      <trkpt lat="44.96996" lon="5.41597">
        <ele>904.1</ele>
        <time>2019-10-30T11:44:20Z</time>
      </trkpt>
      <trkpt lat="44.96891" lon="5.4155">
        <ele>898.2</ele>
        <time>2019-10-30T11:44:37Z</time>
      </trkpt>
      <trkpt lat="44.96873" lon="5.41547">
        <ele>896.9</ele>
        <time>2019-10-30T11:44:39Z</time>
      </trkpt>
      <trkpt lat="44.96856" lon="5.41549">
        <ele>895.6</ele>
        <time>2019-10-30T11:44:41Z</time>
      </trkpt>
      <trkpt lat="44.96827" lon="5.41565">
        <ele>893.5</ele>
        <time>2019-10-30T11:44:45Z</time>
      </trkpt>
      <trkpt lat="44.96813" lon="5.4158">
        <ele>892.5</ele>
        <time>2019-10-30T11:44:48Z</time>
      </trkpt>
      <trkpt lat="44.96803" lon="5.41584">
        <ele>891.8</ele>
        <time>2019-10-30T11:44:50Z</time>
      </trkpt>
      <trkpt lat="44.96769" lon="5.41571">
        <ele>888.9</ele>
        <time>2019-10-30T11:44:58Z</time>
      </trkpt>
      <trkpt lat="44.96775" lon="5.41567">
        <ele>889.3</ele>
        <time>2019-10-30T11:46:15Z</time>
      </trkpt>
      <trkpt lat="44.96778" lon="5.41557">
        <ele>889.2</ele>
        <time>2019-10-30T11:46:18Z</time>
      </trkpt>
      <trkpt lat="44.96774" lon="5.41514">
        <ele>887.3</ele>
        <time>2019-10-30T11:46:29Z</time>
      </trkpt>
      <trkpt lat="44.96765" lon="5.41506">
        <ele>886</ele>
        <time>2019-10-30T11:46:34Z</time>
      </trkpt>
      <trkpt lat="44.96763" lon="5.41511">
        <ele>886</ele>
        <time>2019-10-30T12:07:19Z</time>
      </trkpt>
      <trkpt lat="44.968" lon="5.41461">
        <ele>888.4</ele>
        <time>2019-10-30T12:07:20Z</time>
      </trkpt>
      <trkpt lat="44.96798" lon="5.41461">
        <ele>888.1</ele>
        <time>2019-10-30T12:07:25Z</time>
      </trkpt>
      <trkpt lat="44.96766" lon="5.41549">
        <ele>887.8</ele>
        <time>2019-10-30T13:22:40Z</time>
      </trkpt>
      <trkpt lat="44.96764" lon="5.41511">
        <ele>886.1</ele>
        <time>2019-10-30T13:24:55Z</time>
      </trkpt>
      <trkpt lat="44.96775" lon="5.41475">
        <ele>885.9</ele>
        <time>2019-10-30T13:25:04Z</time>
      </trkpt>
      <trkpt lat="44.968" lon="5.41408">
        <ele>886.2</ele>
        <time>2019-10-30T13:25:16Z</time>
      </trkpt>
      <trkpt lat="44.96815" lon="5.4135">
        <ele>885.7</ele>
        <time>2019-10-30T13:25:24Z</time>
      </trkpt>
      <trkpt lat="44.96831" lon="5.41258">
        <ele>881.5</ele>
        <time>2019-10-30T13:25:35Z</time>
      </trkpt>
      <trkpt lat="44.96857" lon="5.4117">
        <ele>875.9</ele>
        <time>2019-10-30T13:25:44Z</time>
      </trkpt>
      <trkpt lat="44.96879" lon="5.41123">
        <ele>871.6</ele>
        <time>2019-10-30T13:25:48Z</time>
      </trkpt>
      <trkpt lat="44.96899" lon="5.41096">
        <ele>868.6</ele>
        <time>2019-10-30T13:25:51Z</time>
      </trkpt>
      <trkpt lat="44.96927" lon="5.41037">
        <ele>865.7</ele>
        <time>2019-10-30T13:25:56Z</time>
      </trkpt>
      <trkpt lat="44.96929" lon="5.41024">
        <ele>865.3</ele>
        <time>2019-10-30T13:25:57Z</time>
      </trkpt>
      <trkpt lat="44.96927" lon="5.40985">
        <ele>863.8</ele>
        <time>2019-10-30T13:26:00Z</time>
      </trkpt>
      <trkpt lat="44.9693" lon="5.40949">
        <ele>863.6</ele>
        <time>2019-10-30T13:26:03Z</time>
      </trkpt>
      <trkpt lat="44.96932" lon="5.40867">
        <ele>859.3</ele>
        <time>2019-10-30T13:26:10Z</time>
      </trkpt>
      <trkpt lat="44.96926" lon="5.40809">
        <ele>854.6</ele>
        <time>2019-10-30T13:26:16Z</time>
      </trkpt>
      <trkpt lat="44.96926" lon="5.40775">
        <ele>851.9</ele>
        <time>2019-10-30T13:26:20Z</time>
      </trkpt>
      <trkpt lat="44.96933" lon="5.40718">
        <ele>846.8</ele>
        <time>2019-10-30T13:26:26Z</time>
      </trkpt>
      <trkpt lat="44.96926" lon="5.40601">
        <ele>837.7</ele>
        <time>2019-10-30T13:26:37Z</time>
      </trkpt>
      <trkpt lat="44.96927" lon="5.40528">
        <ele>835.2</ele>
        <time>2019-10-30T13:26:44Z</time>
      </trkpt>
      <trkpt lat="44.9693" lon="5.40498">
        <ele>834.3</ele>
        <time>2019-10-30T13:26:47Z</time>
      </trkpt>
      <trkpt lat="44.9694" lon="5.40452">
        <ele>832.6</ele>
        <time>2019-10-30T13:26:52Z</time>
      </trkpt>
      <trkpt lat="44.96949" lon="5.40439">
        <ele>832.1</ele>
        <time>2019-10-30T13:26:54Z</time>
      </trkpt>
      <trkpt lat="44.97005" lon="5.40397">
        <ele>829.9</ele>
        <time>2019-10-30T13:27:03Z</time>
      </trkpt>
      <trkpt lat="44.97019" lon="5.4038">
        <ele>828.5</ele>
        <time>2019-10-30T13:27:06Z</time>
      </trkpt>
      <trkpt lat="44.97033" lon="5.40329">
        <ele>825.8</ele>
        <time>2019-10-30T13:27:12Z</time>
      </trkpt>
      <trkpt lat="44.97048" lon="5.40254">
        <ele>825.3</ele>
        <time>2019-10-30T13:27:21Z</time>
      </trkpt>
      <trkpt lat="44.97059" lon="5.40223">
        <ele>825.7</ele>
        <time>2019-10-30T13:27:25Z</time>
      </trkpt>
      <trkpt lat="44.97071" lon="5.40175">
        <ele>827</ele>
        <time>2019-10-30T13:27:32Z</time>
      </trkpt>
      <trkpt lat="44.97086" lon="5.40138">
        <ele>826.9</ele>
        <time>2019-10-30T13:27:42Z</time>
      </trkpt>
      <trkpt lat="44.9709" lon="5.40135">
        <ele>826.8</ele>
        <time>2019-10-30T13:27:46Z</time>
      </trkpt>
      <trkpt lat="44.9709" lon="5.4013">
        <ele>826.8</ele>
        <time>2019-10-30T13:27:52Z</time>
      </trkpt>
      <trkpt lat="44.97232" lon="5.40215">
        <ele>822.7</ele>
        <time>2019-10-30T13:30:28Z</time>
      </trkpt>
      <trkpt lat="44.97255" lon="5.40231">
        <ele>822.2</ele>
        <time>2019-10-30T13:30:33Z</time>
      </trkpt>
      <trkpt lat="44.97297" lon="5.40246">
        <ele>822</ele>
        <time>2019-10-30T13:30:40Z</time>
      </trkpt>
      <trkpt lat="44.97349" lon="5.40283">
        <ele>823.9</ele>
        <time>2019-10-30T13:30:52Z</time>
      </trkpt>
      <trkpt lat="44.97366" lon="5.4028">
        <ele>824.1</ele>
        <time>2019-10-30T13:30:59Z</time>
      </trkpt>
      <trkpt lat="44.97448" lon="5.40201">
        <ele>825.8</ele>
        <time>2019-10-30T13:31:17Z</time>
      </trkpt>
      <trkpt lat="44.97479" lon="5.40163">
        <ele>826.9</ele>
        <time>2019-10-30T13:31:25Z</time>
      </trkpt>
      <trkpt lat="44.97482" lon="5.4015">
        <ele>826.9</ele>
        <time>2019-10-30T13:31:27Z</time>
      </trkpt>
      <trkpt lat="44.9748" lon="5.40137">
        <ele>826.8</ele>
        <time>2019-10-30T13:31:29Z</time>
      </trkpt>
      <trkpt lat="44.97467" lon="5.401">
        <ele>826.4</ele>
        <time>2019-10-30T13:31:35Z</time>
      </trkpt>
      <trkpt lat="44.97457" lon="5.40083">
        <ele>826.5</ele>
        <time>2019-10-30T13:31:38Z</time>
      </trkpt>
      <trkpt lat="44.97447" lon="5.40078">
        <ele>827.3</ele>
        <time>2019-10-30T13:31:40Z</time>
      </trkpt>
      <trkpt lat="44.97412" lon="5.40082">
        <ele>827.4</ele>
        <time>2019-10-30T13:31:47Z</time>
      </trkpt>
      <trkpt lat="44.97402" lon="5.4008">
        <ele>827.9</ele>
        <time>2019-10-30T13:31:49Z</time>
      </trkpt>
      <trkpt lat="44.97386" lon="5.40068">
        <ele>829.9</ele>
        <time>2019-10-30T13:31:53Z</time>
      </trkpt>
      <trkpt lat="44.97369" lon="5.40049">
        <ele>832.8</ele>
        <time>2019-10-30T13:31:58Z</time>
      </trkpt>
      <trkpt lat="44.97364" lon="5.40039">
        <ele>834.1</ele>
        <time>2019-10-30T13:32:00Z</time>
      </trkpt>
      <trkpt lat="44.97365" lon="5.40028">
        <ele>835.6</ele>
        <time>2019-10-30T13:32:02Z</time>
      </trkpt>
      <trkpt lat="44.97369" lon="5.40019">
        <ele>836.9</ele>
        <time>2019-10-30T13:32:04Z</time>
      </trkpt>
      <trkpt lat="44.97406" lon="5.40006">
        <ele>838.9</ele>
        <time>2019-10-30T13:32:13Z</time>
      </trkpt>
      <trkpt lat="44.97439" lon="5.39983">
        <ele>841.6</ele>
        <time>2019-10-30T13:32:23Z</time>
      </trkpt>
      <trkpt lat="44.97468" lon="5.39971">
        <ele>841.2</ele>
        <time>2019-10-30T13:32:32Z</time>
      </trkpt>
      <trkpt lat="44.97482" lon="5.39959">
        <ele>842.4</ele>
        <time>2019-10-30T13:32:37Z</time>
      </trkpt>
      <trkpt lat="44.97497" lon="5.39936">
        <ele>845.9</ele>
        <time>2019-10-30T13:32:43Z</time>
      </trkpt>
      <trkpt lat="44.97513" lon="5.39917">
        <ele>848.5</ele>
        <time>2019-10-30T13:32:48Z</time>
      </trkpt>
      <trkpt lat="44.97583" lon="5.39851">
        <ele>865.4</ele>
        <time>2019-10-30T13:33:13Z</time>
      </trkpt>
      <trkpt lat="44.976" lon="5.39842">
        <ele>865.4</ele>
        <time>2019-10-30T13:33:20Z</time>
      </trkpt>
      <trkpt lat="44.9766" lon="5.39795">
        <ele>872.8</ele>
        <time>2019-10-30T13:33:45Z</time>
      </trkpt>
      <trkpt lat="44.977" lon="5.39788">
        <ele>872.9</ele>
        <time>2019-10-30T13:33:55Z</time>
      </trkpt>
      <trkpt lat="44.97837" lon="5.39749">
        <ele>876.2</ele>
        <time>2019-10-30T13:34:35Z</time>
      </trkpt>
      <trkpt lat="44.97876" lon="5.39742">
        <ele>876.9</ele>
        <time>2019-10-30T13:34:48Z</time>
      </trkpt>
      <trkpt lat="44.97893" lon="5.39732">
        <ele>879.1</ele>
        <time>2019-10-30T13:34:54Z</time>
      </trkpt>
      <trkpt lat="44.97956" lon="5.39644">
        <ele>896.8</ele>
        <time>2019-10-30T13:35:29Z</time>
      </trkpt>
      <trkpt lat="44.98018" lon="5.39587">
        <ele>903</ele>
        <time>2019-10-30T13:35:55Z</time>
      </trkpt>
      <trkpt lat="44.98039" lon="5.39572">
        <ele>907.8</ele>
        <time>2019-10-30T13:36:05Z</time>
      </trkpt>
      <trkpt lat="44.98037" lon="5.39568">
        <ele>909.6</ele>
        <time>2019-10-30T13:36:07Z</time>
      </trkpt>
      <trkpt lat="44.9802" lon="5.39566">
        <ele>910.6</ele>
        <time>2019-10-30T13:36:17Z</time>
      </trkpt>
      <trkpt lat="44.9799" lon="5.39577">
        <ele>908.9</ele>
        <time>2019-10-30T13:36:38Z</time>
      </trkpt>
      <trkpt lat="44.97966" lon="5.3958">
        <ele>912.9</ele>
        <time>2019-10-30T13:36:53Z</time>
      </trkpt>
      <trkpt lat="44.97926" lon="5.39592">
        <ele>917.3</ele>
        <time>2019-10-30T13:37:26Z</time>
      </trkpt>
      <trkpt lat="44.97883" lon="5.39628">
        <ele>916.8</ele>
        <time>2019-10-30T13:37:37Z</time>
      </trkpt>
      <trkpt lat="44.97842" lon="5.39637">
        <ele>924.1</ele>
        <time>2019-10-30T13:37:45Z</time>
      </trkpt>
      <trkpt lat="44.97804" lon="5.39635">
        <ele>932</ele>
        <time>2019-10-30T13:37:55Z</time>
      </trkpt>
      <trkpt lat="44.97794" lon="5.39632">
        <ele>935.1</ele>
        <time>2019-10-30T13:38:00Z</time>
      </trkpt>
      <trkpt lat="44.97768" lon="5.39632">
        <ele>939.7</ele>
        <time>2019-10-30T13:38:10Z</time>
      </trkpt>
      <trkpt lat="44.97749" lon="5.39636">
        <ele>940.4</ele>
        <time>2019-10-30T13:38:16Z</time>
      </trkpt>
      <trkpt lat="44.97743" lon="5.39631">
        <ele>943.5</ele>
        <time>2019-10-30T13:38:20Z</time>
      </trkpt>
      <trkpt lat="44.97763" lon="5.39623">
        <ele>945.2</ele>
        <time>2019-10-30T13:38:33Z</time>
      </trkpt>
      <trkpt lat="44.97786" lon="5.39626">
        <ele>939.2</ele>
        <time>2019-10-30T13:38:44Z</time>
      </trkpt>
      <trkpt lat="44.97802" lon="5.39622">
        <ele>938.2</ele>
        <time>2019-10-30T13:38:51Z</time>
      </trkpt>
      <trkpt lat="44.97826" lon="5.39608">
        <ele>939.5</ele>
        <time>2019-10-30T13:39:03Z</time>
      </trkpt>
      <trkpt lat="44.97846" lon="5.3959">
        <ele>941.6</ele>
        <time>2019-10-30T13:39:13Z</time>
      </trkpt>
      <trkpt lat="44.97867" lon="5.39558">
        <ele>949.4</ele>
        <time>2019-10-30T13:39:28Z</time>
      </trkpt>
      <trkpt lat="44.97913" lon="5.39519">
        <ele>952.8</ele>
        <time>2019-10-30T13:39:49Z</time>
      </trkpt>
      <trkpt lat="44.97929" lon="5.39498">
        <ele>957.7</ele>
        <time>2019-10-30T13:39:57Z</time>
      </trkpt>
      <trkpt lat="44.97983" lon="5.39459">
        <ele>962.3</ele>
        <time>2019-10-30T13:40:20Z</time>
      </trkpt>
      <trkpt lat="44.9801" lon="5.39434">
        <ele>969.4</ele>
        <time>2019-10-30T13:40:35Z</time>
      </trkpt>
      <trkpt lat="44.98034" lon="5.39422">
        <ele>973.2</ele>
        <time>2019-10-30T13:40:49Z</time>
      </trkpt>
      <trkpt lat="44.98081" lon="5.39406">
        <ele>976.2</ele>
        <time>2019-10-30T13:41:13Z</time>
      </trkpt>
      <trkpt lat="44.98126" lon="5.39402">
        <ele>982.7</ele>
        <time>2019-10-30T13:41:33Z</time>
      </trkpt>
      <trkpt lat="44.98176" lon="5.39404">
        <ele>987.7</ele>
        <time>2019-10-30T13:41:57Z</time>
      </trkpt>
      <trkpt lat="44.98195" lon="5.39411">
        <ele>988</ele>
        <time>2019-10-30T13:42:07Z</time>
      </trkpt>
      <trkpt lat="44.98248" lon="5.39449">
        <ele>987.8</ele>
        <time>2019-10-30T13:42:34Z</time>
      </trkpt>
      <trkpt lat="44.9828" lon="5.39467">
        <ele>989.5</ele>
        <time>2019-10-30T13:42:47Z</time>
      </trkpt>
      <trkpt lat="44.98299" lon="5.39489">
        <ele>989.5</ele>
        <time>2019-10-30T13:42:54Z</time>
      </trkpt>
      <trkpt lat="44.98308" lon="5.39495">
        <ele>990.7</ele>
        <time>2019-10-30T13:42:58Z</time>
      </trkpt>
      <trkpt lat="44.9831" lon="5.39491">
        <ele>991.7</ele>
        <time>2019-10-30T13:43:01Z</time>
      </trkpt>
      <trkpt lat="44.98309" lon="5.39468">
        <ele>994.4</ele>
        <time>2019-10-30T13:43:14Z</time>
      </trkpt>
      <trkpt lat="44.98316" lon="5.39432">
        <ele>1000.4</ele>
        <time>2019-10-30T13:43:32Z</time>
      </trkpt>
      <trkpt lat="44.98326" lon="5.39397">
        <ele>1005</ele>
        <time>2019-10-30T13:43:49Z</time>
      </trkpt>
      <trkpt lat="44.98374" lon="5.3927">
        <ele>1023.5</ele>
        <time>2019-10-30T13:45:22Z</time>
      </trkpt>
      <trkpt lat="44.98389" lon="5.39247">
        <ele>1026.3</ele>
        <time>2019-10-30T13:45:28Z</time>
      </trkpt>
      <trkpt lat="44.98408" lon="5.39204">
        <ele>1029</ele>
        <time>2019-10-30T13:45:38Z</time>
      </trkpt>
      <trkpt lat="44.98433" lon="5.39166">
        <ele>1031.9</ele>
        <time>2019-10-30T13:45:51Z</time>
      </trkpt>
      <trkpt lat="44.98447" lon="5.39131">
        <ele>1032.2</ele>
        <time>2019-10-30T13:46:03Z</time>
      </trkpt>
      <trkpt lat="44.98457" lon="5.39122">
        <ele>1032.1</ele>
        <time>2019-10-30T13:46:07Z</time>
      </trkpt>
      <trkpt lat="44.98489" lon="5.39115">
        <ele>1032.6</ele>
        <time>2019-10-30T13:46:19Z</time>
      </trkpt>
      <trkpt lat="44.98524" lon="5.39095">
        <ele>1034.1</ele>
        <time>2019-10-30T13:46:37Z</time>
      </trkpt>
      <trkpt lat="44.98582" lon="5.39076">
        <ele>1042.3</ele>
        <time>2019-10-30T13:46:57Z</time>
      </trkpt>
      <trkpt lat="44.98628" lon="5.39035">
        <ele>1041</ele>
        <time>2019-10-30T13:47:13Z</time>
      </trkpt>
      <trkpt lat="44.98689" lon="5.3899">
        <ele>1042</ele>
        <time>2019-10-30T13:47:34Z</time>
      </trkpt>
      <trkpt lat="44.98734" lon="5.38968">
        <ele>1044.3</ele>
        <time>2019-10-30T13:47:48Z</time>
      </trkpt>
      <trkpt lat="44.98776" lon="5.38957">
        <ele>1046.4</ele>
        <time>2019-10-30T13:48:02Z</time>
      </trkpt>
      <trkpt lat="44.98816" lon="5.38957">
        <ele>1049.8</ele>
        <time>2019-10-30T13:48:15Z</time>
      </trkpt>
      <trkpt lat="44.98893" lon="5.3897">
        <ele>1059</ele>
        <time>2019-10-30T13:48:39Z</time>
      </trkpt>
      <trkpt lat="44.98945" lon="5.38972">
        <ele>1060.1</ele>
        <time>2019-10-30T13:48:53Z</time>
      </trkpt>
      <trkpt lat="44.98994" lon="5.38979">
        <ele>1060.4</ele>
        <time>2019-10-30T13:49:08Z</time>
      </trkpt>
      <trkpt lat="44.99041" lon="5.38995">
        <ele>1061.9</ele>
        <time>2019-10-30T13:49:21Z</time>
      </trkpt>
      <trkpt lat="44.99079" lon="5.39015">
        <ele>1065.4</ele>
        <time>2019-10-30T13:49:33Z</time>
      </trkpt>
      <trkpt lat="44.99149" lon="5.39035">
        <ele>1070.3</ele>
        <time>2019-10-30T13:49:52Z</time>
      </trkpt>
      <trkpt lat="44.99222" lon="5.39042">
        <ele>1074.2</ele>
        <time>2019-10-30T13:50:12Z</time>
      </trkpt>
      <trkpt lat="44.99311" lon="5.39021">
        <ele>1079.8</ele>
        <time>2019-10-30T13:50:35Z</time>
      </trkpt>
      <trkpt lat="44.99332" lon="5.39009">
        <ele>1080.3</ele>
        <time>2019-10-30T13:50:43Z</time>
      </trkpt>
      <trkpt lat="44.99358" lon="5.39">
        <ele>1081.7</ele>
        <time>2019-10-30T13:50:49Z</time>
      </trkpt>
      <trkpt lat="44.99411" lon="5.38967">
        <ele>1084.4</ele>
        <time>2019-10-30T13:51:02Z</time>
      </trkpt>
      <trkpt lat="44.99463" lon="5.38958">
        <ele>1087</ele>
        <time>2019-10-30T13:51:17Z</time>
      </trkpt>
      <trkpt lat="44.99503" lon="5.38964">
        <ele>1090.6</ele>
        <time>2019-10-30T13:51:31Z</time>
      </trkpt>
      <trkpt lat="44.99579" lon="5.38938">
        <ele>1089</ele>
        <time>2019-10-30T13:51:53Z</time>
      </trkpt>
      <trkpt lat="44.9965" lon="5.38924">
        <ele>1090.5</ele>
        <time>2019-10-30T13:52:13Z</time>
      </trkpt>
      <trkpt lat="44.99717" lon="5.3892">
        <ele>1094.2</ele>
        <time>2019-10-30T13:52:28Z</time>
      </trkpt>
      <trkpt lat="44.9975" lon="5.38926">
        <ele>1097.3</ele>
        <time>2019-10-30T13:52:36Z</time>
      </trkpt>
      <trkpt lat="44.99771" lon="5.38921">
        <ele>1095.8</ele>
        <time>2019-10-30T13:52:40Z</time>
      </trkpt>
      <trkpt lat="44.99828" lon="5.38916">
        <ele>1093.2</ele>
        <time>2019-10-30T13:52:53Z</time>
      </trkpt>
      <trkpt lat="44.99882" lon="5.38918">
        <ele>1094.3</ele>
        <time>2019-10-30T13:53:10Z</time>
      </trkpt>
      <trkpt lat="44.99967" lon="5.38953">
        <ele>1106.2</ele>
        <time>2019-10-30T13:53:43Z</time>
      </trkpt>
      <trkpt lat="45.0001" lon="5.38979">
        <ele>1111.8</ele>
        <time>2019-10-30T13:54:06Z</time>
      </trkpt>
      <trkpt lat="45.00029" lon="5.38984">
        <ele>1113.5</ele>
        <time>2019-10-30T13:54:15Z</time>
      </trkpt>
      <trkpt lat="45.00058" lon="5.39002">
        <ele>1115.6</ele>
        <time>2019-10-30T13:54:26Z</time>
      </trkpt>
      <trkpt lat="45.00069" lon="5.39034">
        <ele>1117.8</ele>
        <time>2019-10-30T13:54:34Z</time>
      </trkpt>
      <trkpt lat="45.00088" lon="5.39068">
        <ele>1118.8</ele>
        <time>2019-10-30T13:54:46Z</time>
      </trkpt>
      <trkpt lat="45.00094" lon="5.39102">
        <ele>1121.5</ele>
        <time>2019-10-30T13:54:59Z</time>
      </trkpt>
      <trkpt lat="45.00097" lon="5.39109">
        <ele>1122.4</ele>
        <time>2019-10-30T13:55:01Z</time>
      </trkpt>
      <trkpt lat="45.001" lon="5.39134">
        <ele>1125.2</ele>
        <time>2019-10-30T13:55:10Z</time>
      </trkpt>
      <trkpt lat="45.0011" lon="5.39177">
        <ele>1130</ele>
        <time>2019-10-30T13:55:25Z</time>
      </trkpt>
      <trkpt lat="45.0012" lon="5.39194">
        <ele>1132.1</ele>
        <time>2019-10-30T13:55:33Z</time>
      </trkpt>
      <trkpt lat="45.00134" lon="5.39206">
        <ele>1133.1</ele>
        <time>2019-10-30T13:55:42Z</time>
      </trkpt>
      <trkpt lat="45.00147" lon="5.39222">
        <ele>1134.7</ele>
        <time>2019-10-30T13:55:49Z</time>
      </trkpt>
      <trkpt lat="45.00162" lon="5.39267">
        <ele>1139.7</ele>
        <time>2019-10-30T13:56:08Z</time>
      </trkpt>
      <trkpt lat="45.00185" lon="5.39296">
        <ele>1144.3</ele>
        <time>2019-10-30T13:56:28Z</time>
      </trkpt>
      <trkpt lat="45.00194" lon="5.393">
        <ele>1144.9</ele>
        <time>2019-10-30T13:56:34Z</time>
      </trkpt>
      <trkpt lat="45.00196" lon="5.39304">
        <ele>1145.4</ele>
        <time>2019-10-30T13:56:37Z</time>
      </trkpt>
      <trkpt lat="45.00204" lon="5.39307">
        <ele>1145.9</ele>
        <time>2019-10-30T13:56:41Z</time>
      </trkpt>
      <trkpt lat="45.00218" lon="5.39321">
        <ele>1147</ele>
        <time>2019-10-30T13:56:48Z</time>
      </trkpt>
      <trkpt lat="45.00239" lon="5.39332">
        <ele>1147.2</ele>
        <time>2019-10-30T13:56:55Z</time>
      </trkpt>
      <trkpt lat="45.00242" lon="5.39338">
        <ele>1147.6</ele>
        <time>2019-10-30T13:56:58Z</time>
      </trkpt>
      <trkpt lat="45.00247" lon="5.3934">
        <ele>1147.6</ele>
        <time>2019-10-30T13:57:00Z</time>
      </trkpt>
      <trkpt lat="45.00272" lon="5.39375">
        <ele>1149.7</ele>
        <time>2019-10-30T14:00:42Z</time>
      </trkpt>
      <trkpt lat="45.00315" lon="5.39444">
        <ele>1150.2</ele>
        <time>2019-10-30T14:00:58Z</time>
      </trkpt>
      <trkpt lat="45.00332" lon="5.39462">
        <ele>1149.5</ele>
        <time>2019-10-30T14:01:05Z</time>
      </trkpt>
      <trkpt lat="45.00344" lon="5.39482">
        <ele>1150.1</ele>
        <time>2019-10-30T14:01:11Z</time>
      </trkpt>
      <trkpt lat="45.00348" lon="5.39484">
        <ele>1150</ele>
        <time>2019-10-30T14:01:12Z</time>
      </trkpt>
      <trkpt lat="45.00363" lon="5.39509">
        <ele>1151.4</ele>
        <time>2019-10-30T14:01:20Z</time>
      </trkpt>
      <trkpt lat="45.00369" lon="5.39513">
        <ele>1151.6</ele>
        <time>2019-10-30T14:01:22Z</time>
      </trkpt>
      <trkpt lat="45.00399" lon="5.39558">
        <ele>1155.7</ele>
        <time>2019-10-30T14:01:44Z</time>
      </trkpt>
      <trkpt lat="45.00438" lon="5.39643">
        <ele>1162</ele>
        <time>2019-10-30T14:02:19Z</time>
      </trkpt>
      <trkpt lat="45.00465" lon="5.39655">
        <ele>1160.8</ele>
        <time>2019-10-30T14:02:28Z</time>
      </trkpt>
      <trkpt lat="45.00486" lon="5.39676">
        <ele>1160.9</ele>
        <time>2019-10-30T14:02:38Z</time>
      </trkpt>
      <trkpt lat="45.00501" lon="5.39696">
        <ele>1161.7</ele>
        <time>2019-10-30T14:02:46Z</time>
      </trkpt>
      <trkpt lat="45.00503" lon="5.39702">
        <ele>1162.1</ele>
        <time>2019-10-30T14:02:49Z</time>
      </trkpt>
      <trkpt lat="45.00554" lon="5.39739">
        <ele>1156.1</ele>
        <time>2019-10-30T14:03:32Z</time>
      </trkpt>
      <trkpt lat="45.00573" lon="5.39746">
        <ele>1152.9</ele>
        <time>2019-10-30T14:03:44Z</time>
      </trkpt>
      <trkpt lat="45.00545" lon="5.39728">
        <ele>1157.3</ele>
        <time>2019-10-30T14:09:40Z</time>
      </trkpt>
      <trkpt lat="45.00541" lon="5.39715">
        <ele>1157.2</ele>
        <time>2019-10-30T14:09:48Z</time>
      </trkpt>
      <trkpt lat="45.00535" lon="5.39707">
        <ele>1157.6</ele>
        <time>2019-10-30T14:09:52Z</time>
      </trkpt>
      <trkpt lat="45.00518" lon="5.39695">
        <ele>1159.3</ele>
        <time>2019-10-30T14:10:01Z</time>
      </trkpt>
      <trkpt lat="45.00487" lon="5.39685">
        <ele>1161.5</ele>
        <time>2019-10-30T14:10:10Z</time>
      </trkpt>
      <trkpt lat="45.00451" lon="5.3969">
        <ele>1163.5</ele>
        <time>2019-10-30T14:10:28Z</time>
      </trkpt>
      <trkpt lat="45.00438" lon="5.39705">
        <ele>1163.5</ele>
        <time>2019-10-30T14:10:33Z</time>
      </trkpt>
      <trkpt lat="45.0042" lon="5.39716">
        <ele>1162.9</ele>
        <time>2019-10-30T14:10:40Z</time>
      </trkpt>
      <trkpt lat="45.00415" lon="5.39735">
        <ele>1161.4</ele>
        <time>2019-10-30T14:10:46Z</time>
      </trkpt>
      <trkpt lat="45.00405" lon="5.39749">
        <ele>1160.8</ele>
        <time>2019-10-30T14:10:50Z</time>
      </trkpt>
      <trkpt lat="45.00391" lon="5.39779">
        <ele>1155.4</ele>
        <time>2019-10-30T14:10:57Z</time>
      </trkpt>
      <trkpt lat="45.00357" lon="5.39821">
        <ele>1147.9</ele>
        <time>2019-10-30T14:11:08Z</time>
      </trkpt>
      <trkpt lat="45.0034" lon="5.39848">
        <ele>1143.1</ele>
        <time>2019-10-30T14:11:12Z</time>
      </trkpt>
      <trkpt lat="45.00312" lon="5.39869">
        <ele>1138.9</ele>
        <time>2019-10-30T14:11:17Z</time>
      </trkpt>
      <trkpt lat="45.0029" lon="5.39872">
        <ele>1137.7</ele>
        <time>2019-10-30T14:11:24Z</time>
      </trkpt>
      <trkpt lat="45.0027" lon="5.39879">
        <ele>1135.9</ele>
        <time>2019-10-30T14:11:30Z</time>
      </trkpt>
      <trkpt lat="45.00226" lon="5.39878">
        <ele>1131.9</ele>
        <time>2019-10-30T14:11:39Z</time>
      </trkpt>
      <trkpt lat="45.00216" lon="5.39875">
        <ele>1131</ele>
        <time>2019-10-30T14:11:42Z</time>
      </trkpt>
      <trkpt lat="45.00199" lon="5.3986">
        <ele>1131.1</ele>
        <time>2019-10-30T14:11:48Z</time>
      </trkpt>
      <trkpt lat="45.00168" lon="5.39848">
        <ele>1128.7</ele>
        <time>2019-10-30T14:11:55Z</time>
      </trkpt>
      <trkpt lat="45.00134" lon="5.39824">
        <ele>1128.3</ele>
        <time>2019-10-30T14:12:08Z</time>
      </trkpt>
      <trkpt lat="45.00117" lon="5.39805">
        <ele>1129.1</ele>
        <time>2019-10-30T14:12:14Z</time>
      </trkpt>
      <trkpt lat="45.00099" lon="5.39774">
        <ele>1131.6</ele>
        <time>2019-10-30T14:12:27Z</time>
      </trkpt>
      <trkpt lat="45.00088" lon="5.39749">
        <ele>1133.8</ele>
        <time>2019-10-30T14:12:34Z</time>
      </trkpt>
      <trkpt lat="45.00075" lon="5.39686">
        <ele>1141.1</ele>
        <time>2019-10-30T14:12:56Z</time>
      </trkpt>
      <trkpt lat="45.00062" lon="5.39639">
        <ele>1147.2</ele>
        <time>2019-10-30T14:13:13Z</time>
      </trkpt>
      <trkpt lat="45.00061" lon="5.39614">
        <ele>1149.6</ele>
        <time>2019-10-30T14:13:21Z</time>
      </trkpt>
      <trkpt lat="45.00058" lon="5.39599">
        <ele>1151.3</ele>
        <time>2019-10-30T14:13:25Z</time>
      </trkpt>
      <trkpt lat="45.00048" lon="5.39572">
        <ele>1154.3</ele>
        <time>2019-10-30T14:13:33Z</time>
      </trkpt>
      <trkpt lat="45.00005" lon="5.39508">
        <ele>1157.1</ele>
        <time>2019-10-30T14:13:57Z</time>
      </trkpt>
      <trkpt lat="44.99951" lon="5.39444">
        <ele>1162.4</ele>
        <time>2019-10-30T14:15:18Z</time>
      </trkpt>
      <trkpt lat="44.99933" lon="5.39439">
        <ele>1162.3</ele>
        <time>2019-10-30T14:15:25Z</time>
      </trkpt>
      <trkpt lat="44.99896" lon="5.39414">
        <ele>1166</ele>
        <time>2019-10-30T14:15:39Z</time>
      </trkpt>
      <trkpt lat="44.99849" lon="5.39373">
        <ele>1170.6</ele>
        <time>2019-10-30T14:16:06Z</time>
      </trkpt>
      <trkpt lat="44.99831" lon="5.39345">
        <ele>1171.2</ele>
        <time>2019-10-30T14:16:13Z</time>
      </trkpt>
      <trkpt lat="44.99813" lon="5.39325">
        <ele>1172</ele>
        <time>2019-10-30T14:16:23Z</time>
      </trkpt>
      <trkpt lat="44.99804" lon="5.39322">
        <ele>1172.4</ele>
        <time>2019-10-30T14:16:28Z</time>
      </trkpt>
      <trkpt lat="44.9979" lon="5.39309">
        <ele>1171.8</ele>
        <time>2019-10-30T14:16:42Z</time>
      </trkpt>
      <trkpt lat="44.99781" lon="5.39306">
        <ele>1171.9</ele>
        <time>2019-10-30T14:16:45Z</time>
      </trkpt>
      <trkpt lat="44.99773" lon="5.39295">
        <ele>1170.7</ele>
        <time>2019-10-30T14:16:49Z</time>
      </trkpt>
      <trkpt lat="44.99749" lon="5.39275">
        <ele>1168.3</ele>
        <time>2019-10-30T14:16:55Z</time>
      </trkpt>
      <trkpt lat="44.99737" lon="5.39269">
        <ele>1166</ele>
        <time>2019-10-30T14:16:57Z</time>
      </trkpt>
      <trkpt lat="44.99705" lon="5.39266">
        <ele>1161.9</ele>
        <time>2019-10-30T14:17:01Z</time>
      </trkpt>
      <trkpt lat="44.9966" lon="5.39268">
        <ele>1157</ele>
        <time>2019-10-30T14:17:07Z</time>
      </trkpt>
      <trkpt lat="44.99648" lon="5.39272">
        <ele>1155.5</ele>
        <time>2019-10-30T14:17:09Z</time>
      </trkpt>
      <trkpt lat="44.99633" lon="5.39268">
        <ele>1152.4</ele>
        <time>2019-10-30T14:17:12Z</time>
      </trkpt>
      <trkpt lat="44.99526" lon="5.39216">
        <ele>1133.9</ele>
        <time>2019-10-30T14:17:28Z</time>
      </trkpt>
      <trkpt lat="44.99498" lon="5.39209">
        <ele>1131.6</ele>
        <time>2019-10-30T14:17:32Z</time>
      </trkpt>
      <trkpt lat="44.99482" lon="5.3921">
        <ele>1131.2</ele>
        <time>2019-10-30T14:17:35Z</time>
      </trkpt>
      <trkpt lat="44.99453" lon="5.39189">
        <ele>1126.8</ele>
        <time>2019-10-30T14:17:42Z</time>
      </trkpt>
      <trkpt lat="44.99448" lon="5.39181">
        <ele>1125.2</ele>
        <time>2019-10-30T14:17:44Z</time>
      </trkpt>
      <trkpt lat="44.99449" lon="5.39168">
        <ele>1123.2</ele>
        <time>2019-10-30T14:17:47Z</time>
      </trkpt>
      <trkpt lat="44.99445" lon="5.39161">
        <ele>1121.8</ele>
        <time>2019-10-30T14:17:49Z</time>
      </trkpt>
      <trkpt lat="44.99425" lon="5.39157">
        <ele>1119.6</ele>
        <time>2019-10-30T14:17:53Z</time>
      </trkpt>
      <trkpt lat="44.99402" lon="5.39158">
        <ele>1117.5</ele>
        <time>2019-10-30T14:17:56Z</time>
      </trkpt>
      <trkpt lat="44.99345" lon="5.39148">
        <ele>1107.8</ele>
        <time>2019-10-30T14:18:04Z</time>
      </trkpt>
      <trkpt lat="44.99311" lon="5.39155">
        <ele>1103.5</ele>
        <time>2019-10-30T14:18:10Z</time>
      </trkpt>
      <trkpt lat="44.9928" lon="5.3915">
        <ele>1096.9</ele>
        <time>2019-10-30T14:18:18Z</time>
      </trkpt>
      <trkpt lat="44.99268" lon="5.39136">
        <ele>1092.6</ele>
        <time>2019-10-30T14:18:21Z</time>
      </trkpt>
      <trkpt lat="44.99255" lon="5.39131">
        <ele>1089.7</ele>
        <time>2019-10-30T14:18:24Z</time>
      </trkpt>
      <trkpt lat="44.99245" lon="5.39134">
        <ele>1089.3</ele>
        <time>2019-10-30T14:18:28Z</time>
      </trkpt>
      <trkpt lat="44.99241" lon="5.3914">
        <ele>1090</ele>
        <time>2019-10-30T14:18:32Z</time>
      </trkpt>
      <trkpt lat="44.99243" lon="5.39159">
        <ele>1092.8</ele>
        <time>2019-10-30T14:18:37Z</time>
      </trkpt>
      <trkpt lat="44.9924" lon="5.39171">
        <ele>1094.1</ele>
        <time>2019-10-30T14:18:40Z</time>
      </trkpt>
      <trkpt lat="44.99232" lon="5.39185">
        <ele>1094.5</ele>
        <time>2019-10-30T14:18:44Z</time>
      </trkpt>
      <trkpt lat="44.99207" lon="5.39211">
        <ele>1093.1</ele>
        <time>2019-10-30T14:18:53Z</time>
      </trkpt>
      <trkpt lat="44.9919" lon="5.39215">
        <ele>1091.3</ele>
        <time>2019-10-30T14:18:57Z</time>
      </trkpt>
      <trkpt lat="44.99171" lon="5.39256">
        <ele>1086.7</ele>
        <time>2019-10-30T14:19:05Z</time>
      </trkpt>
      <trkpt lat="44.99147" lon="5.39291">
        <ele>1086.3</ele>
        <time>2019-10-30T14:19:12Z</time>
      </trkpt>
      <trkpt lat="44.99111" lon="5.39322">
        <ele>1082.7</ele>
        <time>2019-10-30T14:19:18Z</time>
      </trkpt>
      <trkpt lat="44.991" lon="5.39336">
        <ele>1080.1</ele>
        <time>2019-10-30T14:19:20Z</time>
      </trkpt>
      <trkpt lat="44.99082" lon="5.39351">
        <ele>1078.2</ele>
        <time>2019-10-30T14:19:23Z</time>
      </trkpt>
      <trkpt lat="44.99072" lon="5.39363">
        <ele>1077.9</ele>
        <time>2019-10-30T14:19:25Z</time>
      </trkpt>
      <trkpt lat="44.99044" lon="5.39383">
        <ele>1075.8</ele>
        <time>2019-10-30T14:19:30Z</time>
      </trkpt>
      <trkpt lat="44.99039" lon="5.39402">
        <ele>1073</ele>
        <time>2019-10-30T14:19:35Z</time>
      </trkpt>
      <trkpt lat="44.99034" lon="5.3941">
        <ele>1071.4</ele>
        <time>2019-10-30T14:19:37Z</time>
      </trkpt>
      <trkpt lat="44.9902" lon="5.39455">
        <ele>1063.4</ele>
        <time>2019-10-30T14:20:38Z</time>
      </trkpt>
      <trkpt lat="44.99011" lon="5.39471">
        <ele>1059.7</ele>
        <time>2019-10-30T14:20:42Z</time>
      </trkpt>
      <trkpt lat="44.99013" lon="5.395">
        <ele>1055.7</ele>
        <time>2019-10-30T14:20:49Z</time>
      </trkpt>
      <trkpt lat="44.9902" lon="5.39523">
        <ele>1052</ele>
        <time>2019-10-30T14:20:55Z</time>
      </trkpt>
      <trkpt lat="44.99019" lon="5.39533">
        <ele>1049.5</ele>
        <time>2019-10-30T14:20:57Z</time>
      </trkpt>
      <trkpt lat="44.99011" lon="5.39545">
        <ele>1045.1</ele>
        <time>2019-10-30T14:21:00Z</time>
      </trkpt>
      <trkpt lat="44.98968" lon="5.39569">
        <ele>1032.7</ele>
        <time>2019-10-30T14:21:12Z</time>
      </trkpt>
      <trkpt lat="44.98913" lon="5.39585">
        <ele>1021.3</ele>
        <time>2019-10-30T14:21:29Z</time>
      </trkpt>
      <trkpt lat="44.98903" lon="5.39593">
        <ele>1018.5</ele>
        <time>2019-10-30T14:21:33Z</time>
      </trkpt>
      <trkpt lat="44.98887" lon="5.39614">
        <ele>1012.1</ele>
        <time>2019-10-30T14:21:41Z</time>
      </trkpt>
      <trkpt lat="44.98889" lon="5.39632">
        <ele>1008.4</ele>
        <time>2019-10-30T14:22:17Z</time>
      </trkpt>
      <trkpt lat="44.98896" lon="5.3964">
        <ele>1007</ele>
        <time>2019-10-30T14:22:20Z</time>
      </trkpt>
      <trkpt lat="44.98898" lon="5.39662">
        <ele>1002.4</ele>
        <time>2019-10-30T14:22:27Z</time>
      </trkpt>
      <trkpt lat="44.98895" lon="5.39665">
        <ele>1001.2</ele>
        <time>2019-10-30T14:22:30Z</time>
      </trkpt>
      <trkpt lat="44.98898" lon="5.39674">
        <ele>999.7</ele>
        <time>2019-10-30T14:22:34Z</time>
      </trkpt>
      <trkpt lat="44.98906" lon="5.39683">
        <ele>998.4</ele>
        <time>2019-10-30T14:22:39Z</time>
      </trkpt>
      <trkpt lat="44.98916" lon="5.39715">
        <ele>992.6</ele>
        <time>2019-10-30T14:22:46Z</time>
      </trkpt>
      <trkpt lat="44.98924" lon="5.3973">
        <ele>989.8</ele>
        <time>2019-10-30T14:22:52Z</time>
      </trkpt>
      <trkpt lat="44.98926" lon="5.39748">
        <ele>985.8</ele>
        <time>2019-10-30T14:23:19Z</time>
      </trkpt>
      <trkpt lat="44.98925" lon="5.39768">
        <ele>980.5</ele>
        <time>2019-10-30T14:23:27Z</time>
      </trkpt>
      <trkpt lat="44.98931" lon="5.39799">
        <ele>972.6</ele>
        <time>2019-10-30T14:23:59Z</time>
      </trkpt>
      <trkpt lat="44.98937" lon="5.39815">
        <ele>968.4</ele>
        <time>2019-10-30T14:24:03Z</time>
      </trkpt>
      <trkpt lat="44.98953" lon="5.39843">
        <ele>960.5</ele>
        <time>2019-10-30T14:24:11Z</time>
      </trkpt>
      <trkpt lat="44.9897" lon="5.3986">
        <ele>956.1</ele>
        <time>2019-10-30T14:24:16Z</time>
      </trkpt>
      <trkpt lat="44.98971" lon="5.39869">
        <ele>953.7</ele>
        <time>2019-10-30T14:24:17Z</time>
      </trkpt>
      <trkpt lat="44.98983" lon="5.39883">
        <ele>950</ele>
        <time>2019-10-30T14:24:20Z</time>
      </trkpt>
      <trkpt lat="44.98993" lon="5.39889">
        <ele>948.8</ele>
        <time>2019-10-30T14:24:22Z</time>
      </trkpt>
      <trkpt lat="44.99015" lon="5.39908">
        <ele>942.5</ele>
        <time>2019-10-30T14:24:29Z</time>
      </trkpt>
      <trkpt lat="44.99027" lon="5.39911">
        <ele>940.7</ele>
        <time>2019-10-30T14:24:35Z</time>
      </trkpt>
      <trkpt lat="44.99036" lon="5.39918">
        <ele>937.8</ele>
        <time>2019-10-30T14:24:38Z</time>
      </trkpt>
      <trkpt lat="44.99066" lon="5.39963">
        <ele>926.2</ele>
        <time>2019-10-30T14:24:52Z</time>
      </trkpt>
      <trkpt lat="44.99082" lon="5.39981">
        <ele>921.5</ele>
        <time>2019-10-30T14:24:59Z</time>
      </trkpt>
      <trkpt lat="44.99092" lon="5.39996">
        <ele>919</ele>
        <time>2019-10-30T14:25:06Z</time>
      </trkpt>
      <trkpt lat="44.99098" lon="5.40013">
        <ele>915.9</ele>
        <time>2019-10-30T14:25:14Z</time>
      </trkpt>
      <trkpt lat="44.99107" lon="5.40024">
        <ele>914.2</ele>
        <time>2019-10-30T14:25:18Z</time>
      </trkpt>
      <trkpt lat="44.99113" lon="5.40042">
        <ele>911.4</ele>
        <time>2019-10-30T14:25:23Z</time>
      </trkpt>
      <trkpt lat="44.99124" lon="5.40061">
        <ele>909</ele>
        <time>2019-10-30T14:25:28Z</time>
      </trkpt>
      <trkpt lat="44.99133" lon="5.40109">
        <ele>900.8</ele>
        <time>2019-10-30T14:25:40Z</time>
      </trkpt>
      <trkpt lat="44.99146" lon="5.40145">
        <ele>894.2</ele>
        <time>2019-10-30T14:25:49Z</time>
      </trkpt>
      <trkpt lat="44.99175" lon="5.40188">
        <ele>888.3</ele>
        <time>2019-10-30T14:26:02Z</time>
      </trkpt>
      <trkpt lat="44.99181" lon="5.40201">
        <ele>886</ele>
        <time>2019-10-30T14:26:05Z</time>
      </trkpt>
      <trkpt lat="44.99193" lon="5.4025">
        <ele>875.1</ele>
        <time>2019-10-30T14:26:12Z</time>
      </trkpt>
      <trkpt lat="44.99197" lon="5.40259">
        <ele>874.4</ele>
        <time>2019-10-30T14:26:13Z</time>
      </trkpt>
      <trkpt lat="44.99202" lon="5.40287">
        <ele>870.9</ele>
        <time>2019-10-30T14:26:17Z</time>
      </trkpt>
      <trkpt lat="44.99198" lon="5.40305">
        <ele>867.6</ele>
        <time>2019-10-30T14:26:20Z</time>
      </trkpt>
      <trkpt lat="44.99194" lon="5.40308">
        <ele>866.7</ele>
        <time>2019-10-30T14:26:22Z</time>
      </trkpt>
      <trkpt lat="44.99194" lon="5.40321">
        <ele>864.7</ele>
        <time>2019-10-30T14:26:25Z</time>
      </trkpt>
      <trkpt lat="44.99199" lon="5.4034">
        <ele>863.1</ele>
        <time>2019-10-30T14:26:30Z</time>
      </trkpt>
      <trkpt lat="44.99197" lon="5.40359">
        <ele>860.9</ele>
        <time>2019-10-30T14:26:33Z</time>
      </trkpt>
      <trkpt lat="44.99207" lon="5.40406">
        <ele>857.8</ele>
        <time>2019-10-30T14:26:44Z</time>
      </trkpt>
      <trkpt lat="44.99205" lon="5.40424">
        <ele>856.2</ele>
        <time>2019-10-30T14:26:47Z</time>
      </trkpt>
      <trkpt lat="44.9918" lon="5.40537">
        <ele>848</ele>
        <time>2019-10-30T14:27:00Z</time>
      </trkpt>
      <trkpt lat="44.9918" lon="5.40584">
        <ele>845.1</ele>
        <time>2019-10-30T14:27:04Z</time>
      </trkpt>
      <trkpt lat="44.99182" lon="5.40596">
        <ele>845.5</ele>
        <time>2019-10-30T14:27:05Z</time>
      </trkpt>
      <trkpt lat="44.99195" lon="5.40611">
        <ele>846.5</ele>
        <time>2019-10-30T14:27:07Z</time>
      </trkpt>
      <trkpt lat="44.99226" lon="5.40626">
        <ele>848.2</ele>
        <time>2019-10-30T14:27:11Z</time>
      </trkpt>
      <trkpt lat="44.99243" lon="5.40641">
        <ele>848.6</ele>
        <time>2019-10-30T14:27:14Z</time>
      </trkpt>
      <trkpt lat="44.99286" lon="5.40663">
        <ele>851.3</ele>
        <time>2019-10-30T14:27:22Z</time>
      </trkpt>
      <trkpt lat="44.99302" lon="5.40679">
        <ele>853.4</ele>
        <time>2019-10-30T14:27:26Z</time>
      </trkpt>
      <trkpt lat="44.9931" lon="5.40698">
        <ele>855.6</ele>
        <time>2019-10-30T14:27:29Z</time>
      </trkpt>
      <trkpt lat="44.99313" lon="5.40721">
        <ele>857.6</ele>
        <time>2019-10-30T14:27:32Z</time>
      </trkpt>
      <trkpt lat="44.99317" lon="5.40735">
        <ele>859</ele>
        <time>2019-10-30T14:27:34Z</time>
      </trkpt>
      <trkpt lat="44.99336" lon="5.40766">
        <ele>860.5</ele>
        <time>2019-10-30T14:27:41Z</time>
      </trkpt>
      <trkpt lat="44.99353" lon="5.40813">
        <ele>859</ele>
        <time>2019-10-30T14:27:51Z</time>
      </trkpt>
      <trkpt lat="44.99363" lon="5.40819">
        <ele>858.6</ele>
        <time>2019-10-30T14:27:54Z</time>
      </trkpt>
      <trkpt lat="44.9939" lon="5.40813">
        <ele>858</ele>
        <time>2019-10-30T14:28:03Z</time>
      </trkpt>
      <trkpt lat="44.99424" lon="5.40822">
        <ele>858.1</ele>
        <time>2019-10-30T14:28:12Z</time>
      </trkpt>
      <trkpt lat="44.99445" lon="5.40818">
        <ele>860.5</ele>
        <time>2019-10-30T14:28:17Z</time>
      </trkpt>
      <trkpt lat="44.99499" lon="5.40796">
        <ele>865.7</ele>
        <time>2019-10-30T14:28:36Z</time>
      </trkpt>
      <trkpt lat="44.99588" lon="5.40804">
        <ele>877</ele>
        <time>2019-10-30T14:29:10Z</time>
      </trkpt>
      <trkpt lat="44.99633" lon="5.40814">
        <ele>880.6</ele>
        <time>2019-10-30T14:29:26Z</time>
      </trkpt>
      <trkpt lat="44.99715" lon="5.40815">
        <ele>886.2</ele>
        <time>2019-10-30T14:29:52Z</time>
      </trkpt>
      <trkpt lat="44.99779" lon="5.40839">
        <ele>889.1</ele>
        <time>2019-10-30T14:30:14Z</time>
      </trkpt>
      <trkpt lat="44.99813" lon="5.40845">
        <ele>891.1</ele>
        <time>2019-10-30T14:30:26Z</time>
      </trkpt>
      <trkpt lat="44.99877" lon="5.40899">
        <ele>894</ele>
        <time>2019-10-30T14:30:50Z</time>
      </trkpt>
      <trkpt lat="44.99892" lon="5.409">
        <ele>895.6</ele>
        <time>2019-10-30T14:30:55Z</time>
      </trkpt>
      <trkpt lat="44.99923" lon="5.40855">
        <ele>905.5</ele>
        <time>2019-10-30T14:31:21Z</time>
      </trkpt>
      <trkpt lat="44.99958" lon="5.40782">
        <ele>919.9</ele>
        <time>2019-10-30T14:37:45Z</time>
      </trkpt>
      <trkpt lat="44.99964" lon="5.40762">
        <ele>924</ele>
        <time>2019-10-30T14:37:55Z</time>
      </trkpt>
      <trkpt lat="44.99978" lon="5.40755">
        <ele>927.3</ele>
        <time>2019-10-30T14:38:05Z</time>
      </trkpt>
      <trkpt lat="44.99993" lon="5.40753">
        <ele>930.3</ele>
        <time>2019-10-30T14:38:14Z</time>
      </trkpt>
      <trkpt lat="45.00008" lon="5.40755">
        <ele>931.8</ele>
        <time>2019-10-30T14:38:21Z</time>
      </trkpt>
      <trkpt lat="45.00074" lon="5.40819">
        <ele>926.7</ele>
        <time>2019-10-30T14:38:43Z</time>
      </trkpt>
      <trkpt lat="45.00088" lon="5.40853">
        <ele>922.4</ele>
        <time>2019-10-30T14:39:02Z</time>
      </trkpt>
      <trkpt lat="45.00103" lon="5.40869">
        <ele>920.8</ele>
        <time>2019-10-30T14:39:06Z</time>
      </trkpt>
      <trkpt lat="45.0013" lon="5.40918">
        <ele>914.6</ele>
        <time>2019-10-30T14:39:13Z</time>
      </trkpt>
      <trkpt lat="45.00142" lon="5.40945">
        <ele>910.1</ele>
        <time>2019-10-30T14:39:16Z</time>
      </trkpt>
      <trkpt lat="45.00156" lon="5.41005">
        <ele>900.3</ele>
        <time>2019-10-30T14:39:24Z</time>
      </trkpt>
      <trkpt lat="45.00161" lon="5.41057">
        <ele>893.1</ele>
        <time>2019-10-30T14:39:41Z</time>
      </trkpt>
      <trkpt lat="45.00173" lon="5.41097">
        <ele>888.2</ele>
        <time>2019-10-30T14:39:51Z</time>
      </trkpt>
      <trkpt lat="45.00181" lon="5.4111">
        <ele>886.7</ele>
        <time>2019-10-30T14:39:56Z</time>
      </trkpt>
      <trkpt lat="45.0019" lon="5.41143">
        <ele>881.8</ele>
        <time>2019-10-30T14:40:06Z</time>
      </trkpt>
      <trkpt lat="45.00199" lon="5.41159">
        <ele>879.9</ele>
        <time>2019-10-30T14:40:12Z</time>
      </trkpt>
      <trkpt lat="45.00218" lon="5.41268">
        <ele>858.6</ele>
        <time>2019-10-30T14:42:53Z</time>
      </trkpt>
      <trkpt lat="45.00213" lon="5.41298">
        <ele>852.9</ele>
        <time>2019-10-30T14:42:59Z</time>
      </trkpt>
      <trkpt lat="45.00215" lon="5.41309">
        <ele>851.2</ele>
        <time>2019-10-30T14:43:02Z</time>
      </trkpt>
      <trkpt lat="45.00205" lon="5.41337">
        <ele>845.5</ele>
        <time>2019-10-30T14:43:08Z</time>
      </trkpt>
      <trkpt lat="45.00209" lon="5.41376">
        <ele>838.6</ele>
        <time>2019-10-30T14:43:15Z</time>
      </trkpt>
      <trkpt lat="45.00209" lon="5.41393">
        <ele>835.5</ele>
        <time>2019-10-30T14:43:18Z</time>
      </trkpt>
      <trkpt lat="45.00205" lon="5.4141">
        <ele>831.8</ele>
        <time>2019-10-30T14:43:21Z</time>
      </trkpt>
      <trkpt lat="45.00187" lon="5.41444">
        <ele>823.3</ele>
        <time>2019-10-30T14:43:27Z</time>
      </trkpt>
      <trkpt lat="45.00183" lon="5.41478">
        <ele>815.7</ele>
        <time>2019-10-30T14:43:33Z</time>
      </trkpt>
      <trkpt lat="45.00182" lon="5.41519">
        <ele>808.4</ele>
        <time>2019-10-30T14:43:39Z</time>
      </trkpt>
      <trkpt lat="45.00179" lon="5.41528">
        <ele>806.8</ele>
        <time>2019-10-30T14:43:40Z</time>
      </trkpt>
      <trkpt lat="45.00144" lon="5.41585">
        <ele>795.3</ele>
        <time>2019-10-30T14:43:49Z</time>
      </trkpt>
      <trkpt lat="45.00141" lon="5.41623">
        <ele>788</ele>
        <time>2019-10-30T14:43:56Z</time>
      </trkpt>
      <trkpt lat="45.00142" lon="5.41645">
        <ele>784.1</ele>
        <time>2019-10-30T14:43:59Z</time>
      </trkpt>
      <trkpt lat="45.00136" lon="5.41655">
        <ele>781.4</ele>
        <time>2019-10-30T14:44:01Z</time>
      </trkpt>
      <trkpt lat="45.00131" lon="5.41658">
        <ele>780.2</ele>
        <time>2019-10-30T14:44:03Z</time>
      </trkpt>
      <trkpt lat="45.00132" lon="5.41671">
        <ele>777.8</ele>
        <time>2019-10-30T14:44:19Z</time>
      </trkpt>
      <trkpt lat="45.00163" lon="5.41761">
        <ele>763.4</ele>
        <time>2019-10-30T14:44:34Z</time>
      </trkpt>
      <trkpt lat="45.00163" lon="5.41774">
        <ele>760.4</ele>
        <time>2019-10-30T14:44:37Z</time>
      </trkpt>
      <trkpt lat="45.00154" lon="5.41801">
        <ele>754.2</ele>
        <time>2019-10-30T14:44:44Z</time>
      </trkpt>
      <trkpt lat="45.00153" lon="5.41831">
        <ele>748.1</ele>
        <time>2019-10-30T14:44:52Z</time>
      </trkpt>
      <trkpt lat="45.00157" lon="5.41846">
        <ele>745.9</ele>
        <time>2019-10-30T14:44:55Z</time>
      </trkpt>
      <trkpt lat="45.00162" lon="5.41852">
        <ele>745.1</ele>
        <time>2019-10-30T14:44:57Z</time>
      </trkpt>
      <trkpt lat="45.00166" lon="5.41872">
        <ele>742.4</ele>
        <time>2019-10-30T14:45:01Z</time>
      </trkpt>
      <trkpt lat="45.0016" lon="5.41894">
        <ele>739.1</ele>
        <time>2019-10-30T14:45:03Z</time>
      </trkpt>
      <trkpt lat="45.0016" lon="5.41917">
        <ele>735.8</ele>
        <time>2019-10-30T14:45:06Z</time>
      </trkpt>
      <trkpt lat="45.00152" lon="5.41939">
        <ele>733</ele>
        <time>2019-10-30T14:45:11Z</time>
      </trkpt>
      <trkpt lat="45.00159" lon="5.41974">
        <ele>728.1</ele>
        <time>2019-10-30T14:45:17Z</time>
      </trkpt>
      <trkpt lat="45.00168" lon="5.42003">
        <ele>723.4</ele>
        <time>2019-10-30T14:45:24Z</time>
      </trkpt>
      <trkpt lat="45.00158" lon="5.4203">
        <ele>719.1</ele>
        <time>2019-10-30T14:45:37Z</time>
      </trkpt>
      <trkpt lat="45.00151" lon="5.42068">
        <ele>713.3</ele>
        <time>2019-10-30T14:46:04Z</time>
      </trkpt>
      <trkpt lat="45.00135" lon="5.42121">
        <ele>705.3</ele>
        <time>2019-10-30T14:46:09Z</time>
      </trkpt>
      <trkpt lat="45.00123" lon="5.42142">
        <ele>703</ele>
        <time>2019-10-30T14:46:11Z</time>
      </trkpt>
      <trkpt lat="45.00092" lon="5.42169">
        <ele>703.9</ele>
        <time>2019-10-30T14:46:14Z</time>
      </trkpt>
      <trkpt lat="45.00009" lon="5.42212">
        <ele>701.8</ele>
        <time>2019-10-30T14:46:22Z</time>
      </trkpt>
      <trkpt lat="44.99969" lon="5.42228">
        <ele>702.6</ele>
        <time>2019-10-30T14:46:26Z</time>
      </trkpt>
      <trkpt lat="44.9995" lon="5.42239">
        <ele>702</ele>
        <time>2019-10-30T14:46:28Z</time>
      </trkpt>
      <trkpt lat="44.9994" lon="5.42256">
        <ele>699.7</ele>
        <time>2019-10-30T14:46:30Z</time>
      </trkpt>
      <trkpt lat="44.99929" lon="5.42297">
        <ele>694.5</ele>
        <time>2019-10-30T14:46:34Z</time>
      </trkpt>
      <trkpt lat="44.99915" lon="5.42307">
        <ele>694</ele>
        <time>2019-10-30T14:46:36Z</time>
      </trkpt>
      <trkpt lat="44.999" lon="5.42311">
        <ele>694.9</ele>
        <time>2019-10-30T14:46:38Z</time>
      </trkpt>
      <trkpt lat="44.9984" lon="5.42312">
        <ele>701.1</ele>
        <time>2019-10-30T14:46:45Z</time>
      </trkpt>
      <trkpt lat="44.99783" lon="5.42301">
        <ele>703</ele>
        <time>2019-10-30T14:46:52Z</time>
      </trkpt>
      <trkpt lat="44.99773" lon="5.42308">
        <ele>702.4</ele>
        <time>2019-10-30T14:46:55Z</time>
      </trkpt>
      <trkpt lat="44.99778" lon="5.4233">
        <ele>700.9</ele>
        <time>2019-10-30T14:46:59Z</time>
      </trkpt>
      <trkpt lat="44.99783" lon="5.42341">
        <ele>700.4</ele>
        <time>2019-10-30T14:47:01Z</time>
      </trkpt>
      <trkpt lat="44.99799" lon="5.42404">
        <ele>698</ele>
        <time>2019-10-30T14:47:09Z</time>
      </trkpt>
      <trkpt lat="44.99806" lon="5.42568">
        <ele>710.9</ele>
        <time>2019-10-30T14:47:32Z</time>
      </trkpt>
      <trkpt lat="44.99804" lon="5.4258">
        <ele>712.8</ele>
        <time>2019-10-30T14:47:35Z</time>
      </trkpt>
      <trkpt lat="44.99813" lon="5.42615">
        <ele>716.7</ele>
        <time>2019-10-30T14:47:48Z</time>
      </trkpt>
      <trkpt lat="44.99839" lon="5.42646">
        <ele>715</ele>
        <time>2019-10-30T14:48:02Z</time>
      </trkpt>
      <trkpt lat="44.99858" lon="5.42661">
        <ele>711.3</ele>
        <time>2019-10-30T14:48:12Z</time>
      </trkpt>
      <trkpt lat="44.99888" lon="5.42703">
        <ele>710.4</ele>
        <time>2019-10-30T14:48:29Z</time>
      </trkpt>
      <trkpt lat="44.99897" lon="5.42728">
        <ele>713.9</ele>
        <time>2019-10-30T14:48:37Z</time>
      </trkpt>
      <trkpt lat="44.99895" lon="5.42753">
        <ele>720.4</ele>
        <time>2019-10-30T14:48:44Z</time>
      </trkpt>
      <trkpt lat="44.99902" lon="5.4278">
        <ele>719.3</ele>
        <time>2019-10-30T14:48:52Z</time>
      </trkpt>
      <trkpt lat="44.99901" lon="5.42788">
        <ele>719.9</ele>
        <time>2019-10-30T14:48:54Z</time>
      </trkpt>
      <trkpt lat="44.99906" lon="5.42809">
        <ele>719.8</ele>
        <time>2019-10-30T14:49:01Z</time>
      </trkpt>
      <trkpt lat="44.99903" lon="5.42833">
        <ele>721.6</ele>
        <time>2019-10-30T14:49:06Z</time>
      </trkpt>
      <trkpt lat="44.99911" lon="5.42864">
        <ele>719.1</ele>
        <time>2019-10-30T14:49:44Z</time>
      </trkpt>
      <trkpt lat="44.99911" lon="5.42873">
        <ele>718.8</ele>
        <time>2019-10-30T14:49:46Z</time>
      </trkpt>
      <trkpt lat="44.99894" lon="5.42898">
        <ele>719.5</ele>
        <time>2019-10-30T14:49:52Z</time>
      </trkpt>
      <trkpt lat="44.99889" lon="5.42911">
        <ele>719</ele>
        <time>2019-10-30T14:49:55Z</time>
      </trkpt>
      <trkpt lat="44.99875" lon="5.42925">
        <ele>718.6</ele>
        <time>2019-10-30T14:50:00Z</time>
      </trkpt>
      <trkpt lat="44.99877" lon="5.42935">
        <ele>717.2</ele>
        <time>2019-10-30T14:50:03Z</time>
      </trkpt>
      <trkpt lat="44.99888" lon="5.42947">
        <ele>714.4</ele>
        <time>2019-10-30T14:50:07Z</time>
      </trkpt>
      <trkpt lat="44.99898" lon="5.4297">
        <ele>708.7</ele>
        <time>2019-10-30T14:50:13Z</time>
      </trkpt>
      <trkpt lat="44.99897" lon="5.42975">
        <ele>708.2</ele>
        <time>2019-10-30T14:50:14Z</time>
      </trkpt>
      <trkpt lat="44.999" lon="5.42979">
        <ele>706.9</ele>
        <time>2019-10-30T14:50:15Z</time>
      </trkpt>
      <trkpt lat="44.99897" lon="5.42985">
        <ele>706.4</ele>
        <time>2019-10-30T14:50:16Z</time>
      </trkpt>
      <trkpt lat="44.99901" lon="5.43026">
        <ele>701.3</ele>
        <time>2019-10-30T14:50:24Z</time>
      </trkpt>
      <trkpt lat="44.99896" lon="5.43039">
        <ele>702.6</ele>
        <time>2019-10-30T14:50:26Z</time>
      </trkpt>
      <trkpt lat="44.99891" lon="5.43074">
        <ele>703.7</ele>
        <time>2019-10-30T14:50:31Z</time>
      </trkpt>
      <trkpt lat="44.99897" lon="5.43135">
        <ele>703.3</ele>
        <time>2019-10-30T14:50:42Z</time>
      </trkpt>
      <trkpt lat="44.99904" lon="5.43173">
        <ele>702.6</ele>
        <time>2019-10-30T14:50:49Z</time>
      </trkpt>
      <trkpt lat="44.99901" lon="5.43198">
        <ele>709</ele>
        <time>2019-10-30T14:50:53Z</time>
      </trkpt>
      <trkpt lat="44.99905" lon="5.43226">
        <ele>712.7</ele>
        <time>2019-10-30T14:50:58Z</time>
      </trkpt>
      <trkpt lat="44.99931" lon="5.43283">
        <ele>713.7</ele>
        <time>2019-10-30T14:51:09Z</time>
      </trkpt>
      <trkpt lat="44.99933" lon="5.43293">
        <ele>715.2</ele>
        <time>2019-10-30T14:51:11Z</time>
      </trkpt>
      <trkpt lat="44.99949" lon="5.43331">
        <ele>716.4</ele>
        <time>2019-10-30T14:51:17Z</time>
      </trkpt>
      <trkpt lat="44.99949" lon="5.43337">
        <ele>717.2</ele>
        <time>2019-10-30T14:51:18Z</time>
      </trkpt>
      <trkpt lat="44.99956" lon="5.4336">
        <ele>716.5</ele>
        <time>2019-10-30T14:51:22Z</time>
      </trkpt>
      <trkpt lat="44.9996" lon="5.434">
        <ele>718.9</ele>
        <time>2019-10-30T14:51:29Z</time>
      </trkpt>
      <trkpt lat="44.99969" lon="5.4342">
        <ele>717.6</ele>
        <time>2019-10-30T14:51:32Z</time>
      </trkpt>
      <trkpt lat="45.0001" lon="5.43475">
        <ele>712.3</ele>
        <time>2019-10-30T14:51:41Z</time>
      </trkpt>
      <trkpt lat="45.00038" lon="5.43526">
        <ele>705.7</ele>
        <time>2019-10-30T14:51:46Z</time>
      </trkpt>
      <trkpt lat="45.0009" lon="5.43563">
        <ele>692.1</ele>
        <time>2019-10-30T14:51:54Z</time>
      </trkpt>
      <trkpt lat="45.00112" lon="5.43571">
        <ele>693.8</ele>
        <time>2019-10-30T14:51:58Z</time>
      </trkpt>
      <trkpt lat="45.00152" lon="5.43606">
        <ele>695.3</ele>
        <time>2019-10-30T14:52:09Z</time>
      </trkpt>
      <trkpt lat="45.00173" lon="5.4362">
        <ele>695.8</ele>
        <time>2019-10-30T14:52:14Z</time>
      </trkpt>
      <trkpt lat="45.00273" lon="5.43671">
        <ele>697.1</ele>
        <time>2019-10-30T14:52:34Z</time>
      </trkpt>
      <trkpt lat="45.00299" lon="5.43689">
        <ele>698</ele>
        <time>2019-10-30T14:52:38Z</time>
      </trkpt>
      <trkpt lat="45.00315" lon="5.43708">
        <ele>696.8</ele>
        <time>2019-10-30T14:52:41Z</time>
      </trkpt>
      <trkpt lat="45.00325" lon="5.43733">
        <ele>693.7</ele>
        <time>2019-10-30T14:52:44Z</time>
      </trkpt>
      <trkpt lat="45.00326" lon="5.4376">
        <ele>691.7</ele>
        <time>2019-10-30T14:52:47Z</time>
      </trkpt>
      <trkpt lat="45.00306" lon="5.43963">
        <ele>712.6</ele>
        <time>2019-10-30T14:53:13Z</time>
      </trkpt>
      <trkpt lat="45.00304" lon="5.44022">
        <ele>714</ele>
        <time>2019-10-30T14:53:20Z</time>
      </trkpt>
      <trkpt lat="45.00307" lon="5.44037">
        <ele>712.7</ele>
        <time>2019-10-30T14:53:22Z</time>
      </trkpt>
      <trkpt lat="45.00317" lon="5.44054">
        <ele>709.9</ele>
        <time>2019-10-30T14:53:25Z</time>
      </trkpt>
      <trkpt lat="45.00365" lon="5.44104">
        <ele>707.4</ele>
        <time>2019-10-30T14:53:36Z</time>
      </trkpt>
      <trkpt lat="45.00435" lon="5.44128">
        <ele>710</ele>
        <time>2019-10-30T14:53:50Z</time>
      </trkpt>
      <trkpt lat="45.00457" lon="5.4412">
        <ele>713.4</ele>
        <time>2019-10-30T14:53:57Z</time>
      </trkpt>
      <trkpt lat="45.00473" lon="5.44104">
        <ele>716.3</ele>
        <time>2019-10-30T14:54:05Z</time>
      </trkpt>
      <trkpt lat="45.00521" lon="5.44102">
        <ele>720.3</ele>
        <time>2019-10-30T14:54:23Z</time>
      </trkpt>
      <trkpt lat="45.0057" lon="5.44086">
        <ele>721.8</ele>
        <time>2019-10-30T14:54:42Z</time>
      </trkpt>
      <trkpt lat="45.00606" lon="5.44057">
        <ele>726.3</ele>
        <time>2019-10-30T14:54:57Z</time>
      </trkpt>
      <trkpt lat="45.00631" lon="5.44049">
        <ele>728.2</ele>
        <time>2019-10-30T14:55:06Z</time>
      </trkpt>
      <trkpt lat="45.00643" lon="5.4404">
        <ele>730.1</ele>
        <time>2019-10-30T14:55:14Z</time>
      </trkpt>
      <trkpt lat="45.00659" lon="5.44037">
        <ele>731.2</ele>
        <time>2019-10-30T14:55:22Z</time>
      </trkpt>
      <trkpt lat="45.00685" lon="5.44024">
        <ele>736.1</ele>
        <time>2019-10-30T14:55:34Z</time>
      </trkpt>
      <trkpt lat="45.00715" lon="5.44024">
        <ele>739.9</ele>
        <time>2019-10-30T14:55:45Z</time>
      </trkpt>
      <trkpt lat="45.00741" lon="5.44033">
        <ele>740.1</ele>
        <time>2019-10-30T14:55:53Z</time>
      </trkpt>
      <trkpt lat="45.00754" lon="5.44033">
        <ele>741.8</ele>
        <time>2019-10-30T14:55:57Z</time>
      </trkpt>
      <trkpt lat="45.00803" lon="5.44058">
        <ele>741.4</ele>
        <time>2019-10-30T14:56:07Z</time>
      </trkpt>
      <trkpt lat="45.00813" lon="5.44072">
        <ele>738.6</ele>
        <time>2019-10-30T14:56:09Z</time>
      </trkpt>
      <trkpt lat="45.00817" lon="5.44086">
        <ele>735.4</ele>
        <time>2019-10-30T14:56:11Z</time>
      </trkpt>
      <trkpt lat="45.00817" lon="5.44096">
        <ele>734.5</ele>
        <time>2019-10-30T14:56:13Z</time>
      </trkpt>
      <trkpt lat="45.00811" lon="5.4412">
        <ele>731.3</ele>
        <time>2019-10-30T14:56:19Z</time>
      </trkpt>
      <trkpt lat="45.00816" lon="5.44138">
        <ele>730.3</ele>
        <time>2019-10-30T14:56:24Z</time>
      </trkpt>
      <trkpt lat="45.00839" lon="5.44145">
        <ele>732.2</ele>
        <time>2019-10-30T14:56:36Z</time>
      </trkpt>
      <trkpt lat="45.00855" lon="5.44132">
        <ele>733.9</ele>
        <time>2019-10-30T14:56:49Z</time>
      </trkpt>
      <trkpt lat="45.00901" lon="5.44119">
        <ele>736.2</ele>
        <time>2019-10-30T14:57:09Z</time>
      </trkpt>
      <trkpt lat="45.00922" lon="5.44122">
        <ele>736.3</ele>
        <time>2019-10-30T14:57:14Z</time>
      </trkpt>
      <trkpt lat="45.0094" lon="5.44135">
        <ele>735.2</ele>
        <time>2019-10-30T14:57:20Z</time>
      </trkpt>
      <trkpt lat="45.00991" lon="5.44118">
        <ele>736.4</ele>
        <time>2019-10-30T14:57:35Z</time>
      </trkpt>
      <trkpt lat="45.01056" lon="5.44104">
        <ele>742.2</ele>
        <time>2019-10-30T14:58:00Z</time>
      </trkpt>
      <trkpt lat="45.01076" lon="5.44096">
        <ele>744.5</ele>
        <time>2019-10-30T14:58:09Z</time>
      </trkpt>
      <trkpt lat="45.01157" lon="5.44103">
        <ele>746.8</ele>
        <time>2019-10-30T14:58:39Z</time>
      </trkpt>
      <trkpt lat="45.01189" lon="5.44092">
        <ele>748.5</ele>
        <time>2019-10-30T14:59:37Z</time>
      </trkpt>
      <trkpt lat="45.01224" lon="5.44086">
        <ele>750.5</ele>
        <time>2019-10-30T14:59:48Z</time>
      </trkpt>
      <trkpt lat="45.01268" lon="5.44088">
        <ele>751.3</ele>
        <time>2019-10-30T15:00:01Z</time>
      </trkpt>
      <trkpt lat="45.01315" lon="5.44086">
        <ele>751.6</ele>
        <time>2019-10-30T15:00:11Z</time>
      </trkpt>
      <trkpt lat="45.01335" lon="5.44093">
        <ele>750.8</ele>
        <time>2019-10-30T15:00:15Z</time>
      </trkpt>
      <trkpt lat="45.0142" lon="5.44106">
        <ele>749.9</ele>
        <time>2019-10-30T15:00:29Z</time>
      </trkpt>
      <trkpt lat="45.0145" lon="5.44104">
        <ele>750.5</ele>
        <time>2019-10-30T15:00:35Z</time>
      </trkpt>
      <trkpt lat="45.01469" lon="5.44108">
        <ele>749.9</ele>
        <time>2019-10-30T15:00:38Z</time>
      </trkpt>
      <trkpt lat="45.01518" lon="5.44135">
        <ele>746.2</ele>
        <time>2019-10-30T15:00:48Z</time>
      </trkpt>
      <trkpt lat="45.01529" lon="5.44139">
        <ele>745.9</ele>
        <time>2019-10-30T15:00:51Z</time>
      </trkpt>
      <trkpt lat="45.0156" lon="5.44134">
        <ele>747.1</ele>
        <time>2019-10-30T15:00:57Z</time>
      </trkpt>
      <trkpt lat="45.01603" lon="5.44145">
        <ele>746.1</ele>
        <time>2019-10-30T15:01:10Z</time>
      </trkpt>
      <trkpt lat="45.01647" lon="5.44145">
        <ele>747</ele>
        <time>2019-10-30T15:01:20Z</time>
      </trkpt>
      <trkpt lat="45.01671" lon="5.44138">
        <ele>748.8</ele>
        <time>2019-10-30T15:01:26Z</time>
      </trkpt>
      <trkpt lat="45.01693" lon="5.44141">
        <ele>749.7</ele>
        <time>2019-10-30T15:01:31Z</time>
      </trkpt>
      <trkpt lat="45.01718" lon="5.44164">
        <ele>748.2</ele>
        <time>2019-10-30T15:01:37Z</time>
      </trkpt>
      <trkpt lat="45.01732" lon="5.44171">
        <ele>748.2</ele>
        <time>2019-10-30T15:01:40Z</time>
      </trkpt>
      <trkpt lat="45.01752" lon="5.44174">
        <ele>749.2</ele>
        <time>2019-10-30T15:01:45Z</time>
      </trkpt>
      <trkpt lat="45.01811" lon="5.44167">
        <ele>753.6</ele>
        <time>2019-10-30T15:02:04Z</time>
      </trkpt>
      <trkpt lat="45.01821" lon="5.44161">
        <ele>755.3</ele>
        <time>2019-10-30T15:02:07Z</time>
      </trkpt>
      <trkpt lat="45.01839" lon="5.44145">
        <ele>759.4</ele>
        <time>2019-10-30T15:02:13Z</time>
      </trkpt>
      <trkpt lat="45.01862" lon="5.44116">
        <ele>765.6</ele>
        <time>2019-10-30T15:02:21Z</time>
      </trkpt>
      <trkpt lat="45.01869" lon="5.44112">
        <ele>766.6</ele>
        <time>2019-10-30T15:02:23Z</time>
      </trkpt>
      <trkpt lat="45.01874" lon="5.44115">
        <ele>766.3</ele>
        <time>2019-10-30T15:02:25Z</time>
      </trkpt>
      <trkpt lat="45.0188" lon="5.44139">
        <ele>762.1</ele>
        <time>2019-10-30T15:02:30Z</time>
      </trkpt>
      <trkpt lat="45.01896" lon="5.4417">
        <ele>757.6</ele>
        <time>2019-10-30T15:02:36Z</time>
      </trkpt>
      <trkpt lat="45.01911" lon="5.44186">
        <ele>756.5</ele>
        <time>2019-10-30T15:02:39Z</time>
      </trkpt>
      <trkpt lat="45.01922" lon="5.44194">
        <ele>756</ele>
        <time>2019-10-30T15:02:41Z</time>
      </trkpt>
      <trkpt lat="45.01943" lon="5.442">
        <ele>755.4</ele>
        <time>2019-10-30T15:02:44Z</time>
      </trkpt>
      <trkpt lat="45.02024" lon="5.44206">
        <ele>756.4</ele>
        <time>2019-10-30T15:02:56Z</time>
      </trkpt>
      <trkpt lat="45.02065" lon="5.44223">
        <ele>757.3</ele>
        <time>2019-10-30T15:03:03Z</time>
      </trkpt>
      <trkpt lat="45.02089" lon="5.44227">
        <ele>758.6</ele>
        <time>2019-10-30T15:03:07Z</time>
      </trkpt>
      <trkpt lat="45.02135" lon="5.44221">
        <ele>762.3</ele>
        <time>2019-10-30T15:03:19Z</time>
      </trkpt>
      <trkpt lat="45.0214" lon="5.44224">
        <ele>762.4</ele>
        <time>2019-10-30T15:03:21Z</time>
      </trkpt>
      <trkpt lat="45.02166" lon="5.44268">
        <ele>759.7</ele>
        <time>2019-10-30T15:04:04Z</time>
      </trkpt>
      <trkpt lat="45.02245" lon="5.44304">
        <ele>756.4</ele>
        <time>2019-10-30T15:04:25Z</time>
      </trkpt>
      <trkpt lat="45.02303" lon="5.4432">
        <ele>756</ele>
        <time>2019-10-30T15:04:39Z</time>
      </trkpt>
      <trkpt lat="45.02425" lon="5.44361">
        <ele>758.5</ele>
        <time>2019-10-30T15:05:03Z</time>
      </trkpt>
      <trkpt lat="45.02502" lon="5.44379">
        <ele>760.1</ele>
        <time>2019-10-30T15:05:18Z</time>
      </trkpt>
      <trkpt lat="45.02579" lon="5.44385">
        <ele>760.9</ele>
        <time>2019-10-30T15:05:32Z</time>
      </trkpt>
      <trkpt lat="45.02679" lon="5.44398">
        <ele>766.8</ele>
        <time>2019-10-30T15:05:51Z</time>
      </trkpt>
      <trkpt lat="45.02702" lon="5.44398">
        <ele>768.2</ele>
        <time>2019-10-30T15:05:56Z</time>
      </trkpt>
      <trkpt lat="45.02729" lon="5.44391">
        <ele>771.7</ele>
        <time>2019-10-30T15:06:02Z</time>
      </trkpt>
      <trkpt lat="45.02759" lon="5.44372">
        <ele>779.2</ele>
        <time>2019-10-30T15:06:09Z</time>
      </trkpt>
      <trkpt lat="45.02782" lon="5.44365">
        <ele>783.8</ele>
        <time>2019-10-30T15:06:14Z</time>
      </trkpt>
      <trkpt lat="45.0283" lon="5.4436">
        <ele>790.7</ele>
        <time>2019-10-30T15:06:28Z</time>
      </trkpt>
      <trkpt lat="45.02885" lon="5.44389">
        <ele>787.5</ele>
        <time>2019-10-30T15:06:42Z</time>
      </trkpt>
      <trkpt lat="45.02917" lon="5.44399">
        <ele>788.2</ele>
        <time>2019-10-30T15:06:48Z</time>
      </trkpt>
      <trkpt lat="45.03056" lon="5.44413">
        <ele>797.5</ele>
        <time>2019-10-30T15:07:22Z</time>
      </trkpt>
      <trkpt lat="45.03078" lon="5.44401">
        <ele>803.1</ele>
        <time>2019-10-30T15:07:29Z</time>
      </trkpt>
      <trkpt lat="45.03114" lon="5.44395">
        <ele>807.1</ele>
        <time>2019-10-30T15:07:41Z</time>
      </trkpt>
      <trkpt lat="45.03159" lon="5.44398">
        <ele>809.1</ele>
        <time>2019-10-30T15:07:54Z</time>
      </trkpt>
      <trkpt lat="45.03301" lon="5.44387">
        <ele>819.8</ele>
        <time>2019-10-30T15:08:38Z</time>
      </trkpt>
      <trkpt lat="45.03314" lon="5.44378">
        <ele>822.1</ele>
        <time>2019-10-30T15:08:42Z</time>
      </trkpt>
      <trkpt lat="45.03312" lon="5.44371">
        <ele>823.2</ele>
        <time>2019-10-30T15:08:45Z</time>
      </trkpt>
      <trkpt lat="45.03283" lon="5.44353">
        <ele>825</ele>
        <time>2019-10-30T15:09:08Z</time>
      </trkpt>
      <trkpt lat="45.03229" lon="5.44334">
        <ele>826.4</ele>
        <time>2019-10-30T15:10:19Z</time>
      </trkpt>
      <trkpt lat="45.03209" lon="5.44319">
        <ele>830.4</ele>
        <time>2019-10-30T15:10:26Z</time>
      </trkpt>
      <trkpt lat="45.03196" lon="5.44313">
        <ele>831.5</ele>
        <time>2019-10-30T15:10:30Z</time>
      </trkpt>
      <trkpt lat="45.03173" lon="5.44296">
        <ele>835.7</ele>
        <time>2019-10-30T15:10:38Z</time>
      </trkpt>
      <trkpt lat="45.03161" lon="5.44291">
        <ele>836.6</ele>
        <time>2019-10-30T15:10:43Z</time>
      </trkpt>
      <trkpt lat="45.03157" lon="5.44284">
        <ele>838.3</ele>
        <time>2019-10-30T15:10:46Z</time>
      </trkpt>
      <trkpt lat="45.03161" lon="5.44276">
        <ele>840.6</ele>
        <time>2019-10-30T15:10:50Z</time>
      </trkpt>
      <trkpt lat="45.03185" lon="5.44262">
        <ele>845.9</ele>
        <time>2019-10-30T15:11:05Z</time>
      </trkpt>
      <trkpt lat="45.03217" lon="5.44249">
        <ele>851.8</ele>
        <time>2019-10-30T15:11:24Z</time>
      </trkpt>
      <trkpt lat="45.03285" lon="5.44245">
        <ele>855.8</ele>
        <time>2019-10-30T15:12:40Z</time>
      </trkpt>
      <trkpt lat="45.03288" lon="5.44241">
        <ele>856.8</ele>
        <time>2019-10-30T15:12:42Z</time>
      </trkpt>
      <trkpt lat="45.03289" lon="5.44237">
        <ele>857.8</ele>
        <time>2019-10-30T15:12:44Z</time>
      </trkpt>
      <trkpt lat="45.03274" lon="5.44218">
        <ele>862.3</ele>
        <time>2019-10-30T15:12:55Z</time>
      </trkpt>
      <trkpt lat="45.03233" lon="5.44192">
        <ele>865.7</ele>
        <time>2019-10-30T15:13:12Z</time>
      </trkpt>
      <trkpt lat="45.03216" lon="5.44173">
        <ele>868.4</ele>
        <time>2019-10-30T15:13:21Z</time>
      </trkpt>
      <trkpt lat="45.03168" lon="5.44144">
        <ele>871.1</ele>
        <time>2019-10-30T15:13:39Z</time>
      </trkpt>
      <trkpt lat="45.03143" lon="5.44126">
        <ele>874.5</ele>
        <time>2019-10-30T15:13:49Z</time>
      </trkpt>
      <trkpt lat="45.0311" lon="5.44084">
        <ele>882.1</ele>
        <time>2019-10-30T15:14:05Z</time>
      </trkpt>
      <trkpt lat="45.03096" lon="5.44077">
        <ele>882.5</ele>
        <time>2019-10-30T15:14:11Z</time>
      </trkpt>
      <trkpt lat="45.03087" lon="5.44083">
        <ele>880.4</ele>
        <time>2019-10-30T15:14:17Z</time>
      </trkpt>
      <trkpt lat="45.03076" lon="5.44084">
        <ele>880.2</ele>
        <time>2019-10-30T15:14:22Z</time>
      </trkpt>
      <trkpt lat="45.03052" lon="5.44079">
        <ele>882.7</ele>
        <time>2019-10-30T15:14:31Z</time>
      </trkpt>
      <trkpt lat="45.03044" lon="5.44073">
        <ele>884.5</ele>
        <time>2019-10-30T15:14:35Z</time>
      </trkpt>
      <trkpt lat="45.03031" lon="5.4407">
        <ele>885.9</ele>
        <time>2019-10-30T15:14:40Z</time>
      </trkpt>
      <trkpt lat="45.03011" lon="5.44055">
        <ele>889.7</ele>
        <time>2019-10-30T15:14:48Z</time>
      </trkpt>
      <trkpt lat="45.02994" lon="5.44049">
        <ele>890.8</ele>
        <time>2019-10-30T15:14:57Z</time>
      </trkpt>
      <trkpt lat="45.0296" lon="5.44021">
        <ele>894.4</ele>
        <time>2019-10-30T15:15:10Z</time>
      </trkpt>
      <trkpt lat="45.02928" lon="5.44007">
        <ele>895.9</ele>
        <time>2019-10-30T15:15:23Z</time>
      </trkpt>
      <trkpt lat="45.029" lon="5.43982">
        <ele>900.4</ele>
        <time>2019-10-30T15:15:35Z</time>
      </trkpt>
      <trkpt lat="45.02821" lon="5.4394">
        <ele>908.7</ele>
        <time>2019-10-30T15:16:04Z</time>
      </trkpt>
      <trkpt lat="45.02821" lon="5.43936">
        <ele>909.8</ele>
        <time>2019-10-30T15:16:06Z</time>
      </trkpt>
      <trkpt lat="45.02851" lon="5.43922">
        <ele>913.6</ele>
        <time>2019-10-30T15:16:29Z</time>
      </trkpt>
      <trkpt lat="45.02906" lon="5.4391">
        <ele>914.9</ele>
        <time>2019-10-30T15:16:51Z</time>
      </trkpt>
      <trkpt lat="45.02935" lon="5.43907">
        <ele>915.3</ele>
        <time>2019-10-30T15:17:02Z</time>
      </trkpt>
      <trkpt lat="45.02966" lon="5.4389">
        <ele>916.3</ele>
        <time>2019-10-30T15:17:15Z</time>
      </trkpt>
      <trkpt lat="45.0297" lon="5.43881">
        <ele>916.5</ele>
        <time>2019-10-30T15:17:19Z</time>
      </trkpt>
      <trkpt lat="45.02967" lon="5.4387">
        <ele>917.1</ele>
        <time>2019-10-30T15:17:23Z</time>
      </trkpt>
      <trkpt lat="45.0296" lon="5.43863">
        <ele>917.8</ele>
        <time>2019-10-30T15:17:28Z</time>
      </trkpt>
      <trkpt lat="45.02925" lon="5.43805">
        <ele>924.7</ele>
        <time>2019-10-30T15:17:51Z</time>
      </trkpt>
      <trkpt lat="45.02895" lon="5.43742">
        <ele>930.7</ele>
        <time>2019-10-30T15:18:06Z</time>
      </trkpt>
      <trkpt lat="45.02869" lon="5.43711">
        <ele>936.3</ele>
        <time>2019-10-30T15:18:18Z</time>
      </trkpt>
      <trkpt lat="45.02833" lon="5.43688">
        <ele>940.4</ele>
        <time>2019-10-30T15:18:33Z</time>
      </trkpt>
      <trkpt lat="45.02837" lon="5.4368">
        <ele>941.8</ele>
        <time>2019-10-30T15:18:38Z</time>
      </trkpt>
      <trkpt lat="45.02864" lon="5.4365">
        <ele>946.1</ele>
        <time>2019-10-30T15:19:01Z</time>
      </trkpt>
      <trkpt lat="45.02871" lon="5.43647">
        <ele>946.4</ele>
        <time>2019-10-30T15:19:05Z</time>
      </trkpt>
      <trkpt lat="45.02894" lon="5.43623">
        <ele>949</ele>
        <time>2019-10-30T15:19:19Z</time>
      </trkpt>
      <trkpt lat="45.02921" lon="5.43614">
        <ele>949.5</ele>
        <time>2019-10-30T15:19:30Z</time>
      </trkpt>
      <trkpt lat="45.02922" lon="5.43606">
        <ele>950.3</ele>
        <time>2019-10-30T15:19:35Z</time>
      </trkpt>
      <trkpt lat="45.02917" lon="5.43596">
        <ele>951.6</ele>
        <time>2019-10-30T15:19:41Z</time>
      </trkpt>
      <trkpt lat="45.02877" lon="5.43571">
        <ele>953.6</ele>
        <time>2019-10-30T15:20:02Z</time>
      </trkpt>
      <trkpt lat="45.02824" lon="5.43552">
        <ele>955.5</ele>
        <time>2019-10-30T15:20:20Z</time>
      </trkpt>
      <trkpt lat="45.02806" lon="5.43542">
        <ele>957.3</ele>
        <time>2019-10-30T15:20:27Z</time>
      </trkpt>
      <trkpt lat="45.02752" lon="5.43529">
        <ele>963</ele>
        <time>2019-10-30T15:20:47Z</time>
      </trkpt>
      <trkpt lat="45.02737" lon="5.43518">
        <ele>963.4</ele>
        <time>2019-10-30T15:20:52Z</time>
      </trkpt>
      <trkpt lat="45.0272" lon="5.43471">
        <ele>963.8</ele>
        <time>2019-10-30T15:21:06Z</time>
      </trkpt>
      <trkpt lat="45.0269" lon="5.43434">
        <ele>964.8</ele>
        <time>2019-10-30T15:21:17Z</time>
      </trkpt>
      <trkpt lat="45.02684" lon="5.43416">
        <ele>965.5</ele>
        <time>2019-10-30T15:21:21Z</time>
      </trkpt>
      <trkpt lat="45.02688" lon="5.43314">
        <ele>972.9</ele>
        <time>2019-10-30T15:21:46Z</time>
      </trkpt>
      <trkpt lat="45.02715" lon="5.43109">
        <ele>996.5</ele>
        <time>2019-10-30T15:22:45Z</time>
      </trkpt>
      <trkpt lat="45.02713" lon="5.43108">
        <ele>996.5</ele>
        <time>2019-10-30T15:22:47Z</time>
      </trkpt>
      <trkpt lat="45.02703" lon="5.43175">
        <ele>988</ele>
        <time>2019-10-30T15:25:13Z</time>
      </trkpt>
      <trkpt lat="45.0271" lon="5.43116">
        <ele>995.2</ele>
        <time>2019-10-30T15:27:54Z</time>
      </trkpt>
      <trkpt lat="45.02714" lon="5.43109">
        <ele>996.4</ele>
        <time>2019-10-30T15:27:58Z</time>
      </trkpt>
      <trkpt lat="45.02752" lon="5.4307">
        <ele>1004.2</ele>
        <time>2019-10-30T15:28:26Z</time>
      </trkpt>
      <trkpt lat="45.0277" lon="5.4306">
        <ele>1003.9</ele>
        <time>2019-10-30T15:28:34Z</time>
      </trkpt>
      <trkpt lat="45.02785" lon="5.43063">
        <ele>1003.3</ele>
        <time>2019-10-30T15:30:55Z</time>
      </trkpt>
      <trkpt lat="45.02805" lon="5.43074">
        <ele>1002.3</ele>
        <time>2019-10-30T15:31:01Z</time>
      </trkpt>
      <trkpt lat="45.02869" lon="5.43089">
        <ele>996</ele>
        <time>2019-10-30T15:31:12Z</time>
      </trkpt>
      <trkpt lat="45.02899" lon="5.43104">
        <ele>991.3</ele>
        <time>2019-10-30T15:31:15Z</time>
      </trkpt>
      <trkpt lat="45.02936" lon="5.43131">
        <ele>987.2</ele>
        <time>2019-10-30T15:31:19Z</time>
      </trkpt>
      <trkpt lat="45.02996" lon="5.43156">
        <ele>984.1</ele>
        <time>2019-10-30T15:31:25Z</time>
      </trkpt>
      <trkpt lat="45.03027" lon="5.43164">
        <ele>981.4</ele>
        <time>2019-10-30T15:31:28Z</time>
      </trkpt>
      <trkpt lat="45.03078" lon="5.4315">
        <ele>976.9</ele>
        <time>2019-10-30T15:31:33Z</time>
      </trkpt>
      <trkpt lat="45.03088" lon="5.4315">
        <ele>976</ele>
        <time>2019-10-30T15:31:34Z</time>
      </trkpt>
      <trkpt lat="45.03129" lon="5.43175">
        <ele>971.2</ele>
        <time>2019-10-30T15:31:38Z</time>
      </trkpt>
      <trkpt lat="45.03153" lon="5.43181">
        <ele>968.4</ele>
        <time>2019-10-30T15:31:40Z</time>
      </trkpt>
      <trkpt lat="45.032" lon="5.43172">
        <ele>966.4</ele>
        <time>2019-10-30T15:31:45Z</time>
      </trkpt>
      <trkpt lat="45.03208" lon="5.43175">
        <ele>965.5</ele>
        <time>2019-10-30T15:31:46Z</time>
      </trkpt>
      <trkpt lat="45.03228" lon="5.43208">
        <ele>960.5</ele>
        <time>2019-10-30T15:31:50Z</time>
      </trkpt>
      <trkpt lat="45.03242" lon="5.4324">
        <ele>956.4</ele>
        <time>2019-10-30T15:31:53Z</time>
      </trkpt>
      <trkpt lat="45.03278" lon="5.43286">
        <ele>950.2</ele>
        <time>2019-10-30T15:31:58Z</time>
      </trkpt>
      <trkpt lat="45.03304" lon="5.43336">
        <ele>944.3</ele>
        <time>2019-10-30T15:32:02Z</time>
      </trkpt>
      <trkpt lat="45.03321" lon="5.43353">
        <ele>942.6</ele>
        <time>2019-10-30T15:32:04Z</time>
      </trkpt>
      <trkpt lat="45.03375" lon="5.43372">
        <ele>938.5</ele>
        <time>2019-10-30T15:32:09Z</time>
      </trkpt>
      <trkpt lat="45.03482" lon="5.43433">
        <ele>932.9</ele>
        <time>2019-10-30T15:32:24Z</time>
      </trkpt>
      <trkpt lat="45.03509" lon="5.43451">
        <ele>931.2</ele>
        <time>2019-10-30T15:32:29Z</time>
      </trkpt>
      <trkpt lat="45.03567" lon="5.43471">
        <ele>927.5</ele>
        <time>2019-10-30T15:32:37Z</time>
      </trkpt>
      <trkpt lat="45.03624" lon="5.43508">
        <ele>922.4</ele>
        <time>2019-10-30T15:32:47Z</time>
      </trkpt>
      <trkpt lat="45.03651" lon="5.43515">
        <ele>921.5</ele>
        <time>2019-10-30T15:32:51Z</time>
      </trkpt>
      <trkpt lat="45.03672" lon="5.43515">
        <ele>920.9</ele>
        <time>2019-10-30T15:32:54Z</time>
      </trkpt>
      <trkpt lat="45.03732" lon="5.43502">
        <ele>919.5</ele>
        <time>2019-10-30T15:33:05Z</time>
      </trkpt>
      <trkpt lat="45.03768" lon="5.43513">
        <ele>917.8</ele>
        <time>2019-10-30T15:33:10Z</time>
      </trkpt>
      <trkpt lat="45.03833" lon="5.43519">
        <ele>912</ele>
        <time>2019-10-30T15:33:17Z</time>
      </trkpt>
      <trkpt lat="45.03876" lon="5.43529">
        <ele>909.2</ele>
        <time>2019-10-30T15:33:21Z</time>
      </trkpt>
      <trkpt lat="45.03887" lon="5.43529">
        <ele>908.5</ele>
        <time>2019-10-30T15:33:22Z</time>
      </trkpt>
      <trkpt lat="45.0397" lon="5.43508">
        <ele>905.8</ele>
        <time>2019-10-30T15:33:29Z</time>
      </trkpt>
      <trkpt lat="45.04005" lon="5.43504">
        <ele>904.8</ele>
        <time>2019-10-30T15:33:32Z</time>
      </trkpt>
      <trkpt lat="45.04026" lon="5.43512">
        <ele>904.1</ele>
        <time>2019-10-30T15:33:34Z</time>
      </trkpt>
      <trkpt lat="45.04045" lon="5.4353">
        <ele>903.4</ele>
        <time>2019-10-30T15:33:36Z</time>
      </trkpt>
      <trkpt lat="45.04118" lon="5.43636">
        <ele>902.2</ele>
        <time>2019-10-30T15:33:47Z</time>
      </trkpt>
      <trkpt lat="45.04123" lon="5.43639">
        <ele>902.4</ele>
        <time>2019-10-30T15:33:48Z</time>
      </trkpt>
      <trkpt lat="45.04147" lon="5.43627">
        <ele>901.2</ele>
        <time>2019-10-30T15:33:53Z</time>
      </trkpt>
      <trkpt lat="45.04367" lon="5.43559">
        <ele>908.1</ele>
        <time>2019-10-30T15:34:20Z</time>
      </trkpt>
      <trkpt lat="45.04378" lon="5.43552">
        <ele>907.2</ele>
        <time>2019-10-30T15:34:22Z</time>
      </trkpt>
      <trkpt lat="45.04387" lon="5.4354">
        <ele>905.9</ele>
        <time>2019-10-30T15:34:24Z</time>
      </trkpt>
      <trkpt lat="45.04397" lon="5.43518">
        <ele>903.5</ele>
        <time>2019-10-30T15:34:27Z</time>
      </trkpt>
      <trkpt lat="45.04418" lon="5.43496">
        <ele>901.6</ele>
        <time>2019-10-30T15:34:31Z</time>
      </trkpt>
      <trkpt lat="45.04436" lon="5.43484">
        <ele>899.1</ele>
        <time>2019-10-30T15:34:34Z</time>
      </trkpt>
      <trkpt lat="45.0445" lon="5.43482">
        <ele>897.7</ele>
        <time>2019-10-30T15:34:36Z</time>
      </trkpt>
      <trkpt lat="45.04491" lon="5.43499">
        <ele>893.9</ele>
        <time>2019-10-30T15:34:41Z</time>
      </trkpt>
      <trkpt lat="45.04532" lon="5.43494">
        <ele>893.1</ele>
        <time>2019-10-30T15:34:45Z</time>
      </trkpt>
      <trkpt lat="45.04548" lon="5.43502">
        <ele>893</ele>
        <time>2019-10-30T15:34:47Z</time>
      </trkpt>
      <trkpt lat="45.04574" lon="5.43558">
        <ele>891.9</ele>
        <time>2019-10-30T15:34:53Z</time>
      </trkpt>
      <trkpt lat="45.04593" lon="5.4357">
        <ele>892.2</ele>
        <time>2019-10-30T15:34:56Z</time>
      </trkpt>
      <trkpt lat="45.04642" lon="5.43589">
        <ele>895.5</ele>
        <time>2019-10-30T15:35:03Z</time>
      </trkpt>
      <trkpt lat="45.04656" lon="5.436">
        <ele>895.9</ele>
        <time>2019-10-30T15:35:05Z</time>
      </trkpt>
      <trkpt lat="45.04667" lon="5.43614">
        <ele>895.4</ele>
        <time>2019-10-30T15:35:07Z</time>
      </trkpt>
      <trkpt lat="45.04687" lon="5.43658">
        <ele>892.6</ele>
        <time>2019-10-30T15:35:12Z</time>
      </trkpt>
      <trkpt lat="45.04699" lon="5.43692">
        <ele>891.5</ele>
        <time>2019-10-30T15:35:16Z</time>
      </trkpt>
      <trkpt lat="45.04706" lon="5.43704">
        <ele>891.3</ele>
        <time>2019-10-30T15:35:19Z</time>
      </trkpt>
      <trkpt lat="45.04711" lon="5.43705">
        <ele>891.5</ele>
        <time>2019-10-30T15:35:21Z</time>
      </trkpt>
      <trkpt lat="45.04721" lon="5.43698">
        <ele>892.2</ele>
        <time>2019-10-30T15:35:26Z</time>
      </trkpt>
      <trkpt lat="45.04729" lon="5.43689">
        <ele>893</ele>
        <time>2019-10-30T15:35:30Z</time>
      </trkpt>
      <trkpt lat="45.04744" lon="5.43678">
        <ele>894.2</ele>
        <time>2019-10-30T15:35:36Z</time>
      </trkpt>
      <trkpt lat="45.04754" lon="5.43679">
        <ele>894.3</ele>
        <time>2019-10-30T15:35:39Z</time>
      </trkpt>
      <trkpt lat="45.04774" lon="5.4369">
        <ele>893</ele>
        <time>2019-10-30T15:35:45Z</time>
      </trkpt>
      <trkpt lat="45.04815" lon="5.43688">
        <ele>891.5</ele>
        <time>2019-10-30T15:35:54Z</time>
      </trkpt>
      <trkpt lat="45.04862" lon="5.4371">
        <ele>888.6</ele>
        <time>2019-10-30T15:36:02Z</time>
      </trkpt>
      <trkpt lat="45.049" lon="5.43714">
        <ele>887.1</ele>
        <time>2019-10-30T15:36:08Z</time>
      </trkpt>
      <trkpt lat="45.04961" lon="5.43734">
        <ele>887.1</ele>
        <time>2019-10-30T15:36:16Z</time>
      </trkpt>
      <trkpt lat="45.04975" lon="5.43746">
        <ele>887.1</ele>
        <time>2019-10-30T15:36:18Z</time>
      </trkpt>
      <trkpt lat="45.04984" lon="5.43761">
        <ele>887.1</ele>
        <time>2019-10-30T15:36:20Z</time>
      </trkpt>
      <trkpt lat="45.04996" lon="5.43805">
        <ele>887.1</ele>
        <time>2019-10-30T15:36:25Z</time>
      </trkpt>
      <trkpt lat="45.05001" lon="5.4385">
        <ele>887</ele>
        <time>2019-10-30T15:36:30Z</time>
      </trkpt>
      <trkpt lat="45.05007" lon="5.43866">
        <ele>887.1</ele>
        <time>2019-10-30T15:36:32Z</time>
      </trkpt>
      <trkpt lat="45.05018" lon="5.43885">
        <ele>887</ele>
        <time>2019-10-30T15:36:35Z</time>
      </trkpt>
      <trkpt lat="45.05041" lon="5.43912">
        <ele>886.6</ele>
        <time>2019-10-30T15:36:40Z</time>
      </trkpt>
      <trkpt lat="45.05059" lon="5.43922">
        <ele>886.1</ele>
        <time>2019-10-30T15:36:43Z</time>
      </trkpt>
      <trkpt lat="45.05107" lon="5.43938">
        <ele>885.4</ele>
        <time>2019-10-30T15:36:50Z</time>
      </trkpt>
      <trkpt lat="45.05138" lon="5.43937">
        <ele>886</ele>
        <time>2019-10-30T15:36:55Z</time>
      </trkpt>
      <trkpt lat="45.05147" lon="5.43942">
        <ele>886</ele>
        <time>2019-10-30T15:36:57Z</time>
      </trkpt>
      <trkpt lat="45.05162" lon="5.43967">
        <ele>885.7</ele>
        <time>2019-10-30T15:37:02Z</time>
      </trkpt>
      <trkpt lat="45.05168" lon="5.43983">
        <ele>885.3</ele>
        <time>2019-10-30T15:37:05Z</time>
      </trkpt>
      <trkpt lat="45.05175" lon="5.44029">
        <ele>886</ele>
        <time>2019-10-30T15:37:13Z</time>
      </trkpt>
      <trkpt lat="45.05177" lon="5.44082">
        <ele>888.1</ele>
        <time>2019-10-30T15:37:21Z</time>
      </trkpt>
      <trkpt lat="45.0518" lon="5.441">
        <ele>888.6</ele>
        <time>2019-10-30T15:37:25Z</time>
      </trkpt>
      <trkpt lat="45.05191" lon="5.44129">
        <ele>889.4</ele>
        <time>2019-10-30T15:37:32Z</time>
      </trkpt>
      <trkpt lat="45.05194" lon="5.44144">
        <ele>889.8</ele>
        <time>2019-10-30T15:37:35Z</time>
      </trkpt>
      <trkpt lat="45.05192" lon="5.44168">
        <ele>890.3</ele>
        <time>2019-10-30T15:37:42Z</time>
      </trkpt>
      <trkpt lat="45.05176" lon="5.44212">
        <ele>891.3</ele>
        <time>2019-10-30T15:37:52Z</time>
      </trkpt>
      <trkpt lat="45.0516" lon="5.44233">
        <ele>892</ele>
        <time>2019-10-30T15:37:57Z</time>
      </trkpt>
      <trkpt lat="45.05132" lon="5.44246">
        <ele>894.6</ele>
        <time>2019-10-30T15:38:05Z</time>
      </trkpt>
      <trkpt lat="45.0512" lon="5.44247">
        <ele>895.6</ele>
        <time>2019-10-30T15:38:09Z</time>
      </trkpt>
      <trkpt lat="45.05107" lon="5.44255">
        <ele>897.1</ele>
        <time>2019-10-30T15:38:14Z</time>
      </trkpt>
      <trkpt lat="45.05088" lon="5.44282">
        <ele>899.1</ele>
        <time>2019-10-30T15:38:23Z</time>
      </trkpt>
      <trkpt lat="45.0508" lon="5.44316">
        <ele>899.9</ele>
        <time>2019-10-30T15:38:29Z</time>
      </trkpt>
      <trkpt lat="45.05069" lon="5.44332">
        <ele>900.5</ele>
        <time>2019-10-30T15:38:35Z</time>
      </trkpt>
      <trkpt lat="45.05068" lon="5.44345">
        <ele>900</ele>
        <time>2019-10-30T15:38:51Z</time>
      </trkpt>
      <trkpt lat="45.05042" lon="5.44432">
        <ele>897.1</ele>
        <time>2019-10-30T15:39:02Z</time>
      </trkpt>
      <trkpt lat="45.05033" lon="5.44508">
        <ele>897.8</ele>
        <time>2019-10-30T15:39:11Z</time>
      </trkpt>
      <trkpt lat="45.05019" lon="5.44573">
        <ele>900.2</ele>
        <time>2019-10-30T15:39:23Z</time>
      </trkpt>
      <trkpt lat="45.0502" lon="5.44585">
        <ele>900.5</ele>
        <time>2019-10-30T15:39:25Z</time>
      </trkpt>
      <trkpt lat="45.05038" lon="5.44611">
        <ele>900.2</ele>
        <time>2019-10-30T15:39:31Z</time>
      </trkpt>
      <trkpt lat="45.05059" lon="5.44634">
        <ele>900.3</ele>
        <time>2019-10-30T15:39:37Z</time>
      </trkpt>
      <trkpt lat="45.05064" lon="5.44645">
        <ele>900.4</ele>
        <time>2019-10-30T15:39:39Z</time>
      </trkpt>
      <trkpt lat="45.05065" lon="5.44659">
        <ele>900.7</ele>
        <time>2019-10-30T15:39:41Z</time>
      </trkpt>
      <trkpt lat="45.0506" lon="5.44698">
        <ele>901.9</ele>
        <time>2019-10-30T15:39:47Z</time>
      </trkpt>
      <trkpt lat="45.05062" lon="5.4473">
        <ele>903</ele>
        <time>2019-10-30T15:39:52Z</time>
      </trkpt>
      <trkpt lat="45.0506" lon="5.44768">
        <ele>904.9</ele>
        <time>2019-10-30T15:40:00Z</time>
      </trkpt>
      <trkpt lat="45.05053" lon="5.44794">
        <ele>906.7</ele>
        <time>2019-10-30T15:40:07Z</time>
      </trkpt>
      <trkpt lat="45.05036" lon="5.44824">
        <ele>908.8</ele>
        <time>2019-10-30T15:40:17Z</time>
      </trkpt>
      <trkpt lat="45.05035" lon="5.44853">
        <ele>910.9</ele>
        <time>2019-10-30T15:40:25Z</time>
      </trkpt>
      <trkpt lat="45.05031" lon="5.44867">
        <ele>911.8</ele>
        <time>2019-10-30T15:40:29Z</time>
      </trkpt>
      <trkpt lat="45.05033" lon="5.4489">
        <ele>913.3</ele>
        <time>2019-10-30T15:40:39Z</time>
      </trkpt>
      <trkpt lat="45.05039" lon="5.44898">
        <ele>913.8</ele>
        <time>2019-10-30T15:40:42Z</time>
      </trkpt>
      <trkpt lat="45.05059" lon="5.44915">
        <ele>914.9</ele>
        <time>2019-10-30T15:40:50Z</time>
      </trkpt>
      <trkpt lat="45.05065" lon="5.44927">
        <ele>915</ele>
        <time>2019-10-30T15:40:54Z</time>
      </trkpt>
      <trkpt lat="45.05065" lon="5.44949">
        <ele>915.1</ele>
        <time>2019-10-30T15:41:02Z</time>
      </trkpt>
    </trkseg>
  </trk>
</gpx>